<?xml version="1.0" encoding="UTF-8" standalone="no" ?>
<gpx xmlns="http://www.topografix.com/GPX/1/1" xmlns:xsi="http://www.w3.org/2001/XMLSchema-instance" xsi:schemaLocation="http://www.topografix.com/GPX/1/1 http://www.topografix.com/GPX/1/1/gpx.xsd" version="1.1" creator="VisuGPX - https://www.visugpx.com">
  <metadata>
    <name>J2 Refuge du Nant du Beurre &amp;gt; Refuge des Arolles</name>
  </metadata>
  <wpt lat="45.62639" lon="6.6023">
    <ele>1910</ele>
  </wpt>
  <wpt lat="45.64244" lon="6.58293">
    <ele>1563.8</ele>
  </wpt>
  <wpt lat="45.64157" lon="6.57583">
    <ele>1567.2</ele>
  </wpt>
  <trk>
    <name><![CDATA[J2]]></name>
    <extensions>
      <line xmlns="http://www.topografix.com/GPX/gpx_style/0/2">
        <color>0000FF</color>
        <width>4</width>
      </line>
    </extensions>
    <trkseg>
      <trkpt lat="45.58294" lon="6.55989">
        <ele>2078.93</ele>
        <time>2024-07-21T17:15:14.000Z</time>
      </trkpt>
      <trkpt lat="45.58298" lon="6.56008">
        <ele>2078.65</ele>
        <time>2024-07-21T17:15:14.019Z</time>
      </trkpt>
      <trkpt lat="45.58321" lon="6.56097">
        <ele>2078.94</ele>
        <time>2024-07-21T17:15:14.127Z</time>
      </trkpt>
      <trkpt lat="45.58337" lon="6.56108">
        <ele>2080.09</ele>
        <time>2024-07-21T17:15:14.259Z</time>
      </trkpt>
      <trkpt lat="45.58346" lon="6.56125">
        <ele>2080.51</ele>
        <time>2024-07-21T17:15:14.410Z</time>
      </trkpt>
      <trkpt lat="45.58354" lon="6.56135">
        <ele>2081.08</ele>
        <time>2024-07-21T17:15:14.576Z</time>
      </trkpt>
      <trkpt lat="45.5838" lon="6.56155">
        <ele>2085.52</ele>
        <time>2024-07-21T17:15:14.781Z</time>
      </trkpt>
      <trkpt lat="45.58429" lon="6.56214">
        <ele>2091.44</ele>
        <time>2024-07-21T17:15:15.072Z</time>
      </trkpt>
      <trkpt lat="45.58429" lon="6.56225">
        <ele>2090.81</ele>
        <time>2024-07-21T17:15:15.373Z</time>
      </trkpt>
      <trkpt lat="45.58438" lon="6.56234">
        <ele>2092.03</ele>
        <time>2024-07-21T17:15:15.688Z</time>
      </trkpt>
      <trkpt lat="45.58442" lon="6.56239">
        <ele>2092.72</ele>
        <time>2024-07-21T17:15:16.011Z</time>
      </trkpt>
      <trkpt lat="45.58467" lon="6.56244">
        <ele>2096.33</ele>
        <time>2024-07-21T17:15:16.367Z</time>
      </trkpt>
      <trkpt lat="45.58474" lon="6.56253">
        <ele>2098.12</ele>
        <time>2024-07-21T17:15:16.736Z</time>
      </trkpt>
      <trkpt lat="45.58495" lon="6.56256">
        <ele>2102.94</ele>
        <time>2024-07-21T17:15:17.132Z</time>
      </trkpt>
      <trkpt lat="45.585" lon="6.56255">
        <ele>2103.94</ele>
        <time>2024-07-21T17:15:17.536Z</time>
      </trkpt>
      <trkpt lat="45.58508" lon="6.56261">
        <ele>2105.77</ele>
        <time>2024-07-21T17:15:17.951Z</time>
      </trkpt>
      <trkpt lat="45.58512" lon="6.56269">
        <ele>2107.15</ele>
        <time>2024-07-21T17:15:18.375Z</time>
      </trkpt>
      <trkpt lat="45.58517" lon="6.56267">
        <ele>2107.22</ele>
        <time>2024-07-21T17:15:18.807Z</time>
      </trkpt>
      <trkpt lat="45.58517" lon="6.56272">
        <ele>2108</ele>
        <time>2024-07-21T17:15:19.244Z</time>
      </trkpt>
      <trkpt lat="45.58523" lon="6.56279">
        <ele>2109.31</ele>
        <time>2024-07-21T17:15:19.690Z</time>
      </trkpt>
      <trkpt lat="45.58524" lon="6.56294">
        <ele>2111.55</ele>
        <time>2024-07-21T17:15:20.150Z</time>
      </trkpt>
      <trkpt lat="45.58522" lon="6.56303">
        <ele>2112.81</ele>
        <time>2024-07-21T17:15:20.620Z</time>
      </trkpt>
      <trkpt lat="45.58524" lon="6.56308">
        <ele>2113.58</ele>
        <time>2024-07-21T17:15:21.095Z</time>
      </trkpt>
      <trkpt lat="45.5853" lon="6.56309">
        <ele>2114.28</ele>
        <time>2024-07-21T17:15:21.578Z</time>
      </trkpt>
      <trkpt lat="45.58533" lon="6.56305">
        <ele>2113.96</ele>
        <time>2024-07-21T17:15:22.067Z</time>
      </trkpt>
      <trkpt lat="45.58538" lon="6.56308">
        <ele>2114.58</ele>
        <time>2024-07-21T17:15:22.562Z</time>
      </trkpt>
      <trkpt lat="45.58545" lon="6.56322">
        <ele>2117.11</ele>
        <time>2024-07-21T17:15:23.073Z</time>
      </trkpt>
      <trkpt lat="45.58552" lon="6.56328">
        <ele>2118.5</ele>
        <time>2024-07-21T17:15:23.595Z</time>
      </trkpt>
      <trkpt lat="45.58554" lon="6.56337">
        <ele>2120.2</ele>
        <time>2024-07-21T17:15:24.125Z</time>
      </trkpt>
      <trkpt lat="45.58561" lon="6.56347">
        <ele>2121.75</ele>
        <time>2024-07-21T17:15:24.669Z</time>
      </trkpt>
      <trkpt lat="45.58581" lon="6.56358">
        <ele>2123.29</ele>
        <time>2024-07-21T17:15:25.241Z</time>
      </trkpt>
      <trkpt lat="45.58592" lon="6.56372">
        <ele>2126.24</ele>
        <time>2024-07-21T17:15:25.833Z</time>
      </trkpt>
      <trkpt lat="45.58626" lon="6.56396">
        <ele>2134.62</ele>
        <time>2024-07-21T17:15:26.476Z</time>
      </trkpt>
      <trkpt lat="45.58642" lon="6.56407">
        <ele>2138.44</ele>
        <time>2024-07-21T17:15:27.142Z</time>
      </trkpt>
      <trkpt lat="45.58672" lon="6.5644">
        <ele>2143.87</ele>
        <time>2024-07-21T17:15:27.858Z</time>
      </trkpt>
      <trkpt lat="45.58675" lon="6.5644">
        <ele>2144.37</ele>
        <time>2024-07-21T17:15:28.579Z</time>
      </trkpt>
      <trkpt lat="45.58692" lon="6.56466">
        <ele>2148.77</ele>
        <time>2024-07-21T17:15:29.333Z</time>
      </trkpt>
      <trkpt lat="45.58707" lon="6.56482">
        <ele>2151.94</ele>
        <time>2024-07-21T17:15:30.113Z</time>
      </trkpt>
      <trkpt lat="45.58733" lon="6.56496">
        <ele>2155.82</ele>
        <time>2024-07-21T17:15:30.929Z</time>
      </trkpt>
      <trkpt lat="45.5874" lon="6.56506">
        <ele>2157.73</ele>
        <time>2024-07-21T17:15:31.759Z</time>
      </trkpt>
      <trkpt lat="45.5875" lon="6.56526">
        <ele>2161.38</ele>
        <time>2024-07-21T17:15:32.612Z</time>
      </trkpt>
      <trkpt lat="45.58754" lon="6.56545">
        <ele>2164.31</ele>
        <time>2024-07-21T17:15:33.483Z</time>
      </trkpt>
      <trkpt lat="45.58774" lon="6.56575">
        <ele>2168.78</ele>
        <time>2024-07-21T17:15:34.392Z</time>
      </trkpt>
      <trkpt lat="45.58795" lon="6.56584">
        <ele>2171.01</ele>
        <time>2024-07-21T17:15:35.331Z</time>
      </trkpt>
      <trkpt lat="45.58799" lon="6.56587">
        <ele>2171.57</ele>
        <time>2024-07-21T17:15:36.276Z</time>
      </trkpt>
      <trkpt lat="45.58807" lon="6.56584">
        <ele>2171.86</ele>
        <time>2024-07-21T17:15:37.231Z</time>
      </trkpt>
      <trkpt lat="45.58821" lon="6.56585">
        <ele>2173.87</ele>
        <time>2024-07-21T17:15:38.205Z</time>
      </trkpt>
      <trkpt lat="45.58843" lon="6.56593">
        <ele>2177.65</ele>
        <time>2024-07-21T17:15:39.210Z</time>
      </trkpt>
      <trkpt lat="45.58844" lon="6.5659">
        <ele>2177.27</ele>
        <time>2024-07-21T17:15:40.218Z</time>
      </trkpt>
      <trkpt lat="45.58841" lon="6.56574">
        <ele>2175.57</ele>
        <time>2024-07-21T17:15:41.242Z</time>
      </trkpt>
      <trkpt lat="45.58848" lon="6.56567">
        <ele>2175.57</ele>
        <time>2024-07-21T17:15:42.276Z</time>
      </trkpt>
      <trkpt lat="45.58854" lon="6.56566">
        <ele>2175.93</ele>
        <time>2024-07-21T17:15:43.319Z</time>
      </trkpt>
      <trkpt lat="45.58864" lon="6.56583">
        <ele>2177.9</ele>
        <time>2024-07-21T17:15:44.382Z</time>
      </trkpt>
      <trkpt lat="45.5889" lon="6.56605">
        <ele>2185.95</ele>
        <time>2024-07-21T17:15:45.485Z</time>
      </trkpt>
      <trkpt lat="45.58898" lon="6.56647">
        <ele>2191.33</ele>
        <time>2024-07-21T17:15:46.629Z</time>
      </trkpt>
      <trkpt lat="45.58929" lon="6.56691">
        <ele>2199.73</ele>
        <time>2024-07-21T17:15:47.832Z</time>
      </trkpt>
      <trkpt lat="45.58937" lon="6.56696">
        <ele>2201.76</ele>
        <time>2024-07-21T17:15:49.046Z</time>
      </trkpt>
      <trkpt lat="45.58951" lon="6.56714">
        <ele>2207.13</ele>
        <time>2024-07-21T17:15:50.285Z</time>
      </trkpt>
      <trkpt lat="45.58965" lon="6.56725">
        <ele>2210.59</ele>
        <time>2024-07-21T17:15:51.545Z</time>
      </trkpt>
      <trkpt lat="45.58967" lon="6.56725">
        <ele>2210.92</ele>
        <time>2024-07-21T17:15:52.808Z</time>
      </trkpt>
      <trkpt lat="45.58969" lon="6.5672">
        <ele>2210.49</ele>
        <time>2024-07-21T17:15:54.077Z</time>
      </trkpt>
      <trkpt lat="45.58967" lon="6.56708">
        <ele>2209.72</ele>
        <time>2024-07-21T17:15:55.357Z</time>
      </trkpt>
      <trkpt lat="45.58969" lon="6.567">
        <ele>2210.27</ele>
        <time>2024-07-21T17:15:56.645Z</time>
      </trkpt>
      <trkpt lat="45.58976" lon="6.56691">
        <ele>2211.65</ele>
        <time>2024-07-21T17:15:57.946Z</time>
      </trkpt>
      <trkpt lat="45.58977" lon="6.56692">
        <ele>2212.13</ele>
        <time>2024-07-21T17:15:59.249Z</time>
      </trkpt>
      <trkpt lat="45.58977" lon="6.56702">
        <ele>2213</ele>
        <time>2024-07-21T17:16:00.562Z</time>
      </trkpt>
      <trkpt lat="45.58981" lon="6.5671">
        <ele>2214.1</ele>
        <time>2024-07-21T17:16:01.883Z</time>
      </trkpt>
      <trkpt lat="45.58982" lon="6.56709">
        <ele>2214.51</ele>
        <time>2024-07-21T17:16:03.206Z</time>
      </trkpt>
      <trkpt lat="45.58986" lon="6.56695">
        <ele>2215.01</ele>
        <time>2024-07-21T17:16:04.543Z</time>
      </trkpt>
      <trkpt lat="45.5899" lon="6.5669">
        <ele>2215.56</ele>
        <time>2024-07-21T17:16:05.888Z</time>
      </trkpt>
      <trkpt lat="45.58993" lon="6.567">
        <ele>2217.37</ele>
        <time>2024-07-21T17:16:07.243Z</time>
      </trkpt>
      <trkpt lat="45.58994" lon="6.56706">
        <ele>2218.08</ele>
        <time>2024-07-21T17:16:08.604Z</time>
      </trkpt>
      <trkpt lat="45.58996" lon="6.56707">
        <ele>2218.82</ele>
        <time>2024-07-21T17:16:09.968Z</time>
      </trkpt>
      <trkpt lat="45.58999" lon="6.56697">
        <ele>2219</ele>
        <time>2024-07-21T17:16:11.342Z</time>
      </trkpt>
      <trkpt lat="45.59002" lon="6.56694">
        <ele>2219.58</ele>
        <time>2024-07-21T17:16:12.721Z</time>
      </trkpt>
      <trkpt lat="45.59006" lon="6.567">
        <ele>2221.71</ele>
        <time>2024-07-21T17:16:14.108Z</time>
      </trkpt>
      <trkpt lat="45.59031" lon="6.56727">
        <ele>2232.43</ele>
        <time>2024-07-21T17:16:15.537Z</time>
      </trkpt>
      <trkpt lat="45.59033" lon="6.5673">
        <ele>2233.07</ele>
        <time>2024-07-21T17:16:16.970Z</time>
      </trkpt>
      <trkpt lat="45.59033" lon="6.5673">
        <ele>2233.07</ele>
        <time>2024-07-21T17:16:18.403Z</time>
      </trkpt>
      <trkpt lat="45.59057" lon="6.5677">
        <ele>2239.73</ele>
        <time>2024-07-21T17:16:19.885Z</time>
      </trkpt>
      <trkpt lat="45.59059" lon="6.56779">
        <ele>2240.15</ele>
        <time>2024-07-21T17:16:21.375Z</time>
      </trkpt>
      <trkpt lat="45.5906" lon="6.56818">
        <ele>2236.26</ele>
        <time>2024-07-21T17:16:22.902Z</time>
      </trkpt>
      <trkpt lat="45.59076" lon="6.56843">
        <ele>2238.62</ele>
        <time>2024-07-21T17:16:24.461Z</time>
      </trkpt>
      <trkpt lat="45.59101" lon="6.56877">
        <ele>2240</ele>
        <time>2024-07-21T17:16:26.066Z</time>
      </trkpt>
      <trkpt lat="45.59108" lon="6.56888">
        <ele>2240</ele>
        <time>2024-07-21T17:16:27.685Z</time>
      </trkpt>
      <trkpt lat="45.59127" lon="6.56949">
        <ele>2236.45</ele>
        <time>2024-07-21T17:16:29.366Z</time>
      </trkpt>
      <trkpt lat="45.59134" lon="6.56983">
        <ele>2234.2</ele>
        <time>2024-07-21T17:16:31.081Z</time>
      </trkpt>
      <trkpt lat="45.59133" lon="6.57003">
        <ele>2232.85</ele>
        <time>2024-07-21T17:16:32.814Z</time>
      </trkpt>
      <trkpt lat="45.59105" lon="6.5703">
        <ele>2234.41</ele>
        <time>2024-07-21T17:16:34.592Z</time>
      </trkpt>
      <trkpt lat="45.59107" lon="6.57045">
        <ele>2231.7</ele>
        <time>2024-07-21T17:16:36.384Z</time>
      </trkpt>
      <trkpt lat="45.59093" lon="6.57069">
        <ele>2232.1</ele>
        <time>2024-07-21T17:16:38.206Z</time>
      </trkpt>
      <trkpt lat="45.5909" lon="6.57097">
        <ele>2230.79</ele>
        <time>2024-07-21T17:16:40.054Z</time>
      </trkpt>
      <trkpt lat="45.59097" lon="6.57146">
        <ele>2229.39</ele>
        <time>2024-07-21T17:16:41.948Z</time>
      </trkpt>
      <trkpt lat="45.59091" lon="6.57156">
        <ele>2232.41</ele>
        <time>2024-07-21T17:16:43.855Z</time>
      </trkpt>
      <trkpt lat="45.59099" lon="6.57171">
        <ele>2229.65</ele>
        <time>2024-07-21T17:16:45.779Z</time>
      </trkpt>
      <trkpt lat="45.59097" lon="6.57203">
        <ele>2230.66</ele>
        <time>2024-07-21T17:16:47.733Z</time>
      </trkpt>
      <trkpt lat="45.59106" lon="6.57254">
        <ele>2230.44</ele>
        <time>2024-07-21T17:16:49.736Z</time>
      </trkpt>
      <trkpt lat="45.59122" lon="6.5729">
        <ele>2233.01</ele>
        <time>2024-07-21T17:16:51.780Z</time>
      </trkpt>
      <trkpt lat="45.59126" lon="6.57312">
        <ele>2236.9</ele>
        <time>2024-07-21T17:16:53.844Z</time>
      </trkpt>
      <trkpt lat="45.59136" lon="6.57339">
        <ele>2240.81</ele>
        <time>2024-07-21T17:16:55.937Z</time>
      </trkpt>
      <trkpt lat="45.59152" lon="6.57368">
        <ele>2244.31</ele>
        <time>2024-07-21T17:16:58.065Z</time>
      </trkpt>
      <trkpt lat="45.59211" lon="6.57416">
        <ele>2241.52</ele>
        <time>2024-07-21T17:17:00.283Z</time>
      </trkpt>
      <trkpt lat="45.59229" lon="6.57453">
        <ele>2245.18</ele>
        <time>2024-07-21T17:17:02.543Z</time>
      </trkpt>
      <trkpt lat="45.59259" lon="6.57463">
        <ele>2241.52</ele>
        <time>2024-07-21T17:17:04.844Z</time>
      </trkpt>
      <trkpt lat="45.59292" lon="6.57467">
        <ele>2243.65</ele>
        <time>2024-07-21T17:17:07.190Z</time>
      </trkpt>
      <trkpt lat="45.593" lon="6.57472">
        <ele>2246.1</ele>
        <time>2024-07-21T17:17:09.548Z</time>
      </trkpt>
      <trkpt lat="45.59334" lon="6.57475">
        <ele>2246.28</ele>
        <time>2024-07-21T17:17:11.951Z</time>
      </trkpt>
      <trkpt lat="45.59358" lon="6.57482">
        <ele>2245.55</ele>
        <time>2024-07-21T17:17:14.387Z</time>
      </trkpt>
      <trkpt lat="45.59384" lon="6.57519">
        <ele>2250.41</ele>
        <time>2024-07-21T17:17:16.872Z</time>
      </trkpt>
      <trkpt lat="45.59404" lon="6.57527">
        <ele>2250.72</ele>
        <time>2024-07-21T17:17:19.385Z</time>
      </trkpt>
      <trkpt lat="45.5942" lon="6.57551">
        <ele>2254.47</ele>
        <time>2024-07-21T17:17:21.928Z</time>
      </trkpt>
      <trkpt lat="45.59426" lon="6.57557">
        <ele>2253.99</ele>
        <time>2024-07-21T17:17:24.481Z</time>
      </trkpt>
      <trkpt lat="45.59446" lon="6.57616">
        <ele>2257.26</ele>
        <time>2024-07-21T17:17:27.096Z</time>
      </trkpt>
      <trkpt lat="45.59446" lon="6.57628">
        <ele>2260.65</ele>
        <time>2024-07-21T17:17:29.722Z</time>
      </trkpt>
      <trkpt lat="45.59449" lon="6.57638">
        <ele>2262.45</ele>
        <time>2024-07-21T17:17:32.358Z</time>
      </trkpt>
      <trkpt lat="45.59465" lon="6.57696">
        <ele>2279.36</ele>
        <time>2024-07-21T17:17:35.052Z</time>
      </trkpt>
      <trkpt lat="45.59474" lon="6.57708">
        <ele>2280.23</ele>
        <time>2024-07-21T17:17:37.763Z</time>
      </trkpt>
      <trkpt lat="45.59487" lon="6.57737">
        <ele>2285.11</ele>
        <time>2024-07-21T17:17:40.506Z</time>
      </trkpt>
      <trkpt lat="45.59486" lon="6.5775">
        <ele>2288.22</ele>
        <time>2024-07-21T17:17:43.261Z</time>
      </trkpt>
      <trkpt lat="45.59514" lon="6.57813">
        <ele>2288.75</ele>
        <time>2024-07-21T17:17:46.086Z</time>
      </trkpt>
      <trkpt lat="45.59518" lon="6.57844">
        <ele>2290.99</ele>
        <time>2024-07-21T17:17:48.941Z</time>
      </trkpt>
      <trkpt lat="45.59497" lon="6.57909">
        <ele>2303.49</ele>
        <time>2024-07-21T17:17:51.863Z</time>
      </trkpt>
      <trkpt lat="45.59499" lon="6.57935">
        <ele>2306.87</ele>
        <time>2024-07-21T17:17:54.810Z</time>
      </trkpt>
      <trkpt lat="45.59498" lon="6.57944">
        <ele>2308</ele>
        <time>2024-07-21T17:17:57.765Z</time>
      </trkpt>
      <trkpt lat="45.59495" lon="6.57949">
        <ele>2308.17</ele>
        <time>2024-07-21T17:18:00.726Z</time>
      </trkpt>
      <trkpt lat="45.59479" lon="6.57966">
        <ele>2307.09</ele>
        <time>2024-07-21T17:18:03.714Z</time>
      </trkpt>
      <trkpt lat="45.59476" lon="6.57974">
        <ele>2306.28</ele>
        <time>2024-07-21T17:18:06.710Z</time>
      </trkpt>
      <trkpt lat="45.59481" lon="6.57984">
        <ele>2306.53</ele>
        <time>2024-07-21T17:18:09.717Z</time>
      </trkpt>
      <trkpt lat="45.5949" lon="6.58001">
        <ele>2307.43</ele>
        <time>2024-07-21T17:18:12.744Z</time>
      </trkpt>
      <trkpt lat="45.59503" lon="6.58012">
        <ele>2310.88</ele>
        <time>2024-07-21T17:18:15.791Z</time>
      </trkpt>
      <trkpt lat="45.59512" lon="6.58012">
        <ele>2313.41</ele>
        <time>2024-07-21T17:18:18.850Z</time>
      </trkpt>
      <trkpt lat="45.59521" lon="6.58005">
        <ele>2315.61</ele>
        <time>2024-07-21T17:18:21.924Z</time>
      </trkpt>
      <trkpt lat="45.59538" lon="6.58">
        <ele>2319.84</ele>
        <time>2024-07-21T17:18:25.020Z</time>
      </trkpt>
      <trkpt lat="45.59545" lon="6.58">
        <ele>2322.04</ele>
        <time>2024-07-21T17:18:28.126Z</time>
      </trkpt>
      <trkpt lat="45.59546" lon="6.58005">
        <ele>2322.75</ele>
        <time>2024-07-21T17:18:31.237Z</time>
      </trkpt>
      <trkpt lat="45.59536" lon="6.58048">
        <ele>2322.56</ele>
        <time>2024-07-21T17:18:34.390Z</time>
      </trkpt>
      <trkpt lat="45.59535" lon="6.58091">
        <ele>2324.64</ele>
        <time>2024-07-21T17:18:37.583Z</time>
      </trkpt>
      <trkpt lat="45.5954" lon="6.58109">
        <ele>2323.33</ele>
        <time>2024-07-21T17:18:40.794Z</time>
      </trkpt>
      <trkpt lat="45.59553" lon="6.58127">
        <ele>2325.32</ele>
        <time>2024-07-21T17:18:44.030Z</time>
      </trkpt>
      <trkpt lat="45.5959" lon="6.5816">
        <ele>2334.11</ele>
        <time>2024-07-21T17:18:47.325Z</time>
      </trkpt>
      <trkpt lat="45.5961" lon="6.58166">
        <ele>2337.7</ele>
        <time>2024-07-21T17:18:50.647Z</time>
      </trkpt>
      <trkpt lat="45.59646" lon="6.58179">
        <ele>2342.41</ele>
        <time>2024-07-21T17:18:54.018Z</time>
      </trkpt>
      <trkpt lat="45.59675" lon="6.58212">
        <ele>2343.38</ele>
        <time>2024-07-21T17:18:57.439Z</time>
      </trkpt>
      <trkpt lat="45.59694" lon="6.58223">
        <ele>2347.44</ele>
        <time>2024-07-21T17:19:00.887Z</time>
      </trkpt>
      <trkpt lat="45.59718" lon="6.58248">
        <ele>2350.54</ele>
        <time>2024-07-21T17:19:04.375Z</time>
      </trkpt>
      <trkpt lat="45.59764" lon="6.58288">
        <ele>2354.12</ele>
        <time>2024-07-21T17:19:07.935Z</time>
      </trkpt>
      <trkpt lat="45.59786" lon="6.58328">
        <ele>2355.76</ele>
        <time>2024-07-21T17:19:11.542Z</time>
      </trkpt>
      <trkpt lat="45.598" lon="6.58391">
        <ele>2350.86</ele>
        <time>2024-07-21T17:19:15.212Z</time>
      </trkpt>
      <trkpt lat="45.59833" lon="6.58432">
        <ele>2350.59</ele>
        <time>2024-07-21T17:19:18.939Z</time>
      </trkpt>
      <trkpt lat="45.59839" lon="6.58455">
        <ele>2350.2</ele>
        <time>2024-07-21T17:19:22.690Z</time>
      </trkpt>
      <trkpt lat="45.59853" lon="6.58466">
        <ele>2351.21</ele>
        <time>2024-07-21T17:19:26.462Z</time>
      </trkpt>
      <trkpt lat="45.5986" lon="6.58467">
        <ele>2351.76</ele>
        <time>2024-07-21T17:19:30.244Z</time>
      </trkpt>
      <trkpt lat="45.59908" lon="6.58501">
        <ele>2348.87</ele>
        <time>2024-07-21T17:19:34.096Z</time>
      </trkpt>
      <trkpt lat="45.59921" lon="6.58514">
        <ele>2345.28</ele>
        <time>2024-07-21T17:19:37.970Z</time>
      </trkpt>
      <trkpt lat="45.59935" lon="6.58526">
        <ele>2340.78</ele>
        <time>2024-07-21T17:19:41.865Z</time>
      </trkpt>
      <trkpt lat="45.59935" lon="6.58526">
        <ele>2340.78</ele>
        <time>2024-07-21T17:19:45.760Z</time>
      </trkpt>
      <trkpt lat="45.59968" lon="6.58552">
        <ele>2333.32</ele>
        <time>2024-07-21T17:19:49.706Z</time>
      </trkpt>
      <trkpt lat="45.59972" lon="6.5855">
        <ele>2332.06</ele>
        <time>2024-07-21T17:19:53.658Z</time>
      </trkpt>
      <trkpt lat="45.59992" lon="6.58566">
        <ele>2327.51</ele>
        <time>2024-07-21T17:19:57.641Z</time>
      </trkpt>
      <trkpt lat="45.60009" lon="6.58583">
        <ele>2323.71</ele>
        <time>2024-07-21T17:20:01.651Z</time>
      </trkpt>
      <trkpt lat="45.60026" lon="6.58638">
        <ele>2321.47</ele>
        <time>2024-07-21T17:20:05.717Z</time>
      </trkpt>
      <trkpt lat="45.60035" lon="6.58655">
        <ele>2320.61</ele>
        <time>2024-07-21T17:20:09.804Z</time>
      </trkpt>
      <trkpt lat="45.6005" lon="6.58687">
        <ele>2322.26</ele>
        <time>2024-07-21T17:20:13.927Z</time>
      </trkpt>
      <trkpt lat="45.60071" lon="6.58704">
        <ele>2320.39</ele>
        <time>2024-07-21T17:20:18.081Z</time>
      </trkpt>
      <trkpt lat="45.60089" lon="6.58727">
        <ele>2320.22</ele>
        <time>2024-07-21T17:20:22.268Z</time>
      </trkpt>
      <trkpt lat="45.60103" lon="6.58733">
        <ele>2320.1</ele>
        <time>2024-07-21T17:20:26.474Z</time>
      </trkpt>
      <trkpt lat="45.60115" lon="6.58745">
        <ele>2321.75</ele>
        <time>2024-07-21T17:20:30.699Z</time>
      </trkpt>
      <trkpt lat="45.60125" lon="6.5877">
        <ele>2325.72</ele>
        <time>2024-07-21T17:20:34.951Z</time>
      </trkpt>
      <trkpt lat="45.60152" lon="6.58787">
        <ele>2322.86</ele>
        <time>2024-07-21T17:20:39.243Z</time>
      </trkpt>
      <trkpt lat="45.60188" lon="6.58826">
        <ele>2326.48</ele>
        <time>2024-07-21T17:20:43.594Z</time>
      </trkpt>
      <trkpt lat="45.60197" lon="6.58842">
        <ele>2328.82</ele>
        <time>2024-07-21T17:20:47.965Z</time>
      </trkpt>
      <trkpt lat="45.6022" lon="6.58866">
        <ele>2329.34</ele>
        <time>2024-07-21T17:20:52.374Z</time>
      </trkpt>
      <trkpt lat="45.6023" lon="6.58869">
        <ele>2328.11</ele>
        <time>2024-07-21T17:20:56.796Z</time>
      </trkpt>
      <trkpt lat="45.60242" lon="6.58878">
        <ele>2327.6</ele>
        <time>2024-07-21T17:21:01.237Z</time>
      </trkpt>
      <trkpt lat="45.60263" lon="6.5891">
        <ele>2331.35</ele>
        <time>2024-07-21T17:21:05.719Z</time>
      </trkpt>
      <trkpt lat="45.60278" lon="6.58923">
        <ele>2331.46</ele>
        <time>2024-07-21T17:21:10.224Z</time>
      </trkpt>
      <trkpt lat="45.60295" lon="6.58929">
        <ele>2330.32</ele>
        <time>2024-07-21T17:21:14.753Z</time>
      </trkpt>
      <trkpt lat="45.60339" lon="6.58961">
        <ele>2336.19</ele>
        <time>2024-07-21T17:21:19.348Z</time>
      </trkpt>
      <trkpt lat="45.60354" lon="6.5896">
        <ele>2337.31</ele>
        <time>2024-07-21T17:21:23.963Z</time>
      </trkpt>
      <trkpt lat="45.6036" lon="6.58969">
        <ele>2340.32</ele>
        <time>2024-07-21T17:21:28.590Z</time>
      </trkpt>
      <trkpt lat="45.60393" lon="6.58981">
        <ele>2341.87</ele>
        <time>2024-07-21T17:21:33.262Z</time>
      </trkpt>
      <trkpt lat="45.60415" lon="6.58975">
        <ele>2341.69</ele>
        <time>2024-07-21T17:21:37.964Z</time>
      </trkpt>
      <trkpt lat="45.60436" lon="6.5898">
        <ele>2343.55</ele>
        <time>2024-07-21T17:21:42.694Z</time>
      </trkpt>
      <trkpt lat="45.60505" lon="6.58987">
        <ele>2350.26</ele>
        <time>2024-07-21T17:21:47.517Z</time>
      </trkpt>
      <trkpt lat="45.60526" lon="6.58994">
        <ele>2353.2</ele>
        <time>2024-07-21T17:21:52.368Z</time>
      </trkpt>
      <trkpt lat="45.60551" lon="6.58978">
        <ele>2351.69</ele>
        <time>2024-07-21T17:21:57.257Z</time>
      </trkpt>
      <trkpt lat="45.60571" lon="6.58976">
        <ele>2352.24</ele>
        <time>2024-07-21T17:22:02.171Z</time>
      </trkpt>
      <trkpt lat="45.60586" lon="6.58966">
        <ele>2350.69</ele>
        <time>2024-07-21T17:22:07.107Z</time>
      </trkpt>
      <trkpt lat="45.6062" lon="6.58968">
        <ele>2352</ele>
        <time>2024-07-21T17:22:12.089Z</time>
      </trkpt>
      <trkpt lat="45.60632" lon="6.58967">
        <ele>2352</ele>
        <time>2024-07-21T17:22:17.087Z</time>
      </trkpt>
      <trkpt lat="45.60639" lon="6.58969">
        <ele>2352.19</ele>
        <time>2024-07-21T17:22:22.095Z</time>
      </trkpt>
      <trkpt lat="45.60648" lon="6.58966">
        <ele>2353.49</ele>
        <time>2024-07-21T17:22:27.115Z</time>
      </trkpt>
      <trkpt lat="45.60649" lon="6.58966">
        <ele>2353.6</ele>
        <time>2024-07-21T17:22:32.136Z</time>
      </trkpt>
      <trkpt lat="45.60648" lon="6.58966">
        <ele>2353.49</ele>
        <time>2024-07-21T17:22:37.158Z</time>
      </trkpt>
      <trkpt lat="45.60639" lon="6.58969">
        <ele>2352.19</ele>
        <time>2024-07-21T17:22:42.192Z</time>
      </trkpt>
      <trkpt lat="45.60632" lon="6.58967">
        <ele>2352</ele>
        <time>2024-07-21T17:22:47.236Z</time>
      </trkpt>
      <trkpt lat="45.60631" lon="6.58993">
        <ele>2349.59</ele>
        <time>2024-07-21T17:22:52.304Z</time>
      </trkpt>
      <trkpt lat="45.60643" lon="6.59032">
        <ele>2345.79</ele>
        <time>2024-07-21T17:22:57.411Z</time>
      </trkpt>
      <trkpt lat="45.60652" lon="6.59102">
        <ele>2341.83</ele>
        <time>2024-07-21T17:23:02.586Z</time>
      </trkpt>
      <trkpt lat="45.60663" lon="6.59121">
        <ele>2335.93</ele>
        <time>2024-07-21T17:23:07.783Z</time>
      </trkpt>
      <trkpt lat="45.60673" lon="6.59142">
        <ele>2327.4</ele>
        <time>2024-07-21T17:23:13.004Z</time>
      </trkpt>
      <trkpt lat="45.60684" lon="6.59153">
        <ele>2323.37</ele>
        <time>2024-07-21T17:23:18.244Z</time>
      </trkpt>
      <trkpt lat="45.60687" lon="6.59171">
        <ele>2319.95</ele>
        <time>2024-07-21T17:23:23.501Z</time>
      </trkpt>
      <trkpt lat="45.60693" lon="6.59179">
        <ele>2316.92</ele>
        <time>2024-07-21T17:23:28.769Z</time>
      </trkpt>
      <trkpt lat="45.60694" lon="6.59189">
        <ele>2314.36</ele>
        <time>2024-07-21T17:23:34.047Z</time>
      </trkpt>
      <trkpt lat="45.60713" lon="6.59223">
        <ele>2309.67</ele>
        <time>2024-07-21T17:23:39.366Z</time>
      </trkpt>
      <trkpt lat="45.60716" lon="6.59237">
        <ele>2306.86</ele>
        <time>2024-07-21T17:23:44.698Z</time>
      </trkpt>
      <trkpt lat="45.60725" lon="6.59274">
        <ele>2297.32</ele>
        <time>2024-07-21T17:23:50.068Z</time>
      </trkpt>
      <trkpt lat="45.60724" lon="6.59279">
        <ele>2296.4</ele>
        <time>2024-07-21T17:23:55.443Z</time>
      </trkpt>
      <trkpt lat="45.6072" lon="6.59282">
        <ele>2297.22</ele>
        <time>2024-07-21T17:24:00.824Z</time>
      </trkpt>
      <trkpt lat="45.6072" lon="6.59286">
        <ele>2295.98</ele>
        <time>2024-07-21T17:24:06.209Z</time>
      </trkpt>
      <trkpt lat="45.60726" lon="6.59307">
        <ele>2288.07</ele>
        <time>2024-07-21T17:24:11.616Z</time>
      </trkpt>
      <trkpt lat="45.60726" lon="6.59332">
        <ele>2284.49</ele>
        <time>2024-07-21T17:24:17.046Z</time>
      </trkpt>
      <trkpt lat="45.60739" lon="6.59431">
        <ele>2268.34</ele>
        <time>2024-07-21T17:24:22.570Z</time>
      </trkpt>
      <trkpt lat="45.60743" lon="6.5944">
        <ele>2266.13</ele>
        <time>2024-07-21T17:24:28.105Z</time>
      </trkpt>
      <trkpt lat="45.60743" lon="6.5945">
        <ele>2264.26</ele>
        <time>2024-07-21T17:24:33.649Z</time>
      </trkpt>
      <trkpt lat="45.6074" lon="6.59466">
        <ele>2261.87</ele>
        <time>2024-07-21T17:24:39.208Z</time>
      </trkpt>
      <trkpt lat="45.60743" lon="6.59499">
        <ele>2254.23</ele>
        <time>2024-07-21T17:24:44.799Z</time>
      </trkpt>
      <trkpt lat="45.60743" lon="6.59537">
        <ele>2244.73</ele>
        <time>2024-07-21T17:24:50.425Z</time>
      </trkpt>
      <trkpt lat="45.60747" lon="6.59564">
        <ele>2238.79</ele>
        <time>2024-07-21T17:24:56.076Z</time>
      </trkpt>
      <trkpt lat="45.60764" lon="6.5963">
        <ele>2228.81</ele>
        <time>2024-07-21T17:25:01.794Z</time>
      </trkpt>
      <trkpt lat="45.60775" lon="6.59652">
        <ele>2226.49</ele>
        <time>2024-07-21T17:25:07.537Z</time>
      </trkpt>
      <trkpt lat="45.60775" lon="6.59652">
        <ele>2226.49</ele>
        <time>2024-07-21T17:25:13.280Z</time>
      </trkpt>
      <trkpt lat="45.6079" lon="6.59679">
        <ele>2222.04</ele>
        <time>2024-07-21T17:25:19.054Z</time>
      </trkpt>
      <trkpt lat="45.60804" lon="6.59688">
        <ele>2219.63</ele>
        <time>2024-07-21T17:25:24.849Z</time>
      </trkpt>
      <trkpt lat="45.60823" lon="6.59685">
        <ele>2218.72</ele>
        <time>2024-07-21T17:25:30.670Z</time>
      </trkpt>
      <trkpt lat="45.60836" lon="6.5973">
        <ele>2215.26</ele>
        <time>2024-07-21T17:25:36.537Z</time>
      </trkpt>
      <trkpt lat="45.60863" lon="6.59801">
        <ele>2208.42</ele>
        <time>2024-07-21T17:25:42.479Z</time>
      </trkpt>
      <trkpt lat="45.60881" lon="6.59861">
        <ele>2204.2</ele>
        <time>2024-07-21T17:25:48.482Z</time>
      </trkpt>
      <trkpt lat="45.60912" lon="6.5995">
        <ele>2205.52</ele>
        <time>2024-07-21T17:25:54.578Z</time>
      </trkpt>
      <trkpt lat="45.60929" lon="6.5997">
        <ele>2205.3</ele>
        <time>2024-07-21T17:26:00.704Z</time>
      </trkpt>
      <trkpt lat="45.60931" lon="6.59972">
        <ele>2205.08</ele>
        <time>2024-07-21T17:26:06.833Z</time>
      </trkpt>
      <trkpt lat="45.60966" lon="6.59994">
        <ele>2200.85</ele>
        <time>2024-07-21T17:26:13.012Z</time>
      </trkpt>
      <trkpt lat="45.60978" lon="6.60013">
        <ele>2200.63</ele>
        <time>2024-07-21T17:26:19.216Z</time>
      </trkpt>
      <trkpt lat="45.60983" lon="6.60039">
        <ele>2203.04</ele>
        <time>2024-07-21T17:26:25.445Z</time>
      </trkpt>
      <trkpt lat="45.61011" lon="6.60076">
        <ele>2200.26</ele>
        <time>2024-07-21T17:26:31.725Z</time>
      </trkpt>
      <trkpt lat="45.61029" lon="6.60102">
        <ele>2197.79</ele>
        <time>2024-07-21T17:26:38.040Z</time>
      </trkpt>
      <trkpt lat="45.61052" lon="6.60149">
        <ele>2196.94</ele>
        <time>2024-07-21T17:26:44.408Z</time>
      </trkpt>
      <trkpt lat="45.61067" lon="6.60211">
        <ele>2198.06</ele>
        <time>2024-07-21T17:26:50.838Z</time>
      </trkpt>
      <trkpt lat="45.61096" lon="6.60263">
        <ele>2191.95</ele>
        <time>2024-07-21T17:26:57.330Z</time>
      </trkpt>
      <trkpt lat="45.61102" lon="6.60291">
        <ele>2188.71</ele>
        <time>2024-07-21T17:27:03.849Z</time>
      </trkpt>
      <trkpt lat="45.61101" lon="6.60332">
        <ele>2187.33</ele>
        <time>2024-07-21T17:27:10.407Z</time>
      </trkpt>
      <trkpt lat="45.61139" lon="6.60474">
        <ele>2164.69</ele>
        <time>2024-07-21T17:27:17.107Z</time>
      </trkpt>
      <trkpt lat="45.61146" lon="6.60481">
        <ele>2162.9</ele>
        <time>2024-07-21T17:27:23.818Z</time>
      </trkpt>
      <trkpt lat="45.61159" lon="6.60481">
        <ele>2159.17</ele>
        <time>2024-07-21T17:27:30.546Z</time>
      </trkpt>
      <trkpt lat="45.61177" lon="6.60485">
        <ele>2153.89</ele>
        <time>2024-07-21T17:27:37.299Z</time>
      </trkpt>
      <trkpt lat="45.6119" lon="6.60496">
        <ele>2150.27</ele>
        <time>2024-07-21T17:27:44.072Z</time>
      </trkpt>
      <trkpt lat="45.612" lon="6.60519">
        <ele>2145.13</ele>
        <time>2024-07-21T17:27:50.870Z</time>
      </trkpt>
      <trkpt lat="45.61203" lon="6.60536">
        <ele>2142.53</ele>
        <time>2024-07-21T17:27:57.684Z</time>
      </trkpt>
      <trkpt lat="45.61199" lon="6.6055">
        <ele>2140.96</ele>
        <time>2024-07-21T17:28:04.512Z</time>
      </trkpt>
      <trkpt lat="45.6119" lon="6.60566">
        <ele>2141.74</ele>
        <time>2024-07-21T17:28:11.360Z</time>
      </trkpt>
      <trkpt lat="45.61185" lon="6.60578">
        <ele>2142.1</ele>
        <time>2024-07-21T17:28:18.220Z</time>
      </trkpt>
      <trkpt lat="45.61195" lon="6.60578">
        <ele>2139.35</ele>
        <time>2024-07-21T17:28:25.093Z</time>
      </trkpt>
      <trkpt lat="45.61211" lon="6.60587">
        <ele>2136.85</ele>
        <time>2024-07-21T17:28:31.990Z</time>
      </trkpt>
      <trkpt lat="45.61221" lon="6.60591">
        <ele>2135.7</ele>
        <time>2024-07-21T17:28:38.900Z</time>
      </trkpt>
      <trkpt lat="45.61226" lon="6.60586">
        <ele>2135.73</ele>
        <time>2024-07-21T17:28:45.818Z</time>
      </trkpt>
      <trkpt lat="45.61236" lon="6.60543">
        <ele>2134.07</ele>
        <time>2024-07-21T17:28:52.778Z</time>
      </trkpt>
      <trkpt lat="45.61243" lon="6.60522">
        <ele>2132.12</ele>
        <time>2024-07-21T17:28:59.761Z</time>
      </trkpt>
      <trkpt lat="45.61252" lon="6.60482">
        <ele>2133.86</ele>
        <time>2024-07-21T17:29:06.782Z</time>
      </trkpt>
      <trkpt lat="45.61255" lon="6.60475">
        <ele>2133.6</ele>
        <time>2024-07-21T17:29:13.812Z</time>
      </trkpt>
      <trkpt lat="45.61266" lon="6.6047">
        <ele>2131.91</ele>
        <time>2024-07-21T17:29:20.857Z</time>
      </trkpt>
      <trkpt lat="45.61298" lon="6.6048">
        <ele>2125.18</ele>
        <time>2024-07-21T17:29:27.945Z</time>
      </trkpt>
      <trkpt lat="45.61304" lon="6.60479">
        <ele>2124.41</ele>
        <time>2024-07-21T17:29:35.041Z</time>
      </trkpt>
      <trkpt lat="45.61307" lon="6.60479">
        <ele>2124</ele>
        <time>2024-07-21T17:29:42.141Z</time>
      </trkpt>
      <trkpt lat="45.61313" lon="6.60475">
        <ele>2124.06</ele>
        <time>2024-07-21T17:29:49.250Z</time>
      </trkpt>
      <trkpt lat="45.6132" lon="6.6045">
        <ele>2127.62</ele>
        <time>2024-07-21T17:29:56.384Z</time>
      </trkpt>
      <trkpt lat="45.61324" lon="6.60439">
        <ele>2129.74</ele>
        <time>2024-07-21T17:30:03.530Z</time>
      </trkpt>
      <trkpt lat="45.6133" lon="6.60435">
        <ele>2130.21</ele>
        <time>2024-07-21T17:30:10.685Z</time>
      </trkpt>
      <trkpt lat="45.61352" lon="6.60436">
        <ele>2128.52</ele>
        <time>2024-07-21T17:30:17.869Z</time>
      </trkpt>
      <trkpt lat="45.61361" lon="6.60431">
        <ele>2128.61</ele>
        <time>2024-07-21T17:30:25.067Z</time>
      </trkpt>
      <trkpt lat="45.61369" lon="6.6042">
        <ele>2129.97</ele>
        <time>2024-07-21T17:30:32.279Z</time>
      </trkpt>
      <trkpt lat="45.61401" lon="6.60385">
        <ele>2132</ele>
        <time>2024-07-21T17:30:39.545Z</time>
      </trkpt>
      <trkpt lat="45.61417" lon="6.6038">
        <ele>2131.34</ele>
        <time>2024-07-21T17:30:46.833Z</time>
      </trkpt>
      <trkpt lat="45.6143" lon="6.60372">
        <ele>2129.27</ele>
        <time>2024-07-21T17:30:54.140Z</time>
      </trkpt>
      <trkpt lat="45.61442" lon="6.6037">
        <ele>2128.41</ele>
        <time>2024-07-21T17:31:01.463Z</time>
      </trkpt>
      <trkpt lat="45.615" lon="6.60377">
        <ele>2122.24</ele>
        <time>2024-07-21T17:31:08.863Z</time>
      </trkpt>
      <trkpt lat="45.61542" lon="6.60389">
        <ele>2119.01</ele>
        <time>2024-07-21T17:31:16.320Z</time>
      </trkpt>
      <trkpt lat="45.6158" lon="6.60382">
        <ele>2115.54</ele>
        <time>2024-07-21T17:31:23.829Z</time>
      </trkpt>
      <trkpt lat="45.61608" lon="6.60382">
        <ele>2111.54</ele>
        <time>2024-07-21T17:31:31.375Z</time>
      </trkpt>
      <trkpt lat="45.61669" lon="6.60337">
        <ele>2104</ele>
        <time>2024-07-21T17:31:39.013Z</time>
      </trkpt>
      <trkpt lat="45.6169" lon="6.60324">
        <ele>2103.15</ele>
        <time>2024-07-21T17:31:46.681Z</time>
      </trkpt>
      <trkpt lat="45.61721" lon="6.60297">
        <ele>2103.36</ele>
        <time>2024-07-21T17:31:54.398Z</time>
      </trkpt>
      <trkpt lat="45.61713" lon="6.60284">
        <ele>2102.26</ele>
        <time>2024-07-21T17:32:02.130Z</time>
      </trkpt>
      <trkpt lat="45.61712" lon="6.60277">
        <ele>2102.09</ele>
        <time>2024-07-21T17:32:09.869Z</time>
      </trkpt>
      <trkpt lat="45.61711" lon="6.6027">
        <ele>2101.93</ele>
        <time>2024-07-21T17:32:17.615Z</time>
      </trkpt>
      <trkpt lat="45.61714" lon="6.60262">
        <ele>2101.34</ele>
        <time>2024-07-21T17:32:25.369Z</time>
      </trkpt>
      <trkpt lat="45.61777" lon="6.60176">
        <ele>2098.05</ele>
        <time>2024-07-21T17:32:33.239Z</time>
      </trkpt>
      <trkpt lat="45.618" lon="6.60132">
        <ele>2094.1</ele>
        <time>2024-07-21T17:32:41.160Z</time>
      </trkpt>
      <trkpt lat="45.61811" lon="6.60101">
        <ele>2087.76</ele>
        <time>2024-07-21T17:32:49.114Z</time>
      </trkpt>
      <trkpt lat="45.61823" lon="6.60077">
        <ele>2084.65</ele>
        <time>2024-07-21T17:32:57.096Z</time>
      </trkpt>
      <trkpt lat="45.61855" lon="6.60025">
        <ele>2076.53</ele>
        <time>2024-07-21T17:33:05.142Z</time>
      </trkpt>
      <trkpt lat="45.61866" lon="6.60013">
        <ele>2074.35</ele>
        <time>2024-07-21T17:33:13.206Z</time>
      </trkpt>
      <trkpt lat="45.61877" lon="6.60005">
        <ele>2074.15</ele>
        <time>2024-07-21T17:33:21.288Z</time>
      </trkpt>
      <trkpt lat="45.61929" lon="6.5998">
        <ele>2069.13</ele>
        <time>2024-07-21T17:33:29.443Z</time>
      </trkpt>
      <trkpt lat="45.61953" lon="6.59961">
        <ele>2057.18</ele>
        <time>2024-07-21T17:33:37.634Z</time>
      </trkpt>
      <trkpt lat="45.61959" lon="6.5996">
        <ele>2054.62</ele>
        <time>2024-07-21T17:33:45.833Z</time>
      </trkpt>
      <trkpt lat="45.61967" lon="6.59961">
        <ele>2051.91</ele>
        <time>2024-07-21T17:33:54.043Z</time>
      </trkpt>
      <trkpt lat="45.6197" lon="6.59964">
        <ele>2051.52</ele>
        <time>2024-07-21T17:34:02.258Z</time>
      </trkpt>
      <trkpt lat="45.61973" lon="6.59968">
        <ele>2051.39</ele>
        <time>2024-07-21T17:34:10.479Z</time>
      </trkpt>
      <trkpt lat="45.61974" lon="6.59976">
        <ele>2052.68</ele>
        <time>2024-07-21T17:34:18.707Z</time>
      </trkpt>
      <trkpt lat="45.6197" lon="6.60002">
        <ele>2057.57</ele>
        <time>2024-07-21T17:34:26.960Z</time>
      </trkpt>
      <trkpt lat="45.61997" lon="6.59988">
        <ele>2047.78</ele>
        <time>2024-07-21T17:34:35.251Z</time>
      </trkpt>
      <trkpt lat="45.62002" lon="6.60009">
        <ele>2048.88</ele>
        <time>2024-07-21T17:34:43.563Z</time>
      </trkpt>
      <trkpt lat="45.62013" lon="6.59999">
        <ele>2043.55</ele>
        <time>2024-07-21T17:34:51.892Z</time>
      </trkpt>
      <trkpt lat="45.62015" lon="6.60017">
        <ele>2044.46</ele>
        <time>2024-07-21T17:35:00.237Z</time>
      </trkpt>
      <trkpt lat="45.62042" lon="6.60004">
        <ele>2031.21</ele>
        <time>2024-07-21T17:35:08.620Z</time>
      </trkpt>
      <trkpt lat="45.62077" lon="6.60008">
        <ele>2014.46</ele>
        <time>2024-07-21T17:35:17.050Z</time>
      </trkpt>
      <trkpt lat="45.62105" lon="6.5999">
        <ele>2002.6</ele>
        <time>2024-07-21T17:35:25.521Z</time>
      </trkpt>
      <trkpt lat="45.62108" lon="6.59999">
        <ele>2002.55</ele>
        <time>2024-07-21T17:35:34.002Z</time>
      </trkpt>
      <trkpt lat="45.62096" lon="6.60024">
        <ele>2008.5</ele>
        <time>2024-07-21T17:35:42.511Z</time>
      </trkpt>
      <trkpt lat="45.62119" lon="6.60017">
        <ele>2001.04</ele>
        <time>2024-07-21T17:35:51.051Z</time>
      </trkpt>
      <trkpt lat="45.62121" lon="6.60027">
        <ele>2001.46</ele>
        <time>2024-07-21T17:35:59.602Z</time>
      </trkpt>
      <trkpt lat="45.62137" lon="6.60031">
        <ele>1996.55</ele>
        <time>2024-07-21T17:36:08.175Z</time>
      </trkpt>
      <trkpt lat="45.62151" lon="6.60034">
        <ele>1993.66</ele>
        <time>2024-07-21T17:36:16.766Z</time>
      </trkpt>
      <trkpt lat="45.6216" lon="6.60041">
        <ele>1992.62</ele>
        <time>2024-07-21T17:36:25.371Z</time>
      </trkpt>
      <trkpt lat="45.62164" lon="6.60037">
        <ele>1991.56</ele>
        <time>2024-07-21T17:36:33.983Z</time>
      </trkpt>
      <trkpt lat="45.62163" lon="6.60013">
        <ele>1990.58</ele>
        <time>2024-07-21T17:36:42.617Z</time>
      </trkpt>
      <trkpt lat="45.62181" lon="6.60007">
        <ele>1986.7</ele>
        <time>2024-07-21T17:36:51.276Z</time>
      </trkpt>
      <trkpt lat="45.62192" lon="6.59993">
        <ele>1983.8</ele>
        <time>2024-07-21T17:36:59.954Z</time>
      </trkpt>
      <trkpt lat="45.62199" lon="6.59998">
        <ele>1983.23</ele>
        <time>2024-07-21T17:37:08.643Z</time>
      </trkpt>
      <trkpt lat="45.62211" lon="6.5998">
        <ele>1978.83</ele>
        <time>2024-07-21T17:37:17.356Z</time>
      </trkpt>
      <trkpt lat="45.62224" lon="6.59973">
        <ele>1974.95</ele>
        <time>2024-07-21T17:37:26.087Z</time>
      </trkpt>
      <trkpt lat="45.62228" lon="6.59961">
        <ele>1972.14</ele>
        <time>2024-07-21T17:37:34.831Z</time>
      </trkpt>
      <trkpt lat="45.62247" lon="6.59953">
        <ele>1966.33</ele>
        <time>2024-07-21T17:37:43.600Z</time>
      </trkpt>
      <trkpt lat="45.62258" lon="6.5996">
        <ele>1964.24</ele>
        <time>2024-07-21T17:37:52.386Z</time>
      </trkpt>
      <trkpt lat="45.62266" lon="6.59938">
        <ele>1960.35</ele>
        <time>2024-07-21T17:38:01.194Z</time>
      </trkpt>
      <trkpt lat="45.62279" lon="6.59931">
        <ele>1957.25</ele>
        <time>2024-07-21T17:38:10.021Z</time>
      </trkpt>
      <trkpt lat="45.62286" lon="6.59937">
        <ele>1956.15</ele>
        <time>2024-07-21T17:38:18.859Z</time>
      </trkpt>
      <trkpt lat="45.62288" lon="6.59951">
        <ele>1957.03</ele>
        <time>2024-07-21T17:38:27.711Z</time>
      </trkpt>
      <trkpt lat="45.62298" lon="6.59958">
        <ele>1955.8</ele>
        <time>2024-07-21T17:38:36.577Z</time>
      </trkpt>
      <trkpt lat="45.62329" lon="6.59963">
        <ele>1950.07</ele>
        <time>2024-07-21T17:38:45.485Z</time>
      </trkpt>
      <trkpt lat="45.62351" lon="6.59956">
        <ele>1946.51</ele>
        <time>2024-07-21T17:38:54.422Z</time>
      </trkpt>
      <trkpt lat="45.62356" lon="6.59967">
        <ele>1947.1</ele>
        <time>2024-07-21T17:39:03.371Z</time>
      </trkpt>
      <trkpt lat="45.62371" lon="6.59966">
        <ele>1945.1</ele>
        <time>2024-07-21T17:39:12.340Z</time>
      </trkpt>
      <trkpt lat="45.62399" lon="6.59931">
        <ele>1938.2</ele>
        <time>2024-07-21T17:39:21.359Z</time>
      </trkpt>
      <trkpt lat="45.62411" lon="6.59924">
        <ele>1935.21</ele>
        <time>2024-07-21T17:39:30.395Z</time>
      </trkpt>
      <trkpt lat="45.62427" lon="6.59941">
        <ele>1933.46</ele>
        <time>2024-07-21T17:39:39.458Z</time>
      </trkpt>
      <trkpt lat="45.62435" lon="6.59941">
        <ele>1930.93</ele>
        <time>2024-07-21T17:39:48.532Z</time>
      </trkpt>
      <trkpt lat="45.62448" lon="6.59966">
        <ele>1928.63</ele>
        <time>2024-07-21T17:39:57.635Z</time>
      </trkpt>
      <trkpt lat="45.62454" lon="6.59969">
        <ele>1927.59</ele>
        <time>2024-07-21T17:40:06.746Z</time>
      </trkpt>
      <trkpt lat="45.62461" lon="6.59964">
        <ele>1925.75</ele>
        <time>2024-07-21T17:40:15.868Z</time>
      </trkpt>
      <trkpt lat="45.62465" lon="6.59976">
        <ele>1925.32</ele>
        <time>2024-07-21T17:40:25.002Z</time>
      </trkpt>
      <trkpt lat="45.62502" lon="6.60008">
        <ele>1922.59</ele>
        <time>2024-07-21T17:40:34.194Z</time>
      </trkpt>
      <trkpt lat="45.62537" lon="6.60013">
        <ele>1917.05</ele>
        <time>2024-07-21T17:40:43.433Z</time>
      </trkpt>
      <trkpt lat="45.62556" lon="6.60036">
        <ele>1913.91</ele>
        <time>2024-07-21T17:40:52.704Z</time>
      </trkpt>
      <trkpt lat="45.62572" lon="6.6004">
        <ele>1911.52</ele>
        <time>2024-07-21T17:41:01.997Z</time>
      </trkpt>
      <trkpt lat="45.62577" lon="6.60048">
        <ele>1911.02</ele>
        <time>2024-07-21T17:41:11.300Z</time>
      </trkpt>
      <trkpt lat="45.62578" lon="6.60078">
        <ele>1911.97</ele>
        <time>2024-07-21T17:41:20.631Z</time>
      </trkpt>
      <trkpt lat="45.62578" lon="6.60078">
        <ele>1911.97</ele>
        <time>2024-07-21T17:41:29.962Z</time>
      </trkpt>
      <trkpt lat="45.62578" lon="6.60082">
        <ele>1911.93</ele>
        <time>2024-07-21T17:41:39.297Z</time>
      </trkpt>
      <trkpt lat="45.62583" lon="6.60094">
        <ele>1911.07</ele>
        <time>2024-07-21T17:41:48.646Z</time>
      </trkpt>
      <trkpt lat="45.62589" lon="6.60098">
        <ele>1910.2</ele>
        <time>2024-07-21T17:41:58.003Z</time>
      </trkpt>
      <trkpt lat="45.62575" lon="6.60124">
        <ele>1912.6</ele>
        <time>2024-07-21T17:42:07.390Z</time>
      </trkpt>
      <trkpt lat="45.62575" lon="6.60124">
        <ele>1912.6</ele>
        <time>2024-07-21T17:42:16.777Z</time>
      </trkpt>
      <trkpt lat="45.62592" lon="6.60162">
        <ele>1910.15</ele>
        <time>2024-07-21T17:42:26.206Z</time>
      </trkpt>
      <trkpt lat="45.62592" lon="6.60163">
        <ele>1910.14</ele>
        <time>2024-07-21T17:42:35.637Z</time>
      </trkpt>
      <trkpt lat="45.62617" lon="6.60191">
        <ele>1907.6</ele>
        <time>2024-07-21T17:42:45.110Z</time>
      </trkpt>
      <trkpt lat="45.62624" lon="6.60198">
        <ele>1907.47</ele>
        <time>2024-07-21T17:42:54.594Z</time>
      </trkpt>
      <trkpt lat="45.62637" lon="6.60236">
        <ele>1912.74</ele>
        <time>2024-07-21T17:43:04.118Z</time>
      </trkpt>
      <trkpt lat="45.62665" lon="6.60216">
        <ele>1905.02</ele>
        <time>2024-07-21T17:43:13.684Z</time>
      </trkpt>
      <trkpt lat="45.62677" lon="6.60207">
        <ele>1904.44</ele>
        <time>2024-07-21T17:43:23.268Z</time>
      </trkpt>
      <trkpt lat="45.6269" lon="6.60166">
        <ele>1902.2</ele>
        <time>2024-07-21T17:43:32.894Z</time>
      </trkpt>
      <trkpt lat="45.62695" lon="6.60148">
        <ele>1901.48</ele>
        <time>2024-07-21T17:43:42.538Z</time>
      </trkpt>
      <trkpt lat="45.62697" lon="6.60104">
        <ele>1900.68</ele>
        <time>2024-07-21T17:43:52.224Z</time>
      </trkpt>
      <trkpt lat="45.62697" lon="6.60077">
        <ele>1899.33</ele>
        <time>2024-07-21T17:44:01.935Z</time>
      </trkpt>
      <trkpt lat="45.62697" lon="6.60077">
        <ele>1899.35</ele>
        <time>2024-07-21T17:44:11.647Z</time>
      </trkpt>
      <trkpt lat="45.627" lon="6.60077">
        <ele>1899.31</ele>
        <time>2024-07-21T17:44:21.363Z</time>
      </trkpt>
      <trkpt lat="45.62711" lon="6.60078">
        <ele>1899.39</ele>
        <time>2024-07-21T17:44:31.093Z</time>
      </trkpt>
      <trkpt lat="45.62716" lon="6.60072">
        <ele>1899</ele>
        <time>2024-07-21T17:44:40.832Z</time>
      </trkpt>
      <trkpt lat="45.6272" lon="6.60059">
        <ele>1898.07</ele>
        <time>2024-07-21T17:44:50.584Z</time>
      </trkpt>
      <trkpt lat="45.62719" lon="6.60028">
        <ele>1894.76</ele>
        <time>2024-07-21T17:45:00.365Z</time>
      </trkpt>
      <trkpt lat="45.62714" lon="6.60021">
        <ele>1893.94</ele>
        <time>2024-07-21T17:45:10.155Z</time>
      </trkpt>
      <trkpt lat="45.62715" lon="6.59989">
        <ele>1888.05</ele>
        <time>2024-07-21T17:45:19.975Z</time>
      </trkpt>
      <trkpt lat="45.62712" lon="6.59976">
        <ele>1885.64</ele>
        <time>2024-07-21T17:45:29.808Z</time>
      </trkpt>
      <trkpt lat="45.627" lon="6.59951">
        <ele>1878.15</ele>
        <time>2024-07-21T17:45:39.669Z</time>
      </trkpt>
      <trkpt lat="45.6269" lon="6.59945">
        <ele>1876.16</ele>
        <time>2024-07-21T17:45:49.545Z</time>
      </trkpt>
      <trkpt lat="45.62683" lon="6.59943">
        <ele>1875.48</ele>
        <time>2024-07-21T17:45:59.430Z</time>
      </trkpt>
      <trkpt lat="45.62681" lon="6.59937">
        <ele>1873.74</ele>
        <time>2024-07-21T17:46:09.321Z</time>
      </trkpt>
      <trkpt lat="45.62684" lon="6.59919">
        <ele>1867.39</ele>
        <time>2024-07-21T17:46:19.229Z</time>
      </trkpt>
      <trkpt lat="45.62688" lon="6.59915">
        <ele>1866.5</ele>
        <time>2024-07-21T17:46:29.143Z</time>
      </trkpt>
      <trkpt lat="45.62686" lon="6.5991">
        <ele>1865.76</ele>
        <time>2024-07-21T17:46:39.062Z</time>
      </trkpt>
      <trkpt lat="45.62681" lon="6.59902">
        <ele>1864.38</ele>
        <time>2024-07-21T17:46:48.991Z</time>
      </trkpt>
      <trkpt lat="45.62677" lon="6.59902">
        <ele>1864.58</ele>
        <time>2024-07-21T17:46:58.926Z</time>
      </trkpt>
      <trkpt lat="45.62676" lon="6.59897">
        <ele>1863.83</ele>
        <time>2024-07-21T17:47:08.865Z</time>
      </trkpt>
      <trkpt lat="45.6268" lon="6.59885">
        <ele>1861.52</ele>
        <time>2024-07-21T17:47:18.818Z</time>
      </trkpt>
      <trkpt lat="45.62697" lon="6.59871">
        <ele>1857.32</ele>
        <time>2024-07-21T17:47:28.797Z</time>
      </trkpt>
      <trkpt lat="45.62699" lon="6.59859">
        <ele>1854.96</ele>
        <time>2024-07-21T17:47:38.787Z</time>
      </trkpt>
      <trkpt lat="45.62708" lon="6.59838">
        <ele>1850.35</ele>
        <time>2024-07-21T17:47:48.800Z</time>
      </trkpt>
      <trkpt lat="45.62706" lon="6.59812">
        <ele>1846.49</ele>
        <time>2024-07-21T17:47:58.838Z</time>
      </trkpt>
      <trkpt lat="45.62707" lon="6.59806">
        <ele>1845.44</ele>
        <time>2024-07-21T17:48:08.881Z</time>
      </trkpt>
      <trkpt lat="45.62713" lon="6.59803">
        <ele>1844.04</ele>
        <time>2024-07-21T17:48:18.933Z</time>
      </trkpt>
      <trkpt lat="45.62698" lon="6.59774">
        <ele>1842.49</ele>
        <time>2024-07-21T17:48:29.019Z</time>
      </trkpt>
      <trkpt lat="45.62685" lon="6.59755">
        <ele>1843.41</ele>
        <time>2024-07-21T17:48:39.130Z</time>
      </trkpt>
      <trkpt lat="45.62607" lon="6.59678">
        <ele>1852.38</ele>
        <time>2024-07-21T17:48:49.368Z</time>
      </trkpt>
      <trkpt lat="45.62595" lon="6.59657">
        <ele>1851.31</ele>
        <time>2024-07-21T17:48:59.631Z</time>
      </trkpt>
      <trkpt lat="45.62582" lon="6.59643">
        <ele>1850.7</ele>
        <time>2024-07-21T17:49:09.915Z</time>
      </trkpt>
      <trkpt lat="45.62572" lon="6.59623">
        <ele>1848.51</ele>
        <time>2024-07-21T17:49:20.223Z</time>
      </trkpt>
      <trkpt lat="45.62547" lon="6.5961">
        <ele>1848.83</ele>
        <time>2024-07-21T17:49:30.566Z</time>
      </trkpt>
      <trkpt lat="45.62544" lon="6.59609">
        <ele>1848.92</ele>
        <time>2024-07-21T17:49:40.913Z</time>
      </trkpt>
      <trkpt lat="45.62542" lon="6.59585">
        <ele>1845.8</ele>
        <time>2024-07-21T17:49:51.283Z</time>
      </trkpt>
      <trkpt lat="45.62536" lon="6.59579">
        <ele>1845.68</ele>
        <time>2024-07-21T17:50:01.662Z</time>
      </trkpt>
      <trkpt lat="45.62521" lon="6.59581">
        <ele>1847.16</ele>
        <time>2024-07-21T17:50:12.061Z</time>
      </trkpt>
      <trkpt lat="45.62512" lon="6.59592">
        <ele>1849.24</ele>
        <time>2024-07-21T17:50:22.477Z</time>
      </trkpt>
      <trkpt lat="45.62497" lon="6.59593">
        <ele>1850.22</ele>
        <time>2024-07-21T17:50:32.913Z</time>
      </trkpt>
      <trkpt lat="45.62482" lon="6.59579">
        <ele>1851.35</ele>
        <time>2024-07-21T17:50:43.372Z</time>
      </trkpt>
      <trkpt lat="45.62475" lon="6.59563">
        <ele>1852.15</ele>
        <time>2024-07-21T17:50:53.849Z</time>
      </trkpt>
      <trkpt lat="45.62469" lon="6.59542">
        <ele>1852.54</ele>
        <time>2024-07-21T17:51:04.347Z</time>
      </trkpt>
      <trkpt lat="45.62429" lon="6.59476">
        <ele>1857.46</ele>
        <time>2024-07-21T17:51:14.926Z</time>
      </trkpt>
      <trkpt lat="45.62434" lon="6.59463">
        <ele>1854.6</ele>
        <time>2024-07-21T17:51:25.519Z</time>
      </trkpt>
      <trkpt lat="45.62465" lon="6.59431">
        <ele>1854.09</ele>
        <time>2024-07-21T17:51:36.164Z</time>
      </trkpt>
      <trkpt lat="45.6248" lon="6.59422">
        <ele>1854.58</ele>
        <time>2024-07-21T17:51:46.830Z</time>
      </trkpt>
      <trkpt lat="45.6249" lon="6.59426">
        <ele>1853.96</ele>
        <time>2024-07-21T17:51:57.510Z</time>
      </trkpt>
      <trkpt lat="45.62519" lon="6.59449">
        <ele>1851.28</ele>
        <time>2024-07-21T17:52:08.234Z</time>
      </trkpt>
      <trkpt lat="45.62544" lon="6.5946">
        <ele>1848.82</ele>
        <time>2024-07-21T17:52:18.992Z</time>
      </trkpt>
      <trkpt lat="45.62553" lon="6.59459">
        <ele>1848.32</ele>
        <time>2024-07-21T17:52:29.763Z</time>
      </trkpt>
      <trkpt lat="45.62573" lon="6.59434">
        <ele>1850.84</ele>
        <time>2024-07-21T17:52:40.569Z</time>
      </trkpt>
      <trkpt lat="45.62608" lon="6.59409">
        <ele>1851.47</ele>
        <time>2024-07-21T17:52:51.427Z</time>
      </trkpt>
      <trkpt lat="45.62621" lon="6.59404">
        <ele>1851.19</ele>
        <time>2024-07-21T17:53:02.303Z</time>
      </trkpt>
      <trkpt lat="45.62632" lon="6.59405">
        <ele>1850</ele>
        <time>2024-07-21T17:53:13.193Z</time>
      </trkpt>
      <trkpt lat="45.62637" lon="6.59405">
        <ele>1849.5</ele>
        <time>2024-07-21T17:53:24.091Z</time>
      </trkpt>
      <trkpt lat="45.62653" lon="6.59393">
        <ele>1851.65</ele>
        <time>2024-07-21T17:53:35.013Z</time>
      </trkpt>
      <trkpt lat="45.62672" lon="6.59373">
        <ele>1855.97</ele>
        <time>2024-07-21T17:53:45.967Z</time>
      </trkpt>
      <trkpt lat="45.62693" lon="6.59334">
        <ele>1860.31</ele>
        <time>2024-07-21T17:53:56.966Z</time>
      </trkpt>
      <trkpt lat="45.62711" lon="6.59326">
        <ele>1855.53</ele>
        <time>2024-07-21T17:54:07.991Z</time>
      </trkpt>
      <trkpt lat="45.62723" lon="6.59315">
        <ele>1852.48</ele>
        <time>2024-07-21T17:54:19.034Z</time>
      </trkpt>
      <trkpt lat="45.62733" lon="6.593">
        <ele>1851.89</ele>
        <time>2024-07-21T17:54:30.096Z</time>
      </trkpt>
      <trkpt lat="45.62735" lon="6.59288">
        <ele>1852.94</ele>
        <time>2024-07-21T17:54:41.170Z</time>
      </trkpt>
      <trkpt lat="45.62725" lon="6.59277">
        <ele>1855.47</ele>
        <time>2024-07-21T17:54:52.260Z</time>
      </trkpt>
      <trkpt lat="45.62719" lon="6.59271">
        <ele>1857.57</ele>
        <time>2024-07-21T17:55:03.361Z</time>
      </trkpt>
      <trkpt lat="45.62712" lon="6.59207">
        <ele>1866.09</ele>
        <time>2024-07-21T17:55:14.523Z</time>
      </trkpt>
      <trkpt lat="45.62727" lon="6.59158">
        <ele>1864.25</ele>
        <time>2024-07-21T17:55:25.734Z</time>
      </trkpt>
      <trkpt lat="45.62732" lon="6.59135">
        <ele>1861.38</ele>
        <time>2024-07-21T17:55:36.968Z</time>
      </trkpt>
      <trkpt lat="45.62732" lon="6.59108">
        <ele>1858.28</ele>
        <time>2024-07-21T17:55:48.227Z</time>
      </trkpt>
      <trkpt lat="45.62724" lon="6.59083">
        <ele>1859.22</ele>
        <time>2024-07-21T17:55:59.511Z</time>
      </trkpt>
      <trkpt lat="45.62708" lon="6.59061">
        <ele>1869.94</ele>
        <time>2024-07-21T17:56:10.825Z</time>
      </trkpt>
      <trkpt lat="45.62696" lon="6.59032">
        <ele>1881.35</ele>
        <time>2024-07-21T17:56:22.171Z</time>
      </trkpt>
      <trkpt lat="45.62692" lon="6.58998">
        <ele>1889.11</ele>
        <time>2024-07-21T17:56:33.548Z</time>
      </trkpt>
      <trkpt lat="45.62703" lon="6.58975">
        <ele>1880.18</ele>
        <time>2024-07-21T17:56:44.951Z</time>
      </trkpt>
      <trkpt lat="45.62703" lon="6.58949">
        <ele>1882.87</ele>
        <time>2024-07-21T17:56:56.379Z</time>
      </trkpt>
      <trkpt lat="45.62715" lon="6.58929">
        <ele>1876.52</ele>
        <time>2024-07-21T17:57:07.832Z</time>
      </trkpt>
      <trkpt lat="45.62716" lon="6.58922">
        <ele>1877.02</ele>
        <time>2024-07-21T17:57:19.291Z</time>
      </trkpt>
      <trkpt lat="45.62716" lon="6.58922">
        <ele>1877.01</ele>
        <time>2024-07-21T17:57:30.750Z</time>
      </trkpt>
      <trkpt lat="45.62718" lon="6.58915">
        <ele>1877.43</ele>
        <time>2024-07-21T17:57:42.217Z</time>
      </trkpt>
      <trkpt lat="45.6272" lon="6.58871">
        <ele>1883.68</ele>
        <time>2024-07-21T17:57:53.725Z</time>
      </trkpt>
      <trkpt lat="45.62714" lon="6.58803">
        <ele>1888.51</ele>
        <time>2024-07-21T17:58:05.297Z</time>
      </trkpt>
      <trkpt lat="45.62713" lon="6.58793">
        <ele>1887.1</ele>
        <time>2024-07-21T17:58:16.878Z</time>
      </trkpt>
      <trkpt lat="45.62752" lon="6.5878">
        <ele>1879.09</ele>
        <time>2024-07-21T17:58:28.512Z</time>
      </trkpt>
      <trkpt lat="45.62775" lon="6.58776">
        <ele>1877.22</ele>
        <time>2024-07-21T17:58:40.177Z</time>
      </trkpt>
      <trkpt lat="45.62791" lon="6.58769">
        <ele>1875.18</ele>
        <time>2024-07-21T17:58:51.864Z</time>
      </trkpt>
      <trkpt lat="45.6283" lon="6.58737">
        <ele>1865.81</ele>
        <time>2024-07-21T17:59:03.612Z</time>
      </trkpt>
      <trkpt lat="45.6284" lon="6.58718">
        <ele>1860.19</ele>
        <time>2024-07-21T17:59:15.381Z</time>
      </trkpt>
      <trkpt lat="45.62853" lon="6.58709">
        <ele>1854.52</ele>
        <time>2024-07-21T17:59:27.169Z</time>
      </trkpt>
      <trkpt lat="45.62874" lon="6.58707">
        <ele>1848.71</ele>
        <time>2024-07-21T17:59:38.986Z</time>
      </trkpt>
      <trkpt lat="45.62886" lon="6.58699">
        <ele>1846.85</ele>
        <time>2024-07-21T17:59:50.820Z</time>
      </trkpt>
      <trkpt lat="45.62913" lon="6.5869">
        <ele>1840.31</ele>
        <time>2024-07-21T18:00:02.691Z</time>
      </trkpt>
      <trkpt lat="45.62928" lon="6.58683">
        <ele>1837.2</ele>
        <time>2024-07-21T18:00:14.584Z</time>
      </trkpt>
      <trkpt lat="45.62951" lon="6.58671">
        <ele>1832.1</ele>
        <time>2024-07-21T18:00:26.510Z</time>
      </trkpt>
      <trkpt lat="45.63002" lon="6.58634">
        <ele>1820.84</ele>
        <time>2024-07-21T18:00:38.511Z</time>
      </trkpt>
      <trkpt lat="45.63002" lon="6.58627">
        <ele>1818.98</ele>
        <time>2024-07-21T18:00:50.518Z</time>
      </trkpt>
      <trkpt lat="45.62997" lon="6.58607">
        <ele>1813.55</ele>
        <time>2024-07-21T18:01:02.546Z</time>
      </trkpt>
      <trkpt lat="45.62989" lon="6.58597">
        <ele>1811.32</ele>
        <time>2024-07-21T18:01:14.587Z</time>
      </trkpt>
      <trkpt lat="45.62986" lon="6.5859">
        <ele>1809.41</ele>
        <time>2024-07-21T18:01:26.637Z</time>
      </trkpt>
      <trkpt lat="45.63019" lon="6.58555">
        <ele>1796.64</ele>
        <time>2024-07-21T18:01:38.741Z</time>
      </trkpt>
      <trkpt lat="45.63005" lon="6.58545">
        <ele>1795.46</ele>
        <time>2024-07-21T18:01:50.866Z</time>
      </trkpt>
      <trkpt lat="45.63007" lon="6.5854">
        <ele>1794.14</ele>
        <time>2024-07-21T18:02:02.996Z</time>
      </trkpt>
      <trkpt lat="45.6302" lon="6.58532">
        <ele>1790.08</ele>
        <time>2024-07-21T18:02:15.145Z</time>
      </trkpt>
      <trkpt lat="45.6302" lon="6.58528">
        <ele>1789.33</ele>
        <time>2024-07-21T18:02:27.297Z</time>
      </trkpt>
      <trkpt lat="45.62994" lon="6.58479">
        <ele>1782.48</ele>
        <time>2024-07-21T18:02:39.507Z</time>
      </trkpt>
      <trkpt lat="45.63006" lon="6.58463">
        <ele>1780.79</ele>
        <time>2024-07-21T18:02:51.739Z</time>
      </trkpt>
      <trkpt lat="45.63013" lon="6.58449">
        <ele>1778.61</ele>
        <time>2024-07-21T18:03:03.986Z</time>
      </trkpt>
      <trkpt lat="45.63019" lon="6.58418">
        <ele>1772.93</ele>
        <time>2024-07-21T18:03:16.264Z</time>
      </trkpt>
      <trkpt lat="45.63019" lon="6.58394">
        <ele>1767.43</ele>
        <time>2024-07-21T18:03:28.564Z</time>
      </trkpt>
      <trkpt lat="45.63017" lon="6.58384">
        <ele>1764.62</ele>
        <time>2024-07-21T18:03:40.874Z</time>
      </trkpt>
      <trkpt lat="45.63003" lon="6.58375">
        <ele>1763.78</ele>
        <time>2024-07-21T18:03:53.204Z</time>
      </trkpt>
      <trkpt lat="45.62998" lon="6.58376">
        <ele>1764.33</ele>
        <time>2024-07-21T18:04:05.542Z</time>
      </trkpt>
      <trkpt lat="45.62992" lon="6.5837">
        <ele>1762.42</ele>
        <time>2024-07-21T18:04:17.889Z</time>
      </trkpt>
      <trkpt lat="45.62985" lon="6.58355">
        <ele>1757.83</ele>
        <time>2024-07-21T18:04:30.253Z</time>
      </trkpt>
      <trkpt lat="45.62987" lon="6.58351">
        <ele>1756.71</ele>
        <time>2024-07-21T18:04:42.621Z</time>
      </trkpt>
      <trkpt lat="45.62999" lon="6.58351">
        <ele>1756.03</ele>
        <time>2024-07-21T18:04:55.005Z</time>
      </trkpt>
      <trkpt lat="45.63006" lon="6.58345">
        <ele>1752.98</ele>
        <time>2024-07-21T18:05:07.401Z</time>
      </trkpt>
      <trkpt lat="45.63018" lon="6.58348">
        <ele>1752.36</ele>
        <time>2024-07-21T18:05:19.813Z</time>
      </trkpt>
      <trkpt lat="45.63062" lon="6.58348">
        <ele>1741.33</ele>
        <time>2024-07-21T18:05:32.284Z</time>
      </trkpt>
      <trkpt lat="45.6308" lon="6.58356">
        <ele>1737.44</ele>
        <time>2024-07-21T18:05:44.780Z</time>
      </trkpt>
      <trkpt lat="45.63091" lon="6.58366">
        <ele>1737.45</ele>
        <time>2024-07-21T18:05:57.293Z</time>
      </trkpt>
      <trkpt lat="45.631" lon="6.58371">
        <ele>1735.52</ele>
        <time>2024-07-21T18:06:09.819Z</time>
      </trkpt>
      <trkpt lat="45.63118" lon="6.58389">
        <ele>1734.02</ele>
        <time>2024-07-21T18:06:22.374Z</time>
      </trkpt>
      <trkpt lat="45.63139" lon="6.58387">
        <ele>1723.26</ele>
        <time>2024-07-21T18:06:34.958Z</time>
      </trkpt>
      <trkpt lat="45.63159" lon="6.58396">
        <ele>1720.32</ele>
        <time>2024-07-21T18:06:47.569Z</time>
      </trkpt>
      <trkpt lat="45.63171" lon="6.58406">
        <ele>1720.18</ele>
        <time>2024-07-21T18:07:00.200Z</time>
      </trkpt>
      <trkpt lat="45.63189" lon="6.58414">
        <ele>1719.79</ele>
        <time>2024-07-21T18:07:12.855Z</time>
      </trkpt>
      <trkpt lat="45.632" lon="6.58412">
        <ele>1716.56</ele>
        <time>2024-07-21T18:07:25.525Z</time>
      </trkpt>
      <trkpt lat="45.63213" lon="6.58415">
        <ele>1713.53</ele>
        <time>2024-07-21T18:07:38.213Z</time>
      </trkpt>
      <trkpt lat="45.63228" lon="6.58407">
        <ele>1705.24</ele>
        <time>2024-07-21T18:07:50.922Z</time>
      </trkpt>
      <trkpt lat="45.63239" lon="6.58408">
        <ele>1700.65</ele>
        <time>2024-07-21T18:08:03.645Z</time>
      </trkpt>
      <trkpt lat="45.63251" lon="6.58416">
        <ele>1698.15</ele>
        <time>2024-07-21T18:08:16.386Z</time>
      </trkpt>
      <trkpt lat="45.63274" lon="6.5844">
        <ele>1696.07</ele>
        <time>2024-07-21T18:08:29.166Z</time>
      </trkpt>
      <trkpt lat="45.63285" lon="6.5844">
        <ele>1692.83</ele>
        <time>2024-07-21T18:08:41.960Z</time>
      </trkpt>
      <trkpt lat="45.63296" lon="6.58443">
        <ele>1690.13</ele>
        <time>2024-07-21T18:08:54.768Z</time>
      </trkpt>
      <trkpt lat="45.63316" lon="6.58459">
        <ele>1687.7</ele>
        <time>2024-07-21T18:09:07.608Z</time>
      </trkpt>
      <trkpt lat="45.63338" lon="6.58468">
        <ele>1684.43</ele>
        <time>2024-07-21T18:09:20.478Z</time>
      </trkpt>
      <trkpt lat="45.63358" lon="6.58482">
        <ele>1682.07</ele>
        <time>2024-07-21T18:09:33.378Z</time>
      </trkpt>
      <trkpt lat="45.63381" lon="6.58508">
        <ele>1677.99</ele>
        <time>2024-07-21T18:09:46.316Z</time>
      </trkpt>
      <trkpt lat="45.63396" lon="6.58514">
        <ele>1672.97</ele>
        <time>2024-07-21T18:09:59.275Z</time>
      </trkpt>
      <trkpt lat="45.63404" lon="6.58523">
        <ele>1670.28</ele>
        <time>2024-07-21T18:10:12.248Z</time>
      </trkpt>
      <trkpt lat="45.63426" lon="6.58531">
        <ele>1662.68</ele>
        <time>2024-07-21T18:10:25.251Z</time>
      </trkpt>
      <trkpt lat="45.63436" lon="6.58527">
        <ele>1659.94</ele>
        <time>2024-07-21T18:10:38.268Z</time>
      </trkpt>
      <trkpt lat="45.63449" lon="6.58535">
        <ele>1657.26</ele>
        <time>2024-07-21T18:10:51.304Z</time>
      </trkpt>
      <trkpt lat="45.6346" lon="6.58542">
        <ele>1654.44</ele>
        <time>2024-07-21T18:11:04.356Z</time>
      </trkpt>
      <trkpt lat="45.63487" lon="6.58551">
        <ele>1646.04</ele>
        <time>2024-07-21T18:11:17.444Z</time>
      </trkpt>
      <trkpt lat="45.63528" lon="6.5861">
        <ele>1636.72</ele>
        <time>2024-07-21T18:11:30.610Z</time>
      </trkpt>
      <trkpt lat="45.63546" lon="6.58611">
        <ele>1633.31</ele>
        <time>2024-07-21T18:11:43.800Z</time>
      </trkpt>
      <trkpt lat="45.63565" lon="6.58604">
        <ele>1629.96</ele>
        <time>2024-07-21T18:11:57.017Z</time>
      </trkpt>
      <trkpt lat="45.63574" lon="6.58614">
        <ele>1628.38</ele>
        <time>2024-07-21T18:12:10.249Z</time>
      </trkpt>
      <trkpt lat="45.63593" lon="6.58628">
        <ele>1625.58</ele>
        <time>2024-07-21T18:12:23.510Z</time>
      </trkpt>
      <trkpt lat="45.63599" lon="6.58607">
        <ele>1625.35</ele>
        <time>2024-07-21T18:12:36.793Z</time>
      </trkpt>
      <trkpt lat="45.63608" lon="6.58606">
        <ele>1624.76</ele>
        <time>2024-07-21T18:12:50.087Z</time>
      </trkpt>
      <trkpt lat="45.63621" lon="6.58607">
        <ele>1624.03</ele>
        <time>2024-07-21T18:13:03.399Z</time>
      </trkpt>
      <trkpt lat="45.63621" lon="6.58615">
        <ele>1623.78</ele>
        <time>2024-07-21T18:13:16.719Z</time>
      </trkpt>
      <trkpt lat="45.63622" lon="6.58624">
        <ele>1623.74</ele>
        <time>2024-07-21T18:13:30.047Z</time>
      </trkpt>
      <trkpt lat="45.63627" lon="6.58639">
        <ele>1623.55</ele>
        <time>2024-07-21T18:13:43.390Z</time>
      </trkpt>
      <trkpt lat="45.63633" lon="6.58644">
        <ele>1623.57</ele>
        <time>2024-07-21T18:13:56.742Z</time>
      </trkpt>
      <trkpt lat="45.63658" lon="6.58653">
        <ele>1623.68</ele>
        <time>2024-07-21T18:14:10.130Z</time>
      </trkpt>
      <trkpt lat="45.63686" lon="6.58667">
        <ele>1626.47</ele>
        <time>2024-07-21T18:14:23.557Z</time>
      </trkpt>
      <trkpt lat="45.63713" lon="6.58685">
        <ele>1631.5</ele>
        <time>2024-07-21T18:14:37.024Z</time>
      </trkpt>
      <trkpt lat="45.63723" lon="6.58697">
        <ele>1634.11</ele>
        <time>2024-07-21T18:14:50.508Z</time>
      </trkpt>
      <trkpt lat="45.63738" lon="6.58747">
        <ele>1639.16</ele>
        <time>2024-07-21T18:15:04.043Z</time>
      </trkpt>
      <trkpt lat="45.63745" lon="6.58762">
        <ele>1641.04</ele>
        <time>2024-07-21T18:15:17.595Z</time>
      </trkpt>
      <trkpt lat="45.63753" lon="6.5877">
        <ele>1641.87</ele>
        <time>2024-07-21T18:15:31.159Z</time>
      </trkpt>
      <trkpt lat="45.63763" lon="6.5877">
        <ele>1642.39</ele>
        <time>2024-07-21T18:15:44.736Z</time>
      </trkpt>
      <trkpt lat="45.63773" lon="6.58768">
        <ele>1642.54</ele>
        <time>2024-07-21T18:15:58.328Z</time>
      </trkpt>
      <trkpt lat="45.63773" lon="6.58745">
        <ele>1637.14</ele>
        <time>2024-07-21T18:16:11.941Z</time>
      </trkpt>
      <trkpt lat="45.63794" lon="6.58707">
        <ele>1626.58</ele>
        <time>2024-07-21T18:16:25.599Z</time>
      </trkpt>
      <trkpt lat="45.63818" lon="6.58675">
        <ele>1616.6</ele>
        <time>2024-07-21T18:16:39.301Z</time>
      </trkpt>
      <trkpt lat="45.63871" lon="6.58649">
        <ele>1614.79</ele>
        <time>2024-07-21T18:16:53.077Z</time>
      </trkpt>
      <trkpt lat="45.63892" lon="6.58643">
        <ele>1614.4</ele>
        <time>2024-07-21T18:17:06.882Z</time>
      </trkpt>
      <trkpt lat="45.63904" lon="6.58638">
        <ele>1612.15</ele>
        <time>2024-07-21T18:17:20.704Z</time>
      </trkpt>
      <trkpt lat="45.63913" lon="6.58629">
        <ele>1609.84</ele>
        <time>2024-07-21T18:17:34.540Z</time>
      </trkpt>
      <trkpt lat="45.63923" lon="6.58622">
        <ele>1608.19</ele>
        <time>2024-07-21T18:17:48.392Z</time>
      </trkpt>
      <trkpt lat="45.63933" lon="6.5861">
        <ele>1606.36</ele>
        <time>2024-07-21T18:18:02.261Z</time>
      </trkpt>
      <trkpt lat="45.63955" lon="6.58599">
        <ele>1603.7</ele>
        <time>2024-07-21T18:18:16.160Z</time>
      </trkpt>
      <trkpt lat="45.6397" lon="6.58587">
        <ele>1602</ele>
        <time>2024-07-21T18:18:30.082Z</time>
      </trkpt>
      <trkpt lat="45.63985" lon="6.58579">
        <ele>1600.52</ele>
        <time>2024-07-21T18:18:44.026Z</time>
      </trkpt>
      <trkpt lat="45.64002" lon="6.58564">
        <ele>1598.7</ele>
        <time>2024-07-21T18:18:57.996Z</time>
      </trkpt>
      <trkpt lat="45.64009" lon="6.58561">
        <ele>1598.29</ele>
        <time>2024-07-21T18:19:11.977Z</time>
      </trkpt>
      <trkpt lat="45.64035" lon="6.58565">
        <ele>1598.87</ele>
        <time>2024-07-21T18:19:25.992Z</time>
      </trkpt>
      <trkpt lat="45.6404" lon="6.58558">
        <ele>1598.07</ele>
        <time>2024-07-21T18:19:40.017Z</time>
      </trkpt>
      <trkpt lat="45.64061" lon="6.58519">
        <ele>1592.95</ele>
        <time>2024-07-21T18:19:54.088Z</time>
      </trkpt>
      <trkpt lat="45.64073" lon="6.58502">
        <ele>1590.36</ele>
        <time>2024-07-21T18:20:08.181Z</time>
      </trkpt>
      <trkpt lat="45.64095" lon="6.58481">
        <ele>1589.69</ele>
        <time>2024-07-21T18:20:22.310Z</time>
      </trkpt>
      <trkpt lat="45.64109" lon="6.58454">
        <ele>1589.45</ele>
        <time>2024-07-21T18:20:36.470Z</time>
      </trkpt>
      <trkpt lat="45.64126" lon="6.58443">
        <ele>1591.26</ele>
        <time>2024-07-21T18:20:50.656Z</time>
      </trkpt>
      <trkpt lat="45.64149" lon="6.58434">
        <ele>1593.79</ele>
        <time>2024-07-21T18:21:04.873Z</time>
      </trkpt>
      <trkpt lat="45.64157" lon="6.58438">
        <ele>1595.36</ele>
        <time>2024-07-21T18:21:19.102Z</time>
      </trkpt>
      <trkpt lat="45.64185" lon="6.58407">
        <ele>1592.93</ele>
        <time>2024-07-21T18:21:33.378Z</time>
      </trkpt>
      <trkpt lat="45.64185" lon="6.58376">
        <ele>1586.6</ele>
        <time>2024-07-21T18:21:47.683Z</time>
      </trkpt>
      <trkpt lat="45.64199" lon="6.58363">
        <ele>1582.01</ele>
        <time>2024-07-21T18:22:02.010Z</time>
      </trkpt>
      <trkpt lat="45.64208" lon="6.58359">
        <ele>1581.57</ele>
        <time>2024-07-21T18:22:16.349Z</time>
      </trkpt>
      <trkpt lat="45.64221" lon="6.58361">
        <ele>1583.65</ele>
        <time>2024-07-21T18:22:30.706Z</time>
      </trkpt>
      <trkpt lat="45.6423" lon="6.58355">
        <ele>1582.39</ele>
        <time>2024-07-21T18:22:45.077Z</time>
      </trkpt>
      <trkpt lat="45.64234" lon="6.58339">
        <ele>1575.95</ele>
        <time>2024-07-21T18:22:59.464Z</time>
      </trkpt>
      <trkpt lat="45.64241" lon="6.58329">
        <ele>1574.43</ele>
        <time>2024-07-21T18:23:13.864Z</time>
      </trkpt>
      <trkpt lat="45.64251" lon="6.58326">
        <ele>1575.04</ele>
        <time>2024-07-21T18:23:28.277Z</time>
      </trkpt>
      <trkpt lat="45.64275" lon="6.58328">
        <ele>1582.52</ele>
        <time>2024-07-21T18:23:42.723Z</time>
      </trkpt>
      <trkpt lat="45.6428" lon="6.58324">
        <ele>1582.02</ele>
        <time>2024-07-21T18:23:57.176Z</time>
      </trkpt>
      <trkpt lat="45.6427" lon="6.58321">
        <ele>1577.19</ele>
        <time>2024-07-21T18:24:11.642Z</time>
      </trkpt>
      <trkpt lat="45.6427" lon="6.58321">
        <ele>1577.16</ele>
        <time>2024-07-21T18:24:26.108Z</time>
      </trkpt>
      <trkpt lat="45.64254" lon="6.5831">
        <ele>1565.1</ele>
        <time>2024-07-21T18:24:40.598Z</time>
      </trkpt>
      <trkpt lat="45.64252" lon="6.58307">
        <ele>1563.47</ele>
        <time>2024-07-21T18:24:55.092Z</time>
      </trkpt>
      <trkpt lat="45.64254" lon="6.58306">
        <ele>1563.15</ele>
        <time>2024-07-21T18:25:09.589Z</time>
      </trkpt>
      <trkpt lat="45.64272" lon="6.58312">
        <ele>1573.22</ele>
        <time>2024-07-21T18:25:24.111Z</time>
      </trkpt>
      <trkpt lat="45.64273" lon="6.58311">
        <ele>1572.97</ele>
        <time>2024-07-21T18:25:38.635Z</time>
      </trkpt>
      <trkpt lat="45.64265" lon="6.58302">
        <ele>1564.9</ele>
        <time>2024-07-21T18:25:53.173Z</time>
      </trkpt>
      <trkpt lat="45.64244" lon="6.58292">
        <ele>1554.37</ele>
        <time>2024-07-21T18:26:07.739Z</time>
      </trkpt>
      <trkpt lat="45.64178" lon="6.58223">
        <ele>1564.38</ele>
        <time>2024-07-21T18:26:22.415Z</time>
      </trkpt>
      <trkpt lat="45.64175" lon="6.58216">
        <ele>1569.38</ele>
        <time>2024-07-21T18:26:37.099Z</time>
      </trkpt>
      <trkpt lat="45.64175" lon="6.58202">
        <ele>1571.9</ele>
        <time>2024-07-21T18:26:51.796Z</time>
      </trkpt>
      <trkpt lat="45.64164" lon="6.58143">
        <ele>1584.8</ele>
        <time>2024-07-21T18:27:06.550Z</time>
      </trkpt>
      <trkpt lat="45.64166" lon="6.58109">
        <ele>1582.87</ele>
        <time>2024-07-21T18:27:21.336Z</time>
      </trkpt>
      <trkpt lat="45.64176" lon="6.58079">
        <ele>1577.94</ele>
        <time>2024-07-21T18:27:36.153Z</time>
      </trkpt>
      <trkpt lat="45.64197" lon="6.5804">
        <ele>1567.1</ele>
        <time>2024-07-21T18:27:51.016Z</time>
      </trkpt>
      <trkpt lat="45.64205" lon="6.58019">
        <ele>1565.42</ele>
        <time>2024-07-21T18:28:05.902Z</time>
      </trkpt>
      <trkpt lat="45.64201" lon="6.57998">
        <ele>1567.44</ele>
        <time>2024-07-21T18:28:20.807Z</time>
      </trkpt>
      <trkpt lat="45.64194" lon="6.57969">
        <ele>1569.48</ele>
        <time>2024-07-21T18:28:35.741Z</time>
      </trkpt>
      <trkpt lat="45.64199" lon="6.57951">
        <ele>1564.25</ele>
        <time>2024-07-21T18:28:50.693Z</time>
      </trkpt>
      <trkpt lat="45.64199" lon="6.57945">
        <ele>1563.41</ele>
        <time>2024-07-21T18:29:05.651Z</time>
      </trkpt>
      <trkpt lat="45.64185" lon="6.57908">
        <ele>1564.98</ele>
        <time>2024-07-21T18:29:20.648Z</time>
      </trkpt>
      <trkpt lat="45.64181" lon="6.57869">
        <ele>1563.25</ele>
        <time>2024-07-21T18:29:35.683Z</time>
      </trkpt>
      <trkpt lat="45.64167" lon="6.57829">
        <ele>1572.95</ele>
        <time>2024-07-21T18:29:50.759Z</time>
      </trkpt>
      <trkpt lat="45.64161" lon="6.57794">
        <ele>1573.75</ele>
        <time>2024-07-21T18:30:05.870Z</time>
      </trkpt>
      <trkpt lat="45.64149" lon="6.57766">
        <ele>1575.51</ele>
        <time>2024-07-21T18:30:21.011Z</time>
      </trkpt>
      <trkpt lat="45.64146" lon="6.57708">
        <ele>1567.66</ele>
        <time>2024-07-21T18:30:36.207Z</time>
      </trkpt>
      <trkpt lat="45.64142" lon="6.57698">
        <ele>1567.54</ele>
        <time>2024-07-21T18:30:51.413Z</time>
      </trkpt>
      <trkpt lat="45.64138" lon="6.57692">
        <ele>1568.36</ele>
        <time>2024-07-21T18:31:06.627Z</time>
      </trkpt>
      <trkpt lat="45.64104" lon="6.57668">
        <ele>1580.89</ele>
        <time>2024-07-21T18:31:21.892Z</time>
      </trkpt>
      <trkpt lat="45.64083" lon="6.57648">
        <ele>1585.66</ele>
        <time>2024-07-21T18:31:37.190Z</time>
      </trkpt>
      <trkpt lat="45.64072" lon="6.57624">
        <ele>1584.34</ele>
        <time>2024-07-21T18:31:52.515Z</time>
      </trkpt>
      <trkpt lat="45.64065" lon="6.57579">
        <ele>1575.21</ele>
        <time>2024-07-21T18:32:07.883Z</time>
      </trkpt>
      <trkpt lat="45.64066" lon="6.57564">
        <ele>1572.74</ele>
        <time>2024-07-21T18:32:23.265Z</time>
      </trkpt>
      <trkpt lat="45.6407" lon="6.57556">
        <ele>1571.52</ele>
        <time>2024-07-21T18:32:38.656Z</time>
      </trkpt>
      <trkpt lat="45.64077" lon="6.5755">
        <ele>1569.65</ele>
        <time>2024-07-21T18:32:54.058Z</time>
      </trkpt>
      <trkpt lat="45.6409" lon="6.5756">
        <ele>1567.66</ele>
        <time>2024-07-21T18:33:09.479Z</time>
      </trkpt>
      <trkpt lat="45.6411" lon="6.57583">
        <ele>1564.79</ele>
        <time>2024-07-21T18:33:24.935Z</time>
      </trkpt>
      <trkpt lat="45.64143" lon="6.57597">
        <ele>1563.4</ele>
      </trkpt>
      <trkpt lat="45.64154" lon="6.57597">
        <ele>1563.9</ele>
      </trkpt>
      <trkpt lat="45.64174" lon="6.57585">
        <ele>1567</ele>
      </trkpt>
      <trkpt lat="45.64155" lon="6.57581">
        <ele>1567.6</ele>
      </trkpt>
      <trkpt lat="45.64145" lon="6.57574">
        <ele>1570</ele>
      </trkpt>
      <trkpt lat="45.64137" lon="6.57555">
        <ele>1575.6</ele>
      </trkpt>
      <trkpt lat="45.64137" lon="6.57546">
        <ele>1576.9</ele>
      </trkpt>
      <trkpt lat="45.64133" lon="6.5753">
        <ele>1577.9</ele>
      </trkpt>
      <trkpt lat="45.64126" lon="6.57518">
        <ele>1578.3</ele>
      </trkpt>
      <trkpt lat="45.64101" lon="6.57497">
        <ele>1578.4</ele>
      </trkpt>
      <trkpt lat="45.64099" lon="6.57486">
        <ele>1579.9</ele>
      </trkpt>
      <trkpt lat="45.64066" lon="6.57468">
        <ele>1580.4</ele>
      </trkpt>
      <trkpt lat="45.64034" lon="6.57438">
        <ele>1588.01</ele>
        <time>2024-07-21T18:36:32.230Z</time>
      </trkpt>
      <trkpt lat="45.64028" lon="6.57435">
        <ele>1588.63</ele>
        <time>2024-07-21T18:36:48.001Z</time>
      </trkpt>
      <trkpt lat="45.64018" lon="6.57435">
        <ele>1588.8</ele>
        <time>2024-07-21T18:37:03.785Z</time>
      </trkpt>
      <trkpt lat="45.6401" lon="6.57431">
        <ele>1589.66</ele>
        <time>2024-07-21T18:37:19.580Z</time>
      </trkpt>
      <trkpt lat="45.64008" lon="6.57423">
        <ele>1590.34</ele>
        <time>2024-07-21T18:37:35.383Z</time>
      </trkpt>
      <trkpt lat="45.64008" lon="6.57404">
        <ele>1593.11</ele>
        <time>2024-07-21T18:37:51.204Z</time>
      </trkpt>
      <trkpt lat="45.64002" lon="6.57382">
        <ele>1596.54</ele>
        <time>2024-07-21T18:38:07.047Z</time>
      </trkpt>
      <trkpt lat="45.63959" lon="6.5735">
        <ele>1601.07</ele>
        <time>2024-07-21T18:38:22.955Z</time>
      </trkpt>
      <trkpt lat="45.63945" lon="6.57347">
        <ele>1602.29</ele>
        <time>2024-07-21T18:38:38.882Z</time>
      </trkpt>
      <trkpt lat="45.63931" lon="6.57338">
        <ele>1603.68</ele>
        <time>2024-07-21T18:38:54.829Z</time>
      </trkpt>
      <trkpt lat="45.63911" lon="6.57291">
        <ele>1610.26</ele>
        <time>2024-07-21T18:39:10.827Z</time>
      </trkpt>
      <trkpt lat="45.63888" lon="6.57251">
        <ele>1614.24</ele>
        <time>2024-07-21T18:39:26.874Z</time>
      </trkpt>
      <trkpt lat="45.63861" lon="6.5721">
        <ele>1621.82</ele>
        <time>2024-07-21T18:39:42.973Z</time>
      </trkpt>
      <trkpt lat="45.63834" lon="6.57191">
        <ele>1624.27</ele>
        <time>2024-07-21T18:39:59.112Z</time>
      </trkpt>
      <trkpt lat="45.63828" lon="6.57163">
        <ele>1629.86</ele>
        <time>2024-07-21T18:40:15.279Z</time>
      </trkpt>
      <trkpt lat="45.63797" lon="6.57152">
        <ele>1632.29</ele>
        <time>2024-07-21T18:40:31.488Z</time>
      </trkpt>
      <trkpt lat="45.63793" lon="6.57141">
        <ele>1634.17</ele>
        <time>2024-07-21T18:40:47.709Z</time>
      </trkpt>
      <trkpt lat="45.63794" lon="6.57126">
        <ele>1635.19</ele>
        <time>2024-07-21T18:41:03.944Z</time>
      </trkpt>
      <trkpt lat="45.63789" lon="6.57119">
        <ele>1636.19</ele>
        <time>2024-07-21T18:41:20.188Z</time>
      </trkpt>
      <trkpt lat="45.63789" lon="6.57112">
        <ele>1637.12</ele>
        <time>2024-07-21T18:41:36.438Z</time>
      </trkpt>
      <trkpt lat="45.63783" lon="6.57105">
        <ele>1638.2</ele>
        <time>2024-07-21T18:41:52.699Z</time>
      </trkpt>
      <trkpt lat="45.63781" lon="6.57095">
        <ele>1639.7</ele>
        <time>2024-07-21T18:42:08.970Z</time>
      </trkpt>
      <trkpt lat="45.63773" lon="6.57096">
        <ele>1640.92</ele>
        <time>2024-07-21T18:42:25.251Z</time>
      </trkpt>
      <trkpt lat="45.63773" lon="6.57112">
        <ele>1638.87</ele>
        <time>2024-07-21T18:42:41.547Z</time>
      </trkpt>
      <trkpt lat="45.63769" lon="6.57112">
        <ele>1639.78</ele>
        <time>2024-07-21T18:42:57.849Z</time>
      </trkpt>
      <trkpt lat="45.63765" lon="6.57109">
        <ele>1641.11</ele>
        <time>2024-07-21T18:43:14.157Z</time>
      </trkpt>
      <trkpt lat="45.63765" lon="6.571">
        <ele>1642.04</ele>
        <time>2024-07-21T18:43:30.473Z</time>
      </trkpt>
      <trkpt lat="45.6376" lon="6.57102">
        <ele>1642.83</ele>
        <time>2024-07-21T18:43:46.795Z</time>
      </trkpt>
      <trkpt lat="45.63756" lon="6.57089">
        <ele>1645.12</ele>
        <time>2024-07-21T18:44:03.130Z</time>
      </trkpt>
      <trkpt lat="45.63754" lon="6.57086">
        <ele>1645.85</ele>
        <time>2024-07-21T18:44:19.469Z</time>
      </trkpt>
      <trkpt lat="45.63749" lon="6.57091">
        <ele>1647.11</ele>
        <time>2024-07-21T18:44:35.816Z</time>
      </trkpt>
      <trkpt lat="45.63745" lon="6.57086">
        <ele>1648.56</ele>
        <time>2024-07-21T18:44:52.169Z</time>
      </trkpt>
      <trkpt lat="45.63743" lon="6.5708">
        <ele>1649.43</ele>
        <time>2024-07-21T18:45:08.528Z</time>
      </trkpt>
      <trkpt lat="45.6374" lon="6.5708">
        <ele>1650.42</ele>
        <time>2024-07-21T18:45:24.892Z</time>
      </trkpt>
      <trkpt lat="45.63738" lon="6.57085">
        <ele>1651.15</ele>
        <time>2024-07-21T18:45:41.261Z</time>
      </trkpt>
      <trkpt lat="45.63735" lon="6.57086">
        <ele>1652.02</ele>
        <time>2024-07-21T18:45:57.635Z</time>
      </trkpt>
      <trkpt lat="45.63733" lon="6.57084">
        <ele>1652.89</ele>
        <time>2024-07-21T18:46:14.012Z</time>
      </trkpt>
      <trkpt lat="45.63733" lon="6.57077">
        <ele>1652.89</ele>
        <time>2024-07-21T18:46:30.396Z</time>
      </trkpt>
      <trkpt lat="45.6373" lon="6.57076">
        <ele>1653.63</ele>
        <time>2024-07-21T18:46:46.783Z</time>
      </trkpt>
      <trkpt lat="45.63729" lon="6.5708">
        <ele>1654</ele>
        <time>2024-07-21T18:47:03.175Z</time>
      </trkpt>
      <trkpt lat="45.63726" lon="6.57083">
        <ele>1654.99</ele>
        <time>2024-07-21T18:47:19.572Z</time>
      </trkpt>
      <trkpt lat="45.6372" lon="6.57081">
        <ele>1657.72</ele>
        <time>2024-07-21T18:47:35.978Z</time>
      </trkpt>
      <trkpt lat="45.63716" lon="6.57077">
        <ele>1658.84</ele>
        <time>2024-07-21T18:47:52.390Z</time>
      </trkpt>
      <trkpt lat="45.63706" lon="6.57068">
        <ele>1663.22</ele>
        <time>2024-07-21T18:48:08.818Z</time>
      </trkpt>
      <trkpt lat="45.63706" lon="6.57058">
        <ele>1663</ele>
        <time>2024-07-21T18:48:25.256Z</time>
      </trkpt>
      <trkpt lat="45.63704" lon="6.57055">
        <ele>1663.9</ele>
        <time>2024-07-21T18:48:41.698Z</time>
      </trkpt>
      <trkpt lat="45.63701" lon="6.57059">
        <ele>1664.81</ele>
        <time>2024-07-21T18:48:58.144Z</time>
      </trkpt>
      <trkpt lat="45.63697" lon="6.57059">
        <ele>1666.55</ele>
        <time>2024-07-21T18:49:14.595Z</time>
      </trkpt>
      <trkpt lat="45.63692" lon="6.57053">
        <ele>1668.74</ele>
        <time>2024-07-21T18:49:31.055Z</time>
      </trkpt>
      <trkpt lat="45.63687" lon="6.57062">
        <ele>1670.55</ele>
        <time>2024-07-21T18:49:47.525Z</time>
      </trkpt>
      <trkpt lat="45.63676" lon="6.5707">
        <ele>1675.3</ele>
        <time>2024-07-21T18:50:04.013Z</time>
      </trkpt>
      <trkpt lat="45.63673" lon="6.57069">
        <ele>1676.04</ele>
        <time>2024-07-21T18:50:20.504Z</time>
      </trkpt>
      <trkpt lat="45.6367" lon="6.57063">
        <ele>1677.04</ele>
        <time>2024-07-21T18:50:37.002Z</time>
      </trkpt>
      <trkpt lat="45.63666" lon="6.57061">
        <ele>1678.7</ele>
        <time>2024-07-21T18:50:53.506Z</time>
      </trkpt>
      <trkpt lat="45.63661" lon="6.57062">
        <ele>1680.97</ele>
        <time>2024-07-21T18:51:10.017Z</time>
      </trkpt>
      <trkpt lat="45.63654" lon="6.5706">
        <ele>1683.38</ele>
        <time>2024-07-21T18:51:26.537Z</time>
      </trkpt>
      <trkpt lat="45.6364" lon="6.57041">
        <ele>1689.19</ele>
        <time>2024-07-21T18:51:43.083Z</time>
      </trkpt>
      <trkpt lat="45.63621" lon="6.57035">
        <ele>1694.33</ele>
        <time>2024-07-21T18:51:59.655Z</time>
      </trkpt>
      <trkpt lat="45.6362" lon="6.5703">
        <ele>1694.71</ele>
        <time>2024-07-21T18:52:16.232Z</time>
      </trkpt>
      <trkpt lat="45.63626" lon="6.57026">
        <ele>1693.05</ele>
        <time>2024-07-21T18:52:32.818Z</time>
      </trkpt>
      <trkpt lat="45.63636" lon="6.57009">
        <ele>1689.93</ele>
        <time>2024-07-21T18:52:49.425Z</time>
      </trkpt>
      <trkpt lat="45.63633" lon="6.56996">
        <ele>1690.54</ele>
        <time>2024-07-21T18:53:06.045Z</time>
      </trkpt>
      <trkpt lat="45.6362" lon="6.56972">
        <ele>1692.98</ele>
        <time>2024-07-21T18:53:22.693Z</time>
      </trkpt>
      <trkpt lat="45.63588" lon="6.56937">
        <ele>1698.91</ele>
        <time>2024-07-21T18:53:39.395Z</time>
      </trkpt>
      <trkpt lat="45.63582" lon="6.56919">
        <ele>1698.28</ele>
        <time>2024-07-21T18:53:56.116Z</time>
      </trkpt>
      <trkpt lat="45.63572" lon="6.56913">
        <ele>1700.28</ele>
        <time>2024-07-21T18:54:12.852Z</time>
      </trkpt>
      <trkpt lat="45.63557" lon="6.56915">
        <ele>1704.73</ele>
        <time>2024-07-21T18:54:29.608Z</time>
      </trkpt>
      <trkpt lat="45.6354" lon="6.56908">
        <ele>1710.35</ele>
        <time>2024-07-21T18:54:46.387Z</time>
      </trkpt>
      <trkpt lat="45.63528" lon="6.56892">
        <ele>1714.44</ele>
        <time>2024-07-21T18:55:03.188Z</time>
      </trkpt>
      <trkpt lat="45.63521" lon="6.56876">
        <ele>1715.6</ele>
        <time>2024-07-21T18:55:20.007Z</time>
      </trkpt>
      <trkpt lat="45.63509" lon="6.56855">
        <ele>1717.68</ele>
        <time>2024-07-21T18:55:36.851Z</time>
      </trkpt>
      <trkpt lat="45.63491" lon="6.56843">
        <ele>1721.48</ele>
        <time>2024-07-21T18:55:53.722Z</time>
      </trkpt>
      <trkpt lat="45.63479" lon="6.5683">
        <ele>1723.5</ele>
        <time>2024-07-21T18:56:10.613Z</time>
      </trkpt>
      <trkpt lat="45.63483" lon="6.56806">
        <ele>1720</ele>
        <time>2024-07-21T18:56:27.526Z</time>
      </trkpt>
      <trkpt lat="45.63468" lon="6.56779">
        <ele>1722.57</ele>
        <time>2024-07-21T18:56:44.472Z</time>
      </trkpt>
      <trkpt lat="45.63456" lon="6.5676">
        <ele>1723.12</ele>
        <time>2024-07-21T18:57:01.441Z</time>
      </trkpt>
      <trkpt lat="45.63444" lon="6.56753">
        <ele>1725.44</ele>
        <time>2024-07-21T18:57:18.428Z</time>
      </trkpt>
      <trkpt lat="45.63436" lon="6.56731">
        <ele>1723.66</ele>
        <time>2024-07-21T18:57:35.437Z</time>
      </trkpt>
      <trkpt lat="45.63415" lon="6.56692">
        <ele>1727.89</ele>
        <time>2024-07-21T18:57:52.493Z</time>
      </trkpt>
      <trkpt lat="45.63403" lon="6.56685">
        <ele>1731.96</ele>
        <time>2024-07-21T18:58:09.566Z</time>
      </trkpt>
      <trkpt lat="45.63398" lon="6.56665">
        <ele>1734.18</ele>
        <time>2024-07-21T18:58:26.659Z</time>
      </trkpt>
      <trkpt lat="45.63413" lon="6.56663">
        <ele>1731.04</ele>
        <time>2024-07-21T18:58:43.772Z</time>
      </trkpt>
      <trkpt lat="45.63413" lon="6.56659">
        <ele>1731.27</ele>
        <time>2024-07-21T18:59:00.888Z</time>
      </trkpt>
      <trkpt lat="45.63402" lon="6.56635">
        <ele>1735.57</ele>
        <time>2024-07-21T18:59:18.031Z</time>
      </trkpt>
      <trkpt lat="45.63406" lon="6.56629">
        <ele>1735.24</ele>
        <time>2024-07-21T18:59:35.182Z</time>
      </trkpt>
      <trkpt lat="45.63405" lon="6.56622">
        <ele>1736.82</ele>
        <time>2024-07-21T18:59:52.340Z</time>
      </trkpt>
      <trkpt lat="45.6341" lon="6.56618">
        <ele>1737.6</ele>
        <time>2024-07-21T19:00:09.505Z</time>
      </trkpt>
      <trkpt lat="45.63407" lon="6.56613">
        <ele>1738.82</ele>
        <time>2024-07-21T19:00:26.675Z</time>
      </trkpt>
      <trkpt lat="45.63398" lon="6.56598">
        <ele>1745.95</ele>
        <time>2024-07-21T19:00:43.864Z</time>
      </trkpt>
      <trkpt lat="45.63384" lon="6.56595">
        <ele>1748</ele>
        <time>2024-07-21T19:01:01.072Z</time>
      </trkpt>
      <trkpt lat="45.63374" lon="6.56582">
        <ele>1753.59</ele>
        <time>2024-07-21T19:01:18.298Z</time>
      </trkpt>
      <trkpt lat="45.63345" lon="6.56564">
        <ele>1761.95</ele>
        <time>2024-07-21T19:01:35.566Z</time>
      </trkpt>
      <trkpt lat="45.63341" lon="6.5656">
        <ele>1763.84</ele>
        <time>2024-07-21T19:01:52.841Z</time>
      </trkpt>
      <trkpt lat="45.63339" lon="6.56552">
        <ele>1765.17</ele>
        <time>2024-07-21T19:02:10.124Z</time>
      </trkpt>
      <trkpt lat="45.63336" lon="6.5655">
        <ele>1765.99</ele>
        <time>2024-07-21T19:02:27.411Z</time>
      </trkpt>
      <trkpt lat="45.63325" lon="6.56554">
        <ele>1769.42</ele>
        <time>2024-07-21T19:02:44.713Z</time>
      </trkpt>
      <trkpt lat="45.63321" lon="6.56554">
        <ele>1770.93</ele>
        <time>2024-07-21T19:03:02.021Z</time>
      </trkpt>
      <trkpt lat="45.63317" lon="6.56551">
        <ele>1772.17</ele>
        <time>2024-07-21T19:03:19.334Z</time>
      </trkpt>
      <trkpt lat="45.63312" lon="6.56553">
        <ele>1774.09</ele>
        <time>2024-07-21T19:03:36.655Z</time>
      </trkpt>
      <trkpt lat="45.63305" lon="6.56575">
        <ele>1774.54</ele>
        <time>2024-07-21T19:03:53.997Z</time>
      </trkpt>
      <trkpt lat="45.63303" lon="6.56579">
        <ele>1774.98</ele>
        <time>2024-07-21T19:04:11.344Z</time>
      </trkpt>
      <trkpt lat="45.633" lon="6.5658">
        <ele>1775.8</ele>
        <time>2024-07-21T19:04:28.696Z</time>
      </trkpt>
      <trkpt lat="45.63296" lon="6.56578">
        <ele>1777.66</ele>
        <time>2024-07-21T19:04:46.054Z</time>
      </trkpt>
      <trkpt lat="45.63294" lon="6.56569">
        <ele>1779.8</ele>
        <time>2024-07-21T19:05:03.420Z</time>
      </trkpt>
      <trkpt lat="45.63296" lon="6.56565">
        <ele>1779.51</ele>
        <time>2024-07-21T19:05:20.791Z</time>
      </trkpt>
      <trkpt lat="45.63288" lon="6.56564">
        <ele>1782.5</ele>
        <time>2024-07-21T19:05:38.172Z</time>
      </trkpt>
      <trkpt lat="45.63284" lon="6.56559">
        <ele>1784.89</ele>
        <time>2024-07-21T19:05:55.561Z</time>
      </trkpt>
      <trkpt lat="45.63279" lon="6.56548">
        <ele>1785.6</ele>
        <time>2024-07-21T19:06:12.962Z</time>
      </trkpt>
      <trkpt lat="45.63274" lon="6.56548">
        <ele>1786.5</ele>
        <time>2024-07-21T19:06:30.369Z</time>
      </trkpt>
      <trkpt lat="45.63267" lon="6.56538">
        <ele>1787.11</ele>
        <time>2024-07-21T19:06:47.789Z</time>
      </trkpt>
      <trkpt lat="45.63264" lon="6.56536">
        <ele>1787.53</ele>
        <time>2024-07-21T19:07:05.214Z</time>
      </trkpt>
      <trkpt lat="45.63244" lon="6.56541">
        <ele>1790.09</ele>
        <time>2024-07-21T19:07:22.665Z</time>
      </trkpt>
      <trkpt lat="45.6324" lon="6.56536">
        <ele>1791.73</ele>
        <time>2024-07-21T19:07:40.124Z</time>
      </trkpt>
      <trkpt lat="45.63239" lon="6.56529">
        <ele>1792.9</ele>
        <time>2024-07-21T19:07:57.590Z</time>
      </trkpt>
      <trkpt lat="45.63229" lon="6.56512">
        <ele>1798.2</ele>
        <time>2024-07-21T19:08:15.076Z</time>
      </trkpt>
      <trkpt lat="45.63224" lon="6.56505">
        <ele>1801.16</ele>
        <time>2024-07-21T19:08:32.572Z</time>
      </trkpt>
      <trkpt lat="45.63214" lon="6.56496">
        <ele>1806.43</ele>
        <time>2024-07-21T19:08:50.083Z</time>
      </trkpt>
      <trkpt lat="45.63215" lon="6.5648">
        <ele>1807.91</ele>
        <time>2024-07-21T19:09:07.609Z</time>
      </trkpt>
      <trkpt lat="45.63212" lon="6.5647">
        <ele>1809.91</ele>
        <time>2024-07-21T19:09:25.146Z</time>
      </trkpt>
      <trkpt lat="45.63207" lon="6.56471">
        <ele>1812.21</ele>
        <time>2024-07-21T19:09:42.690Z</time>
      </trkpt>
      <trkpt lat="45.63199" lon="6.56469">
        <ele>1815.51</ele>
        <time>2024-07-21T19:10:00.245Z</time>
      </trkpt>
      <trkpt lat="45.63198" lon="6.56461">
        <ele>1816</ele>
        <time>2024-07-21T19:10:17.807Z</time>
      </trkpt>
      <trkpt lat="45.63183" lon="6.56455">
        <ele>1821.36</ele>
        <time>2024-07-21T19:10:35.390Z</time>
      </trkpt>
      <trkpt lat="45.63163" lon="6.56433">
        <ele>1828.9</ele>
        <time>2024-07-21T19:10:53.007Z</time>
      </trkpt>
      <trkpt lat="45.63156" lon="6.5641">
        <ele>1831.46</ele>
        <time>2024-07-21T19:11:10.647Z</time>
      </trkpt>
      <trkpt lat="45.6315" lon="6.56393">
        <ele>1834.2</ele>
        <time>2024-07-21T19:11:28.305Z</time>
      </trkpt>
      <trkpt lat="45.63143" lon="6.56366">
        <ele>1838.45</ele>
        <time>2024-07-21T19:11:45.990Z</time>
      </trkpt>
      <trkpt lat="45.6314" lon="6.56359">
        <ele>1840</ele>
        <time>2024-07-21T19:12:03.683Z</time>
      </trkpt>
      <trkpt lat="45.63137" lon="6.56338">
        <ele>1840.65</ele>
        <time>2024-07-21T19:12:21.396Z</time>
      </trkpt>
      <trkpt lat="45.63134" lon="6.56332">
        <ele>1842.19</ele>
        <time>2024-07-21T19:12:39.116Z</time>
      </trkpt>
      <trkpt lat="45.6313" lon="6.56313">
        <ele>1846.7</ele>
        <time>2024-07-21T19:12:56.855Z</time>
      </trkpt>
      <trkpt lat="45.63122" lon="6.56312">
        <ele>1849.5</ele>
        <time>2024-07-21T19:13:14.604Z</time>
      </trkpt>
      <trkpt lat="45.63117" lon="6.56305">
        <ele>1852.52</ele>
        <time>2024-07-21T19:13:32.362Z</time>
      </trkpt>
      <trkpt lat="45.63113" lon="6.56295">
        <ele>1855.24</ele>
        <time>2024-07-21T19:13:50.131Z</time>
      </trkpt>
      <trkpt lat="45.63109" lon="6.56293">
        <ele>1856.92</ele>
        <time>2024-07-21T19:14:07.906Z</time>
      </trkpt>
      <trkpt lat="45.63106" lon="6.56298">
        <ele>1857.25</ele>
        <time>2024-07-21T19:14:25.688Z</time>
      </trkpt>
      <trkpt lat="45.63103" lon="6.56295">
        <ele>1858.7</ele>
        <time>2024-07-21T19:14:43.475Z</time>
      </trkpt>
      <trkpt lat="45.63096" lon="6.56286">
        <ele>1862.04</ele>
        <time>2024-07-21T19:15:01.274Z</time>
      </trkpt>
      <trkpt lat="45.63093" lon="6.56274">
        <ele>1865.1</ele>
        <time>2024-07-21T19:15:19.084Z</time>
      </trkpt>
      <trkpt lat="45.63089" lon="6.56285">
        <ele>1864.81</ele>
        <time>2024-07-21T19:15:36.906Z</time>
      </trkpt>
      <trkpt lat="45.63084" lon="6.56281">
        <ele>1866.51</ele>
        <time>2024-07-21T19:15:54.735Z</time>
      </trkpt>
      <trkpt lat="45.63084" lon="6.56273">
        <ele>1867.71</ele>
        <time>2024-07-21T19:16:12.571Z</time>
      </trkpt>
      <trkpt lat="45.63082" lon="6.56269">
        <ele>1868.91</ele>
        <time>2024-07-21T19:16:30.412Z</time>
      </trkpt>
      <trkpt lat="45.63078" lon="6.56276">
        <ele>1868.6</ele>
        <time>2024-07-21T19:16:48.262Z</time>
      </trkpt>
      <trkpt lat="45.63065" lon="6.56268">
        <ele>1872.7</ele>
        <time>2024-07-21T19:17:06.131Z</time>
      </trkpt>
      <trkpt lat="45.63058" lon="6.56273">
        <ele>1874.09</ele>
        <time>2024-07-21T19:17:24.011Z</time>
      </trkpt>
      <trkpt lat="45.63054" lon="6.56263">
        <ele>1876.25</ele>
        <time>2024-07-21T19:17:41.902Z</time>
      </trkpt>
      <trkpt lat="45.63048" lon="6.56261">
        <ele>1878.12</ele>
        <time>2024-07-21T19:17:59.802Z</time>
      </trkpt>
      <trkpt lat="45.63045" lon="6.56255">
        <ele>1879.8</ele>
        <time>2024-07-21T19:18:17.709Z</time>
      </trkpt>
      <trkpt lat="45.63038" lon="6.56255">
        <ele>1881.67</ele>
        <time>2024-07-21T19:18:35.625Z</time>
      </trkpt>
      <trkpt lat="45.63033" lon="6.5625">
        <ele>1883.94</ele>
        <time>2024-07-21T19:18:53.549Z</time>
      </trkpt>
      <trkpt lat="45.63033" lon="6.56243">
        <ele>1885.09</ele>
        <time>2024-07-21T19:19:11.479Z</time>
      </trkpt>
      <trkpt lat="45.63029" lon="6.56243">
        <ele>1886.68</ele>
        <time>2024-07-21T19:19:29.415Z</time>
      </trkpt>
      <trkpt lat="45.63027" lon="6.56236">
        <ele>1889.03</ele>
        <time>2024-07-21T19:19:47.359Z</time>
      </trkpt>
      <trkpt lat="45.63021" lon="6.56234">
        <ele>1891.72</ele>
        <time>2024-07-21T19:20:05.310Z</time>
      </trkpt>
      <trkpt lat="45.63019" lon="6.56232">
        <ele>1892.74</ele>
        <time>2024-07-21T19:20:23.264Z</time>
      </trkpt>
      <trkpt lat="45.63015" lon="6.56224">
        <ele>1896.27</ele>
        <time>2024-07-21T19:20:41.228Z</time>
      </trkpt>
      <trkpt lat="45.6301" lon="6.5621">
        <ele>1902.09</ele>
        <time>2024-07-21T19:20:59.206Z</time>
      </trkpt>
      <trkpt lat="45.63012" lon="6.56201">
        <ele>1904.66</ele>
        <time>2024-07-21T19:21:17.193Z</time>
      </trkpt>
      <trkpt lat="45.63" lon="6.56186">
        <ele>1911.47</ele>
        <time>2024-07-21T19:21:35.201Z</time>
      </trkpt>
      <trkpt lat="45.62995" lon="6.56178">
        <ele>1913.63</ele>
        <time>2024-07-21T19:21:53.219Z</time>
      </trkpt>
      <trkpt lat="45.62997" lon="6.5617">
        <ele>1915.52</ele>
        <time>2024-07-21T19:22:11.244Z</time>
      </trkpt>
      <trkpt lat="45.6299" lon="6.56166">
        <ele>1916.43</ele>
        <time>2024-07-21T19:22:29.278Z</time>
      </trkpt>
      <trkpt lat="45.62976" lon="6.56144">
        <ele>1920.29</ele>
        <time>2024-07-21T19:22:47.340Z</time>
      </trkpt>
      <trkpt lat="45.62973" lon="6.56133">
        <ele>1922.21</ele>
        <time>2024-07-21T19:23:05.413Z</time>
      </trkpt>
      <trkpt lat="45.62969" lon="6.56125">
        <ele>1923.24</ele>
        <time>2024-07-21T19:23:23.495Z</time>
      </trkpt>
      <trkpt lat="45.62947" lon="6.56076">
        <ele>1933.04</ele>
        <time>2024-07-21T19:23:41.632Z</time>
      </trkpt>
      <trkpt lat="45.62927" lon="6.56055">
        <ele>1939.03</ele>
        <time>2024-07-21T19:23:59.802Z</time>
      </trkpt>
      <trkpt lat="45.6292" lon="6.56045">
        <ele>1942.59</ele>
        <time>2024-07-21T19:24:17.985Z</time>
      </trkpt>
      <trkpt lat="45.62919" lon="6.56037">
        <ele>1944.9</ele>
        <time>2024-07-21T19:24:36.175Z</time>
      </trkpt>
      <trkpt lat="45.62904" lon="6.5601">
        <ele>1952.83</ele>
        <time>2024-07-21T19:24:54.397Z</time>
      </trkpt>
      <trkpt lat="45.62892" lon="6.56006">
        <ele>1955.19</ele>
        <time>2024-07-21T19:25:12.636Z</time>
      </trkpt>
      <trkpt lat="45.62886" lon="6.56">
        <ele>1957.28</ele>
        <time>2024-07-21T19:25:30.885Z</time>
      </trkpt>
      <trkpt lat="45.62878" lon="6.55999">
        <ele>1958.57</ele>
        <time>2024-07-21T19:25:49.144Z</time>
      </trkpt>
      <trkpt lat="45.62873" lon="6.55988">
        <ele>1961.28</ele>
        <time>2024-07-21T19:26:07.416Z</time>
      </trkpt>
      <trkpt lat="45.62828" lon="6.55977">
        <ele>1971.32</ele>
        <time>2024-07-21T19:26:25.749Z</time>
      </trkpt>
      <trkpt lat="45.62823" lon="6.55972">
        <ele>1973.34</ele>
        <time>2024-07-21T19:26:44.090Z</time>
      </trkpt>
      <trkpt lat="45.62819" lon="6.55961">
        <ele>1975.32</ele>
        <time>2024-07-21T19:27:02.442Z</time>
      </trkpt>
      <trkpt lat="45.62796" lon="6.55951">
        <ele>1981.06</ele>
        <time>2024-07-21T19:27:20.827Z</time>
      </trkpt>
      <trkpt lat="45.62793" lon="6.55946">
        <ele>1982.57</ele>
        <time>2024-07-21T19:27:39.219Z</time>
      </trkpt>
      <trkpt lat="45.62788" lon="6.55948">
        <ele>1983.17</ele>
        <time>2024-07-21T19:27:57.617Z</time>
      </trkpt>
      <trkpt lat="45.62783" lon="6.55945">
        <ele>1984.75</ele>
        <time>2024-07-21T19:28:16.022Z</time>
      </trkpt>
      <trkpt lat="45.62779" lon="6.55936">
        <ele>1987.03</ele>
        <time>2024-07-21T19:28:34.437Z</time>
      </trkpt>
      <trkpt lat="45.62779" lon="6.55929">
        <ele>1987.84</ele>
        <time>2024-07-21T19:28:52.859Z</time>
      </trkpt>
      <trkpt lat="45.62775" lon="6.55901">
        <ele>1992.42</ele>
        <time>2024-07-21T19:29:11.308Z</time>
      </trkpt>
      <trkpt lat="45.62767" lon="6.55901">
        <ele>1996.04</ele>
        <time>2024-07-21T19:29:29.768Z</time>
      </trkpt>
      <trkpt lat="45.62751" lon="6.55887">
        <ele>2004.01</ele>
        <time>2024-07-21T19:29:48.253Z</time>
      </trkpt>
      <trkpt lat="45.62741" lon="6.55867">
        <ele>2008.71</ele>
        <time>2024-07-21T19:30:06.761Z</time>
      </trkpt>
      <trkpt lat="45.62728" lon="6.55826">
        <ele>2013.47</ele>
        <time>2024-07-21T19:30:25.311Z</time>
      </trkpt>
      <trkpt lat="45.62707" lon="6.55801">
        <ele>2021.86</ele>
        <time>2024-07-21T19:30:43.898Z</time>
      </trkpt>
      <trkpt lat="45.62692" lon="6.55786">
        <ele>2027.22</ele>
        <time>2024-07-21T19:31:02.509Z</time>
      </trkpt>
      <trkpt lat="45.62689" lon="6.55771">
        <ele>2029.86</ele>
        <time>2024-07-21T19:31:21.135Z</time>
      </trkpt>
      <trkpt lat="45.62683" lon="6.55758">
        <ele>2032.55</ele>
        <time>2024-07-21T19:31:39.775Z</time>
      </trkpt>
      <trkpt lat="45.62675" lon="6.55744">
        <ele>2035.57</ele>
        <time>2024-07-21T19:31:58.432Z</time>
      </trkpt>
      <trkpt lat="45.62667" lon="6.55738">
        <ele>2037.4</ele>
        <time>2024-07-21T19:32:17.101Z</time>
      </trkpt>
      <trkpt lat="45.62657" lon="6.55722">
        <ele>2042.11</ele>
        <time>2024-07-21T19:32:35.790Z</time>
      </trkpt>
      <trkpt lat="45.62634" lon="6.55664">
        <ele>2058.79</ele>
        <time>2024-07-21T19:32:54.542Z</time>
      </trkpt>
      <trkpt lat="45.62617" lon="6.55649">
        <ele>2066.69</ele>
        <time>2024-07-21T19:33:13.321Z</time>
      </trkpt>
      <trkpt lat="45.62595" lon="6.55635">
        <ele>2068.83</ele>
        <time>2024-07-21T19:33:32.131Z</time>
      </trkpt>
      <trkpt lat="45.62579" lon="6.55619">
        <ele>2072.78</ele>
        <time>2024-07-21T19:33:50.967Z</time>
      </trkpt>
      <trkpt lat="45.62548" lon="6.55581">
        <ele>2084.47</ele>
        <time>2024-07-21T19:34:09.858Z</time>
      </trkpt>
      <trkpt lat="45.62492" lon="6.55499">
        <ele>2108.63</ele>
        <time>2024-07-21T19:34:28.856Z</time>
      </trkpt>
      <trkpt lat="45.62434" lon="6.55442">
        <ele>2116</ele>
        <time>2024-07-21T19:34:47.948Z</time>
      </trkpt>
      <trkpt lat="45.62443" lon="6.55429">
        <ele>2118.58</ele>
        <time>2024-07-21T19:35:07.056Z</time>
      </trkpt>
      <trkpt lat="45.62459" lon="6.55418">
        <ele>2124.35</ele>
        <time>2024-07-21T19:35:26.188Z</time>
      </trkpt>
      <trkpt lat="45.62542" lon="6.55428">
        <ele>2142.7</ele>
        <time>2024-07-21T19:35:45.431Z</time>
      </trkpt>
      <trkpt lat="45.62541" lon="6.55413">
        <ele>2146.09</ele>
        <time>2024-07-21T19:36:04.688Z</time>
      </trkpt>
      <trkpt lat="45.62512" lon="6.55376">
        <ele>2144.31</ele>
        <time>2024-07-21T19:36:23.996Z</time>
      </trkpt>
      <trkpt lat="45.62507" lon="6.55353">
        <ele>2146.51</ele>
        <time>2024-07-21T19:36:43.327Z</time>
      </trkpt>
      <trkpt lat="45.62509" lon="6.55333">
        <ele>2150.81</ele>
        <time>2024-07-21T19:37:02.676Z</time>
      </trkpt>
      <trkpt lat="45.62527" lon="6.55325">
        <ele>2160.24</ele>
        <time>2024-07-21T19:37:22.050Z</time>
      </trkpt>
      <trkpt lat="45.62545" lon="6.55308">
        <ele>2174.69</ele>
        <time>2024-07-21T19:37:41.453Z</time>
      </trkpt>
      <trkpt lat="45.62572" lon="6.55324">
        <ele>2179.63</ele>
        <time>2024-07-21T19:38:00.895Z</time>
      </trkpt>
      <trkpt lat="45.62678" lon="6.55313">
        <ele>2215.71</ele>
        <time>2024-07-21T19:38:20.479Z</time>
      </trkpt>
      <trkpt lat="45.6267" lon="6.55253">
        <ele>2239.41</ele>
        <time>2024-07-21T19:38:40.120Z</time>
      </trkpt>
      <trkpt lat="45.62697" lon="6.55253">
        <ele>2246.93</ele>
        <time>2024-07-21T19:38:59.796Z</time>
      </trkpt>
      <trkpt lat="45.62695" lon="6.55215">
        <ele>2262.71</ele>
        <time>2024-07-21T19:39:19.508Z</time>
      </trkpt>
      <trkpt lat="45.62756" lon="6.5523">
        <ele>2271.6</ele>
        <time>2024-07-21T19:39:39.303Z</time>
      </trkpt>
      <trkpt lat="45.62823" lon="6.55277">
        <ele>2270.06</ele>
        <time>2024-07-21T19:39:59.196Z</time>
      </trkpt>
      <trkpt lat="45.62882" lon="6.55307">
        <ele>2278.37</ele>
        <time>2024-07-21T19:40:19.173Z</time>
      </trkpt>
      <trkpt lat="45.62927" lon="6.55273">
        <ele>2302.65</ele>
        <time>2024-07-21T19:40:39.217Z</time>
      </trkpt>
      <trkpt lat="45.62945" lon="6.55243">
        <ele>2309.17</ele>
        <time>2024-07-21T19:40:59.299Z</time>
      </trkpt>
      <trkpt lat="45.62945" lon="6.55243">
        <ele>2309.17</ele>
        <time>2024-07-21T19:41:19.381Z</time>
      </trkpt>
      <trkpt lat="45.62972" lon="6.55201">
        <ele>2317.31</ele>
        <time>2024-07-21T19:41:39.516Z</time>
      </trkpt>
      <trkpt lat="45.63003" lon="6.55218">
        <ele>2320.32</ele>
        <time>2024-07-21T19:41:59.695Z</time>
      </trkpt>
      <trkpt lat="45.63028" lon="6.55207">
        <ele>2326.39</ele>
        <time>2024-07-21T19:42:19.908Z</time>
      </trkpt>
      <trkpt lat="45.63031" lon="6.55175">
        <ele>2334</ele>
        <time>2024-07-21T19:42:40.152Z</time>
      </trkpt>
      <trkpt lat="45.63063" lon="6.5516">
        <ele>2352.79</ele>
        <time>2024-07-21T19:43:00.441Z</time>
      </trkpt>
      <trkpt lat="45.63073" lon="6.55157">
        <ele>2356.91</ele>
        <time>2024-07-21T19:43:20.744Z</time>
      </trkpt>
      <trkpt lat="45.63112" lon="6.55147">
        <ele>2362.16</ele>
        <time>2024-07-21T19:43:41.100Z</time>
      </trkpt>
      <trkpt lat="45.63178" lon="6.55138">
        <ele>2376.74</ele>
        <time>2024-07-21T19:44:01.543Z</time>
      </trkpt>
      <trkpt lat="45.63226" lon="6.55092">
        <ele>2408.87</ele>
        <time>2024-07-21T19:44:22.064Z</time>
      </trkpt>
      <trkpt lat="45.63264" lon="6.54989">
        <ele>2433.39</ele>
        <time>2024-07-21T19:44:42.694Z</time>
      </trkpt>
      <trkpt lat="45.63295" lon="6.54954">
        <ele>2438.99</ele>
        <time>2024-07-21T19:45:03.377Z</time>
      </trkpt>
      <trkpt lat="45.63392" lon="6.54951">
        <ele>2424.05</ele>
        <time>2024-07-21T19:45:24.190Z</time>
      </trkpt>
      <trkpt lat="45.63415" lon="6.54913">
        <ele>2424.74</ele>
        <time>2024-07-21T19:45:45.050Z</time>
      </trkpt>
      <trkpt lat="45.63432" lon="6.54924">
        <ele>2423.2</ele>
        <time>2024-07-21T19:46:05.935Z</time>
      </trkpt>
      <trkpt lat="45.63444" lon="6.54933">
        <ele>2421.81</ele>
        <time>2024-07-21T19:46:26.838Z</time>
      </trkpt>
      <trkpt lat="45.63455" lon="6.54953">
        <ele>2418.13</ele>
        <time>2024-07-21T19:46:47.764Z</time>
      </trkpt>
      <trkpt lat="45.63474" lon="6.54961">
        <ele>2415.59</ele>
        <time>2024-07-21T19:47:08.717Z</time>
      </trkpt>
      <trkpt lat="45.63505" lon="6.54983">
        <ele>2412.77</ele>
        <time>2024-07-21T19:47:29.716Z</time>
      </trkpt>
      <trkpt lat="45.63508" lon="6.54994">
        <ele>2408.51</ele>
        <time>2024-07-21T19:47:50.727Z</time>
      </trkpt>
      <trkpt lat="45.63536" lon="6.55004">
        <ele>2404.91</ele>
        <time>2024-07-21T19:48:11.776Z</time>
      </trkpt>
      <trkpt lat="45.63566" lon="6.55041">
        <ele>2391.6</ele>
        <time>2024-07-21T19:48:32.878Z</time>
      </trkpt>
      <trkpt lat="45.63588" lon="6.55045">
        <ele>2391.22</ele>
        <time>2024-07-21T19:48:54.009Z</time>
      </trkpt>
      <trkpt lat="45.63633" lon="6.55053">
        <ele>2380.19</ele>
        <time>2024-07-21T19:49:15.200Z</time>
      </trkpt>
      <trkpt lat="45.6365" lon="6.55082">
        <ele>2370.82</ele>
        <time>2024-07-21T19:49:36.427Z</time>
      </trkpt>
      <trkpt lat="45.63664" lon="6.55082">
        <ele>2367.77</ele>
        <time>2024-07-21T19:49:57.672Z</time>
      </trkpt>
      <trkpt lat="45.63675" lon="6.55073">
        <ele>2364.25</ele>
        <time>2024-07-21T19:50:18.934Z</time>
      </trkpt>
      <trkpt lat="45.63695" lon="6.55071">
        <ele>2358.95</ele>
        <time>2024-07-21T19:50:40.224Z</time>
      </trkpt>
      <trkpt lat="45.63722" lon="6.55102">
        <ele>2363.65</ele>
        <time>2024-07-21T19:51:01.560Z</time>
      </trkpt>
      <trkpt lat="45.63733" lon="6.55107">
        <ele>2363.87</ele>
        <time>2024-07-21T19:51:22.911Z</time>
      </trkpt>
      <trkpt lat="45.63755" lon="6.5511">
        <ele>2361.24</ele>
        <time>2024-07-21T19:51:44.292Z</time>
      </trkpt>
      <trkpt lat="45.63771" lon="6.55093">
        <ele>2354.72</ele>
        <time>2024-07-21T19:52:05.700Z</time>
      </trkpt>
      <trkpt lat="45.63809" lon="6.5506">
        <ele>2344.49</ele>
        <time>2024-07-21T19:52:27.167Z</time>
      </trkpt>
      <trkpt lat="45.63827" lon="6.55037">
        <ele>2335.25</ele>
        <time>2024-07-21T19:52:48.666Z</time>
      </trkpt>
      <trkpt lat="45.63844" lon="6.55027">
        <ele>2330.75</ele>
        <time>2024-07-21T19:53:10.190Z</time>
      </trkpt>
      <trkpt lat="45.63848" lon="6.55024">
        <ele>2329.82</ele>
        <time>2024-07-21T19:53:31.720Z</time>
      </trkpt>
      <trkpt lat="45.63861" lon="6.55022">
        <ele>2328.5</ele>
        <time>2024-07-21T19:53:53.267Z</time>
      </trkpt>
      <trkpt lat="45.63885" lon="6.55032">
        <ele>2330.19</ele>
        <time>2024-07-21T19:54:14.847Z</time>
      </trkpt>
      <trkpt lat="45.63907" lon="6.55046">
        <ele>2329.11</ele>
        <time>2024-07-21T19:54:36.460Z</time>
      </trkpt>
      <trkpt lat="45.63919" lon="6.55052">
        <ele>2328.1</ele>
        <time>2024-07-21T19:54:58.090Z</time>
      </trkpt>
      <trkpt lat="45.63926" lon="6.55065">
        <ele>2325.37</ele>
        <time>2024-07-21T19:55:19.735Z</time>
      </trkpt>
      <trkpt lat="45.63936" lon="6.55075">
        <ele>2320.9</ele>
        <time>2024-07-21T19:55:41.397Z</time>
      </trkpt>
      <trkpt lat="45.63943" lon="6.55073">
        <ele>2319.34</ele>
        <time>2024-07-21T19:56:03.067Z</time>
      </trkpt>
      <trkpt lat="45.63946" lon="6.55068">
        <ele>2318.97</ele>
        <time>2024-07-21T19:56:24.743Z</time>
      </trkpt>
      <trkpt lat="45.63956" lon="6.55054">
        <ele>2318.4</ele>
        <time>2024-07-21T19:56:46.438Z</time>
      </trkpt>
      <trkpt lat="45.63969" lon="6.55054">
        <ele>2315.6</ele>
        <time>2024-07-21T19:57:08.150Z</time>
      </trkpt>
      <trkpt lat="45.63985" lon="6.55062">
        <ele>2312.92</ele>
        <time>2024-07-21T19:57:29.884Z</time>
      </trkpt>
      <trkpt lat="45.64008" lon="6.55076">
        <ele>2309.9</ele>
        <time>2024-07-21T19:57:51.652Z</time>
      </trkpt>
      <trkpt lat="45.64031" lon="6.55078">
        <ele>2309.87</ele>
        <time>2024-07-21T19:58:13.451Z</time>
      </trkpt>
      <trkpt lat="45.64041" lon="6.55078">
        <ele>2308.51</ele>
        <time>2024-07-21T19:58:35.264Z</time>
      </trkpt>
      <trkpt lat="45.64072" lon="6.55116">
        <ele>2295.11</ele>
        <time>2024-07-21T19:58:57.130Z</time>
      </trkpt>
      <trkpt lat="45.64072" lon="6.55116">
        <ele>2295.11</ele>
        <time>2024-07-21T19:59:18.996Z</time>
      </trkpt>
      <trkpt lat="45.64098" lon="6.55146">
        <ele>2286.46</ele>
        <time>2024-07-21T19:59:40.908Z</time>
      </trkpt>
      <trkpt lat="45.64154" lon="6.55224">
        <ele>2263.94</ele>
        <time>2024-07-21T20:00:02.924Z</time>
      </trkpt>
      <trkpt lat="45.64176" lon="6.55257">
        <ele>2256.82</ele>
        <time>2024-07-21T20:00:24.982Z</time>
      </trkpt>
      <trkpt lat="45.64196" lon="6.5527">
        <ele>2253.48</ele>
        <time>2024-07-21T20:00:47.070Z</time>
      </trkpt>
      <trkpt lat="45.64202" lon="6.55281">
        <ele>2251.77</ele>
        <time>2024-07-21T20:01:09.171Z</time>
      </trkpt>
      <trkpt lat="45.64202" lon="6.55281">
        <ele>2251.77</ele>
        <time>2024-07-21T20:01:31.272Z</time>
      </trkpt>
      <trkpt lat="45.6424" lon="6.55344">
        <ele>2239.35</ele>
        <time>2024-07-21T20:01:53.451Z</time>
      </trkpt>
      <trkpt lat="45.64249" lon="6.55356">
        <ele>2234.68</ele>
        <time>2024-07-21T20:02:15.646Z</time>
      </trkpt>
      <trkpt lat="45.64303" lon="6.55397">
        <ele>2224.45</ele>
        <time>2024-07-21T20:02:37.923Z</time>
      </trkpt>
      <trkpt lat="45.64343" lon="6.55418">
        <ele>2219.19</ele>
        <time>2024-07-21T20:03:00.257Z</time>
      </trkpt>
      <trkpt lat="45.64369" lon="6.55421">
        <ele>2214.43</ele>
        <time>2024-07-21T20:03:22.625Z</time>
      </trkpt>
      <trkpt lat="45.64389" lon="6.55415">
        <ele>2207.38</ele>
        <time>2024-07-21T20:03:45.021Z</time>
      </trkpt>
      <trkpt lat="45.64393" lon="6.55417">
        <ele>2206.21</ele>
        <time>2024-07-21T20:04:07.423Z</time>
      </trkpt>
      <trkpt lat="45.64404" lon="6.55419">
        <ele>2205.02</ele>
        <time>2024-07-21T20:04:29.839Z</time>
      </trkpt>
      <trkpt lat="45.64428" lon="6.55425">
        <ele>2202.11</ele>
        <time>2024-07-21T20:04:52.287Z</time>
      </trkpt>
      <trkpt lat="45.64472" lon="6.55431">
        <ele>2197.54</ele>
        <time>2024-07-21T20:05:14.794Z</time>
      </trkpt>
      <trkpt lat="45.64501" lon="6.55466">
        <ele>2189.27</ele>
        <time>2024-07-21T20:05:37.352Z</time>
      </trkpt>
      <trkpt lat="45.64504" lon="6.55477">
        <ele>2187.26</ele>
        <time>2024-07-21T20:05:59.921Z</time>
      </trkpt>
      <trkpt lat="45.64511" lon="6.55504">
        <ele>2182.18</ele>
        <time>2024-07-21T20:06:22.517Z</time>
      </trkpt>
      <trkpt lat="45.64531" lon="6.55549">
        <ele>2174.22</ele>
        <time>2024-07-21T20:06:45.163Z</time>
      </trkpt>
      <trkpt lat="45.64546" lon="6.55618">
        <ele>2159.53</ele>
        <time>2024-07-21T20:07:07.876Z</time>
      </trkpt>
      <trkpt lat="45.64555" lon="6.55638">
        <ele>2152.83</ele>
        <time>2024-07-21T20:07:30.612Z</time>
      </trkpt>
      <trkpt lat="45.64571" lon="6.55663">
        <ele>2144.81</ele>
        <time>2024-07-21T20:07:53.379Z</time>
      </trkpt>
      <trkpt lat="45.64592" lon="6.55685">
        <ele>2140.07</ele>
        <time>2024-07-21T20:08:16.181Z</time>
      </trkpt>
      <trkpt lat="45.64606" lon="6.55707">
        <ele>2136.85</ele>
        <time>2024-07-21T20:08:39.010Z</time>
      </trkpt>
      <trkpt lat="45.64625" lon="6.55729">
        <ele>2133.14</ele>
        <time>2024-07-21T20:09:01.872Z</time>
      </trkpt>
      <trkpt lat="45.64664" lon="6.5579">
        <ele>2121.8</ele>
        <time>2024-07-21T20:09:24.811Z</time>
      </trkpt>
      <trkpt lat="45.64668" lon="6.55811">
        <ele>2116.47</ele>
        <time>2024-07-21T20:09:47.770Z</time>
      </trkpt>
      <trkpt lat="45.64686" lon="6.55817">
        <ele>2115.47</ele>
        <time>2024-07-21T20:10:10.754Z</time>
      </trkpt>
      <trkpt lat="45.6473" lon="6.55836">
        <ele>2111.83</ele>
        <time>2024-07-21T20:10:33.800Z</time>
      </trkpt>
      <trkpt lat="45.64738" lon="6.55843">
        <ele>2109.67</ele>
        <time>2024-07-21T20:10:56.858Z</time>
      </trkpt>
      <trkpt lat="45.64749" lon="6.55866">
        <ele>2102.36</ele>
        <time>2024-07-21T20:11:19.941Z</time>
      </trkpt>
      <trkpt lat="45.64757" lon="6.55879">
        <ele>2099.61</ele>
        <time>2024-07-21T20:11:43.042Z</time>
      </trkpt>
      <trkpt lat="45.64752" lon="6.55877">
        <ele>2099.62</ele>
        <time>2024-07-21T20:12:06.149Z</time>
      </trkpt>
      <trkpt lat="45.64757" lon="6.55879">
        <ele>2099.61</ele>
        <time>2024-07-21T20:12:29.263Z</time>
      </trkpt>
      <trkpt lat="45.64784" lon="6.55897">
        <ele>2098.51</ele>
        <time>2024-07-21T20:12:52.416Z</time>
      </trkpt>
      <trkpt lat="45.64795" lon="6.55898">
        <ele>2099.75</ele>
        <time>2024-07-21T20:13:15.583Z</time>
      </trkpt>
      <trkpt lat="45.64834" lon="6.55898">
        <ele>2103.17</ele>
        <time>2024-07-21T20:13:38.803Z</time>
      </trkpt>
      <trkpt lat="45.64844" lon="6.55897">
        <ele>2104.63</ele>
        <time>2024-07-21T20:14:02.036Z</time>
      </trkpt>
      <trkpt lat="45.64854" lon="6.55891">
        <ele>2104.71</ele>
        <time>2024-07-21T20:14:25.283Z</time>
      </trkpt>
      <trkpt lat="45.64877" lon="6.55896">
        <ele>2102.76</ele>
        <time>2024-07-21T20:14:48.562Z</time>
      </trkpt>
      <trkpt lat="45.64893" lon="6.55902">
        <ele>2101.12</ele>
        <time>2024-07-21T20:15:11.863Z</time>
      </trkpt>
      <trkpt lat="45.64902" lon="6.55903">
        <ele>2099.78</ele>
        <time>2024-07-21T20:15:35.175Z</time>
      </trkpt>
      <trkpt lat="45.64927" lon="6.55903">
        <ele>2094.35</ele>
        <time>2024-07-21T20:15:58.520Z</time>
      </trkpt>
      <trkpt lat="45.64945" lon="6.55906">
        <ele>2089.67</ele>
        <time>2024-07-21T20:16:21.890Z</time>
      </trkpt>
      <trkpt lat="45.64958" lon="6.55913">
        <ele>2085.08</ele>
        <time>2024-07-21T20:16:45.278Z</time>
      </trkpt>
      <trkpt lat="45.6498" lon="6.55939">
        <ele>2075.97</ele>
        <time>2024-07-21T20:17:08.705Z</time>
      </trkpt>
      <trkpt lat="45.64995" lon="6.55952">
        <ele>2074.2</ele>
        <time>2024-07-21T20:17:32.156Z</time>
      </trkpt>
      <trkpt lat="45.65023" lon="6.5597">
        <ele>2072.66</ele>
        <time>2024-07-21T20:17:55.647Z</time>
      </trkpt>
      <trkpt lat="45.65069" lon="6.5599">
        <ele>2062.63</ele>
        <time>2024-07-21T20:18:19.202Z</time>
      </trkpt>
      <trkpt lat="45.65092" lon="6.56003">
        <ele>2060.08</ele>
        <time>2024-07-21T20:18:42.790Z</time>
      </trkpt>
      <trkpt lat="45.65062" lon="6.55965">
        <ele>2062.29</ele>
        <time>2024-07-21T20:19:06.431Z</time>
      </trkpt>
      <trkpt lat="45.65056" lon="6.55951">
        <ele>2061.66</ele>
        <time>2024-07-21T20:19:30.087Z</time>
      </trkpt>
      <trkpt lat="45.65048" lon="6.55941">
        <ele>2062.63</ele>
        <time>2024-07-21T20:19:53.758Z</time>
      </trkpt>
      <trkpt lat="45.65041" lon="6.55941">
        <ele>2064.5</ele>
        <time>2024-07-21T20:20:17.438Z</time>
      </trkpt>
      <trkpt lat="45.65012" lon="6.55918">
        <ele>2068.21</ele>
        <time>2024-07-21T20:20:41.162Z</time>
      </trkpt>
      <trkpt lat="45.65001" lon="6.55898">
        <ele>2070.08</ele>
        <time>2024-07-21T20:21:04.911Z</time>
      </trkpt>
      <trkpt lat="45.65002" lon="6.55873">
        <ele>2069.07</ele>
        <time>2024-07-21T20:21:28.683Z</time>
      </trkpt>
      <trkpt lat="45.65" lon="6.55866">
        <ele>2070.06</ele>
        <time>2024-07-21T20:21:52.462Z</time>
      </trkpt>
      <trkpt lat="45.65" lon="6.5586">
        <ele>2070.06</ele>
        <time>2024-07-21T20:22:16.246Z</time>
      </trkpt>
      <trkpt lat="45.64996" lon="6.55855">
        <ele>2071.37</ele>
        <time>2024-07-21T20:22:40.037Z</time>
      </trkpt>
      <trkpt lat="45.64995" lon="6.55847">
        <ele>2071.41</ele>
        <time>2024-07-21T20:23:03.835Z</time>
      </trkpt>
      <trkpt lat="45.64995" lon="6.55837">
        <ele>2070.63</ele>
        <time>2024-07-21T20:23:27.643Z</time>
      </trkpt>
      <trkpt lat="45.64995" lon="6.55824">
        <ele>2070.03</ele>
        <time>2024-07-21T20:23:51.463Z</time>
      </trkpt>
      <trkpt lat="45.64997" lon="6.55813">
        <ele>2069.98</ele>
        <time>2024-07-21T20:24:15.294Z</time>
      </trkpt>
      <trkpt lat="45.65" lon="6.55794">
        <ele>2070.06</ele>
        <time>2024-07-21T20:24:39.143Z</time>
      </trkpt>
      <trkpt lat="45.64995" lon="6.55772">
        <ele>2071.87</ele>
        <time>2024-07-21T20:25:03.013Z</time>
      </trkpt>
      <trkpt lat="45.64995" lon="6.55757">
        <ele>2073.77</ele>
        <time>2024-07-21T20:25:26.897Z</time>
      </trkpt>
      <trkpt lat="45.64993" lon="6.55748">
        <ele>2075.13</ele>
        <time>2024-07-21T20:25:50.790Z</time>
      </trkpt>
      <trkpt lat="45.64989" lon="6.55744">
        <ele>2076.45</ele>
        <time>2024-07-21T20:26:14.690Z</time>
      </trkpt>
      <trkpt lat="45.64985" lon="6.55736">
        <ele>2077.65</ele>
        <time>2024-07-21T20:26:38.600Z</time>
      </trkpt>
      <trkpt lat="45.64983" lon="6.55729">
        <ele>2077.98</ele>
        <time>2024-07-21T20:27:02.516Z</time>
      </trkpt>
      <trkpt lat="45.6498" lon="6.55725">
        <ele>2078.86</ele>
        <time>2024-07-21T20:27:26.438Z</time>
      </trkpt>
      <trkpt lat="45.64976" lon="6.55715">
        <ele>2078.93</ele>
        <time>2024-07-21T20:27:50.370Z</time>
      </trkpt>
      <trkpt lat="45.64974" lon="6.55702">
        <ele>2078.39</ele>
        <time>2024-07-21T20:28:14.315Z</time>
      </trkpt>
      <trkpt lat="45.64973" lon="6.55687">
        <ele>2077.59</ele>
        <time>2024-07-21T20:28:38.274Z</time>
      </trkpt>
      <trkpt lat="45.64968" lon="6.55683">
        <ele>2079.4</ele>
        <time>2024-07-21T20:29:02.240Z</time>
      </trkpt>
      <trkpt lat="45.64967" lon="6.55672">
        <ele>2079.9</ele>
        <time>2024-07-21T20:29:26.216Z</time>
      </trkpt>
      <trkpt lat="45.64973" lon="6.55647">
        <ele>2076.31</ele>
        <time>2024-07-21T20:29:50.217Z</time>
      </trkpt>
      <trkpt lat="45.64971" lon="6.5564">
        <ele>2076.87</ele>
        <time>2024-07-21T20:30:14.225Z</time>
      </trkpt>
      <trkpt lat="45.6497" lon="6.55636">
        <ele>2077.72</ele>
        <time>2024-07-21T20:30:38.237Z</time>
      </trkpt>
      <trkpt lat="45.64973" lon="6.55604">
        <ele>2075.4</ele>
        <time>2024-07-21T20:31:02.279Z</time>
      </trkpt>
      <trkpt lat="45.6497" lon="6.55579">
        <ele>2079.88</ele>
        <time>2024-07-21T20:31:26.345Z</time>
      </trkpt>
      <trkpt lat="45.64966" lon="6.55572">
        <ele>2081.4</ele>
        <time>2024-07-21T20:31:50.419Z</time>
      </trkpt>
      <trkpt lat="45.64968" lon="6.55555">
        <ele>2076.98</ele>
        <time>2024-07-21T20:32:14.508Z</time>
      </trkpt>
      <trkpt lat="45.64966" lon="6.55548">
        <ele>2075.39</ele>
        <time>2024-07-21T20:32:38.605Z</time>
      </trkpt>
      <trkpt lat="45.6496" lon="6.55533">
        <ele>2074.63</ele>
        <time>2024-07-21T20:33:02.719Z</time>
      </trkpt>
      <trkpt lat="45.64956" lon="6.5553">
        <ele>2076.13</ele>
        <time>2024-07-21T20:33:26.839Z</time>
      </trkpt>
      <trkpt lat="45.64953" lon="6.55522">
        <ele>2075.07</ele>
        <time>2024-07-21T20:33:50.967Z</time>
      </trkpt>
      <trkpt lat="45.64944" lon="6.5551">
        <ele>2077.03</ele>
        <time>2024-07-21T20:34:15.112Z</time>
      </trkpt>
      <trkpt lat="45.64942" lon="6.55502">
        <ele>2075.52</ele>
        <time>2024-07-21T20:34:39.265Z</time>
      </trkpt>
      <trkpt lat="45.64935" lon="6.55491">
        <ele>2075.69</ele>
        <time>2024-07-21T20:35:03.431Z</time>
      </trkpt>
      <trkpt lat="45.64906" lon="6.55476">
        <ele>2085.98</ele>
        <time>2024-07-21T20:35:27.638Z</time>
      </trkpt>
      <trkpt lat="45.64899" lon="6.55463">
        <ele>2085.36</ele>
        <time>2024-07-21T20:35:51.861Z</time>
      </trkpt>
      <trkpt lat="45.64888" lon="6.55452">
        <ele>2086.15</ele>
        <time>2024-07-21T20:36:16.102Z</time>
      </trkpt>
      <trkpt lat="45.64885" lon="6.55446">
        <ele>2084.94</ele>
        <time>2024-07-21T20:36:40.350Z</time>
      </trkpt>
      <trkpt lat="45.64885" lon="6.55441">
        <ele>2081.88</ele>
        <time>2024-07-21T20:37:04.603Z</time>
      </trkpt>
      <trkpt lat="45.64873" lon="6.55415">
        <ele>2071.42</ele>
        <time>2024-07-21T20:37:28.885Z</time>
      </trkpt>
      <trkpt lat="45.64872" lon="6.55404">
        <ele>2063.99</ele>
        <time>2024-07-21T20:37:53.177Z</time>
      </trkpt>
      <trkpt lat="45.64857" lon="6.55398">
        <ele>2063.17</ele>
        <time>2024-07-21T20:38:17.490Z</time>
      </trkpt>
      <trkpt lat="45.64853" lon="6.55396">
        <ele>2062.5</ele>
        <time>2024-07-21T20:38:41.809Z</time>
      </trkpt>
      <trkpt lat="45.64852" lon="6.5539">
        <ele>2058.91</ele>
        <time>2024-07-21T20:39:06.133Z</time>
      </trkpt>
      <trkpt lat="45.64838" lon="6.55386">
        <ele>2059.25</ele>
        <time>2024-07-21T20:39:30.476Z</time>
      </trkpt>
      <trkpt lat="45.64819" lon="6.55386">
        <ele>2061.39</ele>
        <time>2024-07-21T20:39:54.843Z</time>
      </trkpt>
      <trkpt lat="45.64817" lon="6.55381">
        <ele>2059.25</ele>
        <time>2024-07-21T20:40:19.216Z</time>
      </trkpt>
      <trkpt lat="45.64804" lon="6.55369">
        <ele>2055.42</ele>
        <time>2024-07-21T20:40:43.610Z</time>
      </trkpt>
      <trkpt lat="45.64775" lon="6.55333">
        <ele>2046.06</ele>
        <time>2024-07-21T20:41:08.054Z</time>
      </trkpt>
      <trkpt lat="45.64759" lon="6.55321">
        <ele>2045.1</ele>
        <time>2024-07-21T20:41:32.523Z</time>
      </trkpt>
      <trkpt lat="45.64744" lon="6.55273">
        <ele>2036.14</ele>
        <time>2024-07-21T20:41:57.041Z</time>
      </trkpt>
      <trkpt lat="45.64742" lon="6.55264">
        <ele>2035.98</ele>
        <time>2024-07-21T20:42:21.568Z</time>
      </trkpt>
      <trkpt lat="45.64738" lon="6.55257">
        <ele>2037.49</ele>
        <time>2024-07-21T20:42:46.103Z</time>
      </trkpt>
      <trkpt lat="45.64731" lon="6.55237">
        <ele>2038.82</ele>
        <time>2024-07-21T20:43:10.659Z</time>
      </trkpt>
      <trkpt lat="45.64731" lon="6.5521">
        <ele>2035.56</ele>
        <time>2024-07-21T20:43:35.240Z</time>
      </trkpt>
      <trkpt lat="45.64732" lon="6.55191">
        <ele>2033.54</ele>
        <time>2024-07-21T20:43:59.839Z</time>
      </trkpt>
      <trkpt lat="45.64725" lon="6.55131">
        <ele>2030.91</ele>
        <time>2024-07-21T20:44:24.496Z</time>
      </trkpt>
      <trkpt lat="45.64716" lon="6.55103">
        <ele>2032.43</ele>
        <time>2024-07-21T20:44:49.181Z</time>
      </trkpt>
      <trkpt lat="45.64711" lon="6.55062">
        <ele>2031.02</ele>
        <time>2024-07-21T20:45:13.905Z</time>
      </trkpt>
      <trkpt lat="45.64705" lon="6.5505">
        <ele>2033.79</ele>
        <time>2024-07-21T20:45:38.643Z</time>
      </trkpt>
      <trkpt lat="45.64702" lon="6.55032">
        <ele>2031.83</ele>
        <time>2024-07-21T20:46:03.398Z</time>
      </trkpt>
      <trkpt lat="45.64702" lon="6.55015">
        <ele>2030.69</ele>
        <time>2024-07-21T20:46:28.169Z</time>
      </trkpt>
      <trkpt lat="45.64698" lon="6.54987">
        <ele>2029.76</ele>
        <time>2024-07-21T20:46:52.967Z</time>
      </trkpt>
      <trkpt lat="45.64694" lon="6.54983">
        <ele>2032.16</ele>
        <time>2024-07-21T20:47:17.772Z</time>
      </trkpt>
      <trkpt lat="45.64682" lon="6.54948">
        <ele>2034</ele>
        <time>2024-07-21T20:47:42.613Z</time>
      </trkpt>
      <trkpt lat="45.64665" lon="6.54913">
        <ele>2039.12</ele>
        <time>2024-07-21T20:48:07.494Z</time>
      </trkpt>
      <trkpt lat="45.64661" lon="6.54907">
        <ele>2040.98</ele>
        <time>2024-07-21T20:48:32.383Z</time>
      </trkpt>
      <trkpt lat="45.64644" lon="6.54882">
        <ele>2046.34</ele>
        <time>2024-07-21T20:48:57.304Z</time>
      </trkpt>
      <trkpt lat="45.64636" lon="6.5486">
        <ele>2044.86</ele>
        <time>2024-07-21T20:49:22.248Z</time>
      </trkpt>
      <trkpt lat="45.64631" lon="6.54853">
        <ele>2045.13</ele>
        <time>2024-07-21T20:49:47.202Z</time>
      </trkpt>
      <trkpt lat="45.64608" lon="6.5481">
        <ele>2047.41</ele>
        <time>2024-07-21T20:50:12.206Z</time>
      </trkpt>
      <trkpt lat="45.64597" lon="6.54797">
        <ele>2050.28</ele>
        <time>2024-07-21T20:50:37.229Z</time>
      </trkpt>
      <trkpt lat="45.64595" lon="6.54789">
        <ele>2050.18</ele>
        <time>2024-07-21T20:51:02.259Z</time>
      </trkpt>
      <trkpt lat="45.64574" lon="6.54748">
        <ele>2051.32</ele>
        <time>2024-07-21T20:51:27.338Z</time>
      </trkpt>
      <trkpt lat="45.64568" lon="6.54726">
        <ele>2049.13</ele>
        <time>2024-07-21T20:51:52.438Z</time>
      </trkpt>
      <trkpt lat="45.64561" lon="6.54712">
        <ele>2051.6</ele>
        <time>2024-07-21T20:52:17.555Z</time>
      </trkpt>
      <trkpt lat="45.64545" lon="6.5465">
        <ele>2055</ele>
        <time>2024-07-21T20:52:42.734Z</time>
      </trkpt>
      <trkpt lat="45.64545" lon="6.54641">
        <ele>2054.38</ele>
        <time>2024-07-21T20:53:07.921Z</time>
      </trkpt>
      <trkpt lat="45.64538" lon="6.54619">
        <ele>2054.62</ele>
        <time>2024-07-21T20:53:33.130Z</time>
      </trkpt>
      <trkpt lat="45.64537" lon="6.54595">
        <ele>2052.4</ele>
        <time>2024-07-21T20:53:58.362Z</time>
      </trkpt>
      <trkpt lat="45.6451" lon="6.54528">
        <ele>2051.9</ele>
        <time>2024-07-21T20:54:23.666Z</time>
      </trkpt>
      <trkpt lat="45.6451" lon="6.54516">
        <ele>2051.05</ele>
        <time>2024-07-21T20:54:48.981Z</time>
      </trkpt>
      <trkpt lat="45.64507" lon="6.54514">
        <ele>2050.89</ele>
        <time>2024-07-21T20:55:14.301Z</time>
      </trkpt>
      <trkpt lat="45.64507" lon="6.5451">
        <ele>2050.66</ele>
        <time>2024-07-21T20:55:39.624Z</time>
      </trkpt>
      <trkpt lat="45.64502" lon="6.54502">
        <ele>2049.89</ele>
        <time>2024-07-21T20:56:04.958Z</time>
      </trkpt>
      <trkpt lat="45.64496" lon="6.54499">
        <ele>2049.06</ele>
        <time>2024-07-21T20:56:30.300Z</time>
      </trkpt>
      <trkpt lat="45.64485" lon="6.54487">
        <ele>2046.52</ele>
        <time>2024-07-21T20:56:55.661Z</time>
      </trkpt>
      <trkpt lat="45.6448" lon="6.54487">
        <ele>2046.21</ele>
        <time>2024-07-21T20:57:21.028Z</time>
      </trkpt>
      <trkpt lat="45.64475" lon="6.5448">
        <ele>2044.75</ele>
        <time>2024-07-21T20:57:46.404Z</time>
      </trkpt>
      <trkpt lat="45.64471" lon="6.5447">
        <ele>2042.05</ele>
        <time>2024-07-21T20:58:11.791Z</time>
      </trkpt>
      <trkpt lat="45.64471" lon="6.54462">
        <ele>2040.98</ele>
        <time>2024-07-21T20:58:37.185Z</time>
      </trkpt>
      <trkpt lat="45.64465" lon="6.54451">
        <ele>2038.09</ele>
        <time>2024-07-21T20:59:02.592Z</time>
      </trkpt>
      <trkpt lat="45.64465" lon="6.5444">
        <ele>2036.6</ele>
        <time>2024-07-21T20:59:28.010Z</time>
      </trkpt>
      <trkpt lat="45.64449" lon="6.54409">
        <ele>2028.67</ele>
        <time>2024-07-21T20:59:53.464Z</time>
      </trkpt>
      <trkpt lat="45.64438" lon="6.54396">
        <ele>2024.9</ele>
        <time>2024-07-21T21:00:18.937Z</time>
      </trkpt>
      <trkpt lat="45.64434" lon="6.54392">
        <ele>2023.21</ele>
        <time>2024-07-21T21:00:44.416Z</time>
      </trkpt>
      <trkpt lat="45.64431" lon="6.54387">
        <ele>2022.3</ele>
        <time>2024-07-21T21:01:09.902Z</time>
      </trkpt>
      <trkpt lat="45.64421" lon="6.54381">
        <ele>2018.99</ele>
        <time>2024-07-21T21:01:35.402Z</time>
      </trkpt>
      <trkpt lat="45.64413" lon="6.5437">
        <ele>2016.58</ele>
        <time>2024-07-21T21:02:00.917Z</time>
      </trkpt>
      <trkpt lat="45.64406" lon="6.54343">
        <ele>2014.11</ele>
        <time>2024-07-21T21:02:26.459Z</time>
      </trkpt>
      <trkpt lat="45.64401" lon="6.54341">
        <ele>2012.65</ele>
        <time>2024-07-21T21:02:52.008Z</time>
      </trkpt>
      <trkpt lat="45.64393" lon="6.54333">
        <ele>2009.96</ele>
        <time>2024-07-21T21:03:17.569Z</time>
      </trkpt>
      <trkpt lat="45.64386" lon="6.5432">
        <ele>2007.38</ele>
        <time>2024-07-21T21:03:43.147Z</time>
      </trkpt>
      <trkpt lat="45.64384" lon="6.54293">
        <ele>2005.5</ele>
        <time>2024-07-21T21:04:08.750Z</time>
      </trkpt>
      <trkpt lat="45.64387" lon="6.54263">
        <ele>2006.76</ele>
        <time>2024-07-21T21:04:34.382Z</time>
      </trkpt>
      <trkpt lat="45.64392" lon="6.54255">
        <ele>2007.68</ele>
        <time>2024-07-21T21:05:00.024Z</time>
      </trkpt>
      <trkpt lat="45.64392" lon="6.54255">
        <ele>2007.68</ele>
        <time>2024-07-21T21:05:25.666Z</time>
      </trkpt>
      <trkpt lat="45.64421" lon="6.54239">
        <ele>2011.49</ele>
        <time>2024-07-21T21:05:51.349Z</time>
      </trkpt>
      <trkpt lat="45.64442" lon="6.54238">
        <ele>2012.52</ele>
        <time>2024-07-21T21:06:17.059Z</time>
      </trkpt>
      <trkpt lat="45.64461" lon="6.54229">
        <ele>2011.23</ele>
        <time>2024-07-21T21:06:42.796Z</time>
      </trkpt>
      <trkpt lat="45.64467" lon="6.5422">
        <ele>2008.28</ele>
        <time>2024-07-21T21:07:08.546Z</time>
      </trkpt>
      <trkpt lat="45.64472" lon="6.5421">
        <ele>2004.6</ele>
        <time>2024-07-21T21:07:34.306Z</time>
      </trkpt>
      <trkpt lat="45.64485" lon="6.54206">
        <ele>1999.53</ele>
        <time>2024-07-21T21:08:00.084Z</time>
      </trkpt>
      <trkpt lat="45.64506" lon="6.54158">
        <ele>1977.16</ele>
        <time>2024-07-21T21:08:25.915Z</time>
      </trkpt>
      <trkpt lat="45.64497" lon="6.54121">
        <ele>1972.76</ele>
        <time>2024-07-21T21:08:51.782Z</time>
      </trkpt>
      <trkpt lat="45.645" lon="6.54102">
        <ele>1969.57</ele>
        <time>2024-07-21T21:09:17.668Z</time>
      </trkpt>
      <trkpt lat="45.64496" lon="6.54053">
        <ele>1971.56</ele>
        <time>2024-07-21T21:09:43.599Z</time>
      </trkpt>
      <trkpt lat="45.64499" lon="6.54027">
        <ele>1971.95</ele>
        <time>2024-07-21T21:10:09.555Z</time>
      </trkpt>
      <trkpt lat="45.64496" lon="6.54009">
        <ele>1972.68</ele>
        <time>2024-07-21T21:10:35.528Z</time>
      </trkpt>
      <trkpt lat="45.64499" lon="6.54006">
        <ele>1972.18</ele>
        <time>2024-07-21T21:11:01.505Z</time>
      </trkpt>
      <trkpt lat="45.64499" lon="6.54001">
        <ele>1972.19</ele>
        <time>2024-07-21T21:11:27.487Z</time>
      </trkpt>
      <trkpt lat="45.64494" lon="6.53985">
        <ele>1973.68</ele>
        <time>2024-07-21T21:11:53.485Z</time>
      </trkpt>
      <trkpt lat="45.64503" lon="6.53967">
        <ele>1972.82</ele>
        <time>2024-07-21T21:12:19.504Z</time>
      </trkpt>
      <trkpt lat="45.64506" lon="6.53967">
        <ele>1972.1</ele>
        <time>2024-07-21T21:12:45.527Z</time>
      </trkpt>
      <trkpt lat="45.64516" lon="6.53959">
        <ele>1970.93</ele>
        <time>2024-07-21T21:13:11.564Z</time>
      </trkpt>
      <trkpt lat="45.6452" lon="6.53957">
        <ele>1970.33</ele>
        <time>2024-07-21T21:13:37.608Z</time>
      </trkpt>
      <trkpt lat="45.64524" lon="6.53953">
        <ele>1969.81</ele>
        <time>2024-07-21T21:14:03.659Z</time>
      </trkpt>
      <trkpt lat="45.64538" lon="6.53947">
        <ele>1968.41</ele>
        <time>2024-07-21T21:14:29.729Z</time>
      </trkpt>
      <trkpt lat="45.6454" lon="6.53944">
        <ele>1968.65</ele>
        <time>2024-07-21T21:14:55.803Z</time>
      </trkpt>
      <trkpt lat="45.6455" lon="6.53945">
        <ele>1967.77</ele>
        <time>2024-07-21T21:15:21.890Z</time>
      </trkpt>
      <trkpt lat="45.64552" lon="6.53944">
        <ele>1967.79</ele>
        <time>2024-07-21T21:15:47.980Z</time>
      </trkpt>
      <trkpt lat="45.64553" lon="6.53934">
        <ele>1969.47</ele>
        <time>2024-07-21T21:16:14.079Z</time>
      </trkpt>
      <trkpt lat="45.64556" lon="6.53934">
        <ele>1969.23</ele>
        <time>2024-07-21T21:16:40.182Z</time>
      </trkpt>
      <trkpt lat="45.64559" lon="6.53931">
        <ele>1969.64</ele>
        <time>2024-07-21T21:17:06.290Z</time>
      </trkpt>
      <trkpt lat="45.64564" lon="6.53931">
        <ele>1969.91</ele>
        <time>2024-07-21T21:17:32.405Z</time>
      </trkpt>
      <trkpt lat="45.64566" lon="6.53933">
        <ele>1969.66</ele>
        <time>2024-07-21T21:17:58.523Z</time>
      </trkpt>
      <trkpt lat="45.64573" lon="6.5393">
        <ele>1970.66</ele>
        <time>2024-07-21T21:18:24.650Z</time>
      </trkpt>
      <trkpt lat="45.64574" lon="6.53932">
        <ele>1970.41</ele>
        <time>2024-07-21T21:18:50.780Z</time>
      </trkpt>
      <trkpt lat="45.64581" lon="6.53933">
        <ele>1970.32</ele>
        <time>2024-07-21T21:19:16.920Z</time>
      </trkpt>
      <trkpt lat="45.64591" lon="6.5393">
        <ele>1970.66</ele>
        <time>2024-07-21T21:19:43.073Z</time>
      </trkpt>
      <trkpt lat="45.64597" lon="6.53934">
        <ele>1970.2</ele>
        <time>2024-07-21T21:20:09.235Z</time>
      </trkpt>
      <trkpt lat="45.64603" lon="6.53933">
        <ele>1970.32</ele>
        <time>2024-07-21T21:20:35.405Z</time>
      </trkpt>
      <trkpt lat="45.64608" lon="6.53937">
        <ele>1969.97</ele>
        <time>2024-07-21T21:21:01.582Z</time>
      </trkpt>
      <trkpt lat="45.64615" lon="6.53939">
        <ele>1969.74</ele>
        <time>2024-07-21T21:21:27.770Z</time>
      </trkpt>
      <trkpt lat="45.64628" lon="6.53939">
        <ele>1969.74</ele>
        <time>2024-07-21T21:21:53.975Z</time>
      </trkpt>
      <trkpt lat="45.64645" lon="6.53946">
        <ele>1968.46</ele>
        <time>2024-07-21T21:22:20.203Z</time>
      </trkpt>
      <trkpt lat="45.6465" lon="6.53948">
        <ele>1966.84</ele>
        <time>2024-07-21T21:22:46.438Z</time>
      </trkpt>
      <trkpt lat="45.64661" lon="6.53943">
        <ele>1965.9</ele>
        <time>2024-07-21T21:23:12.688Z</time>
      </trkpt>
      <trkpt lat="45.64664" lon="6.53944">
        <ele>1965.32</ele>
        <time>2024-07-21T21:23:38.942Z</time>
      </trkpt>
      <trkpt lat="45.64667" lon="6.53939">
        <ele>1964.89</ele>
        <time>2024-07-21T21:24:05.203Z</time>
      </trkpt>
      <trkpt lat="45.64671" lon="6.53937">
        <ele>1964.17</ele>
        <time>2024-07-21T21:24:31.470Z</time>
      </trkpt>
      <trkpt lat="45.64682" lon="6.53944">
        <ele>1961.21</ele>
        <time>2024-07-21T21:24:57.753Z</time>
      </trkpt>
      <trkpt lat="45.64692" lon="6.53947">
        <ele>1958.69</ele>
        <time>2024-07-21T21:25:24.049Z</time>
      </trkpt>
      <trkpt lat="45.64702" lon="6.53949">
        <ele>1956.72</ele>
        <time>2024-07-21T21:25:50.360Z</time>
      </trkpt>
      <trkpt lat="45.64711" lon="6.53954">
        <ele>1955.78</ele>
        <time>2024-07-21T21:26:16.683Z</time>
      </trkpt>
      <trkpt lat="45.64712" lon="6.53952">
        <ele>1955.47</ele>
        <time>2024-07-21T21:26:43.008Z</time>
      </trkpt>
      <trkpt lat="45.64715" lon="6.53957">
        <ele>1955.41</ele>
        <time>2024-07-21T21:27:09.340Z</time>
      </trkpt>
      <trkpt lat="45.64716" lon="6.53957">
        <ele>1955.25</ele>
        <time>2024-07-21T21:27:35.673Z</time>
      </trkpt>
      <trkpt lat="45.64718" lon="6.53956">
        <ele>1954.84</ele>
        <time>2024-07-21T21:28:02.009Z</time>
      </trkpt>
      <trkpt lat="45.64718" lon="6.53953">
        <ele>1954.61</ele>
        <time>2024-07-21T21:28:28.348Z</time>
      </trkpt>
      <trkpt lat="45.64723" lon="6.53953">
        <ele>1954.01</ele>
        <time>2024-07-21T21:28:54.693Z</time>
      </trkpt>
      <trkpt lat="45.64736" lon="6.53962">
        <ele>1952.83</ele>
        <time>2024-07-21T21:29:21.058Z</time>
      </trkpt>
      <trkpt lat="45.6474" lon="6.53962">
        <ele>1952.23</ele>
        <time>2024-07-21T21:29:47.428Z</time>
      </trkpt>
      <trkpt lat="45.64747" lon="6.53971">
        <ele>1951.75</ele>
        <time>2024-07-21T21:30:13.811Z</time>
      </trkpt>
      <trkpt lat="45.64759" lon="6.53974">
        <ele>1949.11</ele>
        <time>2024-07-21T21:30:40.210Z</time>
      </trkpt>
      <trkpt lat="45.64762" lon="6.53973">
        <ele>1947.64</ele>
        <time>2024-07-21T21:31:06.614Z</time>
      </trkpt>
      <trkpt lat="45.64769" lon="6.53976">
        <ele>1945.41</ele>
        <time>2024-07-21T21:31:33.027Z</time>
      </trkpt>
      <trkpt lat="45.64774" lon="6.53984">
        <ele>1944.11</ele>
        <time>2024-07-21T21:31:59.450Z</time>
      </trkpt>
      <trkpt lat="45.64798" lon="6.53992">
        <ele>1935.67</ele>
        <time>2024-07-21T21:32:25.905Z</time>
      </trkpt>
      <trkpt lat="45.64806" lon="6.54003">
        <ele>1933.37</ele>
        <time>2024-07-21T21:32:52.375Z</time>
      </trkpt>
      <trkpt lat="45.64809" lon="6.54008">
        <ele>1932.66</ele>
        <time>2024-07-21T21:33:18.851Z</time>
      </trkpt>
      <trkpt lat="45.64819" lon="6.54021">
        <ele>1930.98</ele>
        <time>2024-07-21T21:33:45.346Z</time>
      </trkpt>
      <trkpt lat="45.64827" lon="6.54027">
        <ele>1929.8</ele>
        <time>2024-07-21T21:34:11.852Z</time>
      </trkpt>
      <trkpt lat="45.64837" lon="6.54041">
        <ele>1928.59</ele>
        <time>2024-07-21T21:34:38.376Z</time>
      </trkpt>
      <trkpt lat="45.64846" lon="6.54046">
        <ele>1928.3</ele>
        <time>2024-07-21T21:35:04.914Z</time>
      </trkpt>
      <trkpt lat="45.64855" lon="6.54057">
        <ele>1928.37</ele>
        <time>2024-07-21T21:35:31.467Z</time>
      </trkpt>
      <trkpt lat="45.64867" lon="6.54065">
        <ele>1928.2</ele>
        <time>2024-07-21T21:35:58.038Z</time>
      </trkpt>
      <trkpt lat="45.64893" lon="6.54094">
        <ele>1927.67</ele>
        <time>2024-07-21T21:36:24.654Z</time>
      </trkpt>
      <trkpt lat="45.64903" lon="6.54094">
        <ele>1926.98</ele>
        <time>2024-07-21T21:36:51.283Z</time>
      </trkpt>
      <trkpt lat="45.64906" lon="6.54097">
        <ele>1926.94</ele>
        <time>2024-07-21T21:37:17.917Z</time>
      </trkpt>
      <trkpt lat="45.64922" lon="6.54096">
        <ele>1923.86</ele>
        <time>2024-07-21T21:37:44.573Z</time>
      </trkpt>
      <trkpt lat="45.64939" lon="6.54077">
        <ele>1917.03</ele>
        <time>2024-07-21T21:38:11.258Z</time>
      </trkpt>
      <trkpt lat="45.64892" lon="6.54013">
        <ele>1912.06</ele>
        <time>2024-07-21T21:38:38.030Z</time>
      </trkpt>
      <trkpt lat="45.6489" lon="6.53989">
        <ele>1906.79</ele>
        <time>2024-07-21T21:39:04.824Z</time>
      </trkpt>
      <trkpt lat="45.64906" lon="6.5398">
        <ele>1902.11</ele>
        <time>2024-07-21T21:39:31.641Z</time>
      </trkpt>
      <trkpt lat="45.64933" lon="6.53987">
        <ele>1898.76</ele>
        <time>2024-07-21T21:39:58.494Z</time>
      </trkpt>
      <trkpt lat="45.64963" lon="6.53997">
        <ele>1895.41</ele>
        <time>2024-07-21T21:40:25.388Z</time>
      </trkpt>
      <trkpt lat="45.6498" lon="6.53973">
        <ele>1892.45</ele>
        <time>2024-07-21T21:40:52.314Z</time>
      </trkpt>
      <trkpt lat="45.65032" lon="6.53979">
        <ele>1887.56</ele>
        <time>2024-07-21T21:41:19.309Z</time>
      </trkpt>
      <trkpt lat="45.65036" lon="6.53952">
        <ele>1891.91</ele>
        <time>2024-07-21T21:41:46.331Z</time>
      </trkpt>
      <trkpt lat="45.65052" lon="6.53935">
        <ele>1897.89</ele>
        <time>2024-07-21T21:42:13.379Z</time>
      </trkpt>
      <trkpt lat="45.65067" lon="6.5394">
        <ele>1897.26</ele>
        <time>2024-07-21T21:42:40.448Z</time>
      </trkpt>
      <trkpt lat="45.65093" lon="6.53924">
        <ele>1907.62</ele>
        <time>2024-07-21T21:43:07.554Z</time>
      </trkpt>
      <trkpt lat="45.65128" lon="6.53917">
        <ele>1908.27</ele>
        <time>2024-07-21T21:43:34.708Z</time>
      </trkpt>
      <trkpt lat="45.6515" lon="6.539">
        <ele>1910.92</ele>
        <time>2024-07-21T21:44:01.895Z</time>
      </trkpt>
      <trkpt lat="45.65155" lon="6.53896">
        <ele>1911.4</ele>
        <time>2024-07-21T21:44:29.090Z</time>
      </trkpt>
      <trkpt lat="45.65163" lon="6.53897">
        <ele>1909.96</ele>
        <time>2024-07-21T21:44:56.295Z</time>
      </trkpt>
      <trkpt lat="45.65172" lon="6.53889">
        <ele>1910.53</ele>
        <time>2024-07-21T21:45:23.514Z</time>
      </trkpt>
      <trkpt lat="45.6518" lon="6.53894">
        <ele>1905.84</ele>
        <time>2024-07-21T21:45:50.744Z</time>
      </trkpt>
      <trkpt lat="45.65189" lon="6.53897">
        <ele>1900.45</ele>
        <time>2024-07-21T21:46:17.987Z</time>
      </trkpt>
      <trkpt lat="45.65193" lon="6.53895">
        <ele>1899.11</ele>
        <time>2024-07-21T21:46:45.235Z</time>
      </trkpt>
      <trkpt lat="45.65196" lon="6.5388">
        <ele>1902.2</ele>
        <time>2024-07-21T21:47:12.498Z</time>
      </trkpt>
      <trkpt lat="45.65194" lon="6.53877">
        <ele>1903.8</ele>
        <time>2024-07-21T21:47:39.764Z</time>
      </trkpt>
      <trkpt lat="45.65195" lon="6.53871">
        <ele>1906.05</ele>
        <time>2024-07-21T21:48:07.037Z</time>
      </trkpt>
      <trkpt lat="45.65208" lon="6.53855">
        <ele>1903.14</ele>
        <time>2024-07-21T21:48:34.332Z</time>
      </trkpt>
      <trkpt lat="45.65214" lon="6.5384">
        <ele>1902.47</ele>
        <time>2024-07-21T21:49:01.644Z</time>
      </trkpt>
      <trkpt lat="45.65214" lon="6.53836">
        <ele>1903.71</ele>
        <time>2024-07-21T21:49:28.960Z</time>
      </trkpt>
      <trkpt lat="45.65216" lon="6.53836">
        <ele>1902.39</ele>
        <time>2024-07-21T21:49:56.279Z</time>
      </trkpt>
      <trkpt lat="45.65233" lon="6.5382">
        <ele>1898.19</ele>
        <time>2024-07-21T21:50:23.625Z</time>
      </trkpt>
      <trkpt lat="45.65243" lon="6.53831">
        <ele>1889.56</ele>
        <time>2024-07-21T21:50:50.988Z</time>
      </trkpt>
      <trkpt lat="45.65247" lon="6.53841">
        <ele>1885.75</ele>
        <time>2024-07-21T21:51:18.362Z</time>
      </trkpt>
      <trkpt lat="45.65261" lon="6.53839">
        <ele>1881.67</ele>
        <time>2024-07-21T21:51:45.754Z</time>
      </trkpt>
      <trkpt lat="45.65268" lon="6.53843">
        <ele>1880.43</ele>
        <time>2024-07-21T21:52:13.156Z</time>
      </trkpt>
      <trkpt lat="45.65272" lon="6.53843">
        <ele>1880.13</ele>
        <time>2024-07-21T21:52:40.564Z</time>
      </trkpt>
      <trkpt lat="45.65281" lon="6.5384">
        <ele>1880.1</ele>
        <time>2024-07-21T21:53:07.983Z</time>
      </trkpt>
      <trkpt lat="45.65283" lon="6.53842">
        <ele>1879.5</ele>
        <time>2024-07-21T21:53:35.406Z</time>
      </trkpt>
      <trkpt lat="45.65286" lon="6.53841">
        <ele>1879.25</ele>
        <time>2024-07-21T21:54:02.833Z</time>
      </trkpt>
      <trkpt lat="45.65295" lon="6.53844">
        <ele>1877.4</ele>
        <time>2024-07-21T21:54:30.272Z</time>
      </trkpt>
      <trkpt lat="45.65302" lon="6.53842">
        <ele>1876.7</ele>
        <time>2024-07-21T21:54:57.721Z</time>
      </trkpt>
      <trkpt lat="45.6531" lon="6.53836">
        <ele>1876.81</ele>
        <time>2024-07-21T21:55:25.182Z</time>
      </trkpt>
      <trkpt lat="45.65313" lon="6.53828">
        <ele>1878.23</ele>
        <time>2024-07-21T21:55:52.651Z</time>
      </trkpt>
      <trkpt lat="45.65321" lon="6.53825">
        <ele>1877.65</ele>
        <time>2024-07-21T21:56:20.132Z</time>
      </trkpt>
      <trkpt lat="45.65327" lon="6.53828">
        <ele>1875.76</ele>
        <time>2024-07-21T21:56:47.621Z</time>
      </trkpt>
      <trkpt lat="45.6534" lon="6.53832">
        <ele>1872.04</ele>
        <time>2024-07-21T21:57:15.128Z</time>
      </trkpt>
      <trkpt lat="45.65341" lon="6.53839">
        <ele>1870.17</ele>
        <time>2024-07-21T21:57:42.641Z</time>
      </trkpt>
      <trkpt lat="45.65345" lon="6.53839">
        <ele>1869.27</ele>
        <time>2024-07-21T21:58:10.160Z</time>
      </trkpt>
      <trkpt lat="45.65348" lon="6.53839">
        <ele>1868.53</ele>
        <time>2024-07-21T21:58:37.683Z</time>
      </trkpt>
      <trkpt lat="45.65351" lon="6.53842">
        <ele>1867.06</ele>
        <time>2024-07-21T21:59:05.211Z</time>
      </trkpt>
      <trkpt lat="45.65364" lon="6.53846">
        <ele>1863.18</ele>
        <time>2024-07-21T21:59:32.757Z</time>
      </trkpt>
      <trkpt lat="45.65367" lon="6.5385">
        <ele>1861.95</ele>
        <time>2024-07-21T22:00:00.307Z</time>
      </trkpt>
      <trkpt lat="45.65374" lon="6.53852">
        <ele>1859.76</ele>
        <time>2024-07-21T22:00:27.867Z</time>
      </trkpt>
      <trkpt lat="45.65377" lon="6.53857">
        <ele>1857.75</ele>
        <time>2024-07-21T22:00:55.434Z</time>
      </trkpt>
      <trkpt lat="45.65382" lon="6.53856">
        <ele>1857.04</ele>
        <time>2024-07-21T22:01:23.006Z</time>
      </trkpt>
      <trkpt lat="45.65383" lon="6.5386">
        <ele>1855.71</ele>
        <time>2024-07-21T22:01:50.583Z</time>
      </trkpt>
      <trkpt lat="45.65387" lon="6.53861">
        <ele>1854.52</ele>
        <time>2024-07-21T22:02:18.166Z</time>
      </trkpt>
      <trkpt lat="45.65384" lon="6.53875">
        <ele>1850.34</ele>
        <time>2024-07-21T22:02:45.762Z</time>
      </trkpt>
      <trkpt lat="45.65388" lon="6.53877">
        <ele>1848.58</ele>
        <time>2024-07-21T22:03:13.364Z</time>
      </trkpt>
      <trkpt lat="45.65391" lon="6.53874">
        <ele>1849.07</ele>
        <time>2024-07-21T22:03:40.972Z</time>
      </trkpt>
      <trkpt lat="45.65391" lon="6.53884">
        <ele>1845.6</ele>
        <time>2024-07-21T22:04:08.589Z</time>
      </trkpt>
      <trkpt lat="45.65397" lon="6.53885">
        <ele>1843.83</ele>
        <time>2024-07-21T22:04:36.213Z</time>
      </trkpt>
      <trkpt lat="45.65399" lon="6.53887">
        <ele>1842.38</ele>
        <time>2024-07-21T22:05:03.840Z</time>
      </trkpt>
      <trkpt lat="45.65414" lon="6.5388">
        <ele>1840.92</ele>
        <time>2024-07-21T22:05:31.489Z</time>
      </trkpt>
      <trkpt lat="45.65415" lon="6.5387">
        <ele>1844.44</ele>
        <time>2024-07-21T22:05:59.147Z</time>
      </trkpt>
      <trkpt lat="45.65418" lon="6.53862">
        <ele>1846.66</ele>
        <time>2024-07-21T22:06:26.813Z</time>
      </trkpt>
      <trkpt lat="45.65433" lon="6.53858">
        <ele>1844.07</ele>
        <time>2024-07-21T22:06:54.499Z</time>
      </trkpt>
      <trkpt lat="45.65456" lon="6.53865">
        <ele>1835.21</ele>
        <time>2024-07-21T22:07:22.216Z</time>
      </trkpt>
      <trkpt lat="45.65461" lon="6.5386">
        <ele>1836.05</ele>
        <time>2024-07-21T22:07:49.941Z</time>
      </trkpt>
      <trkpt lat="45.65471" lon="6.53864">
        <ele>1831.93</ele>
        <time>2024-07-21T22:08:17.679Z</time>
      </trkpt>
      <trkpt lat="45.65483" lon="6.53851">
        <ele>1833.39</ele>
        <time>2024-07-21T22:08:45.438Z</time>
      </trkpt>
      <trkpt lat="45.65497" lon="6.53847">
        <ele>1828.5</ele>
        <time>2024-07-21T22:09:13.216Z</time>
      </trkpt>
      <trkpt lat="45.65505" lon="6.53839">
        <ele>1828.74</ele>
        <time>2024-07-21T22:09:41.007Z</time>
      </trkpt>
      <trkpt lat="45.65515" lon="6.53831">
        <ele>1822.44</ele>
        <time>2024-07-21T22:10:08.813Z</time>
      </trkpt>
      <trkpt lat="45.65525" lon="6.53816">
        <ele>1817.66</ele>
        <time>2024-07-21T22:10:36.639Z</time>
      </trkpt>
      <trkpt lat="45.65534" lon="6.53781">
        <ele>1821.64</ele>
        <time>2024-07-21T22:11:04.500Z</time>
      </trkpt>
      <trkpt lat="45.65531" lon="6.53752">
        <ele>1825.86</ele>
        <time>2024-07-21T22:11:32.388Z</time>
      </trkpt>
      <trkpt lat="45.65529" lon="6.53747">
        <ele>1827.27</ele>
        <time>2024-07-21T22:12:00.282Z</time>
      </trkpt>
      <trkpt lat="45.65524" lon="6.53741">
        <ele>1829.91</ele>
        <time>2024-07-21T22:12:28.184Z</time>
      </trkpt>
      <trkpt lat="45.65524" lon="6.53741">
        <ele>1829.91</ele>
        <time>2024-07-21T22:12:56.086Z</time>
      </trkpt>
      <trkpt lat="45.65523" lon="6.53724">
        <ele>1829.49</ele>
        <time>2024-07-21T22:13:24.004Z</time>
      </trkpt>
      <trkpt lat="45.65516" lon="6.53696">
        <ele>1828.91</ele>
        <time>2024-07-21T22:13:51.950Z</time>
      </trkpt>
      <trkpt lat="45.65508" lon="6.5368">
        <ele>1832.5</ele>
        <time>2024-07-21T22:14:19.914Z</time>
      </trkpt>
      <trkpt lat="45.65503" lon="6.53653">
        <ele>1833.65</ele>
        <time>2024-07-21T22:14:47.904Z</time>
      </trkpt>
      <trkpt lat="45.65501" lon="6.53649">
        <ele>1834.49</ele>
        <time>2024-07-21T22:15:15.899Z</time>
      </trkpt>
      <trkpt lat="45.655" lon="6.5364">
        <ele>1834.45</ele>
        <time>2024-07-21T22:15:43.902Z</time>
      </trkpt>
      <trkpt lat="45.65497" lon="6.53632">
        <ele>1835.28</ele>
        <time>2024-07-21T22:16:11.914Z</time>
      </trkpt>
      <trkpt lat="45.65497" lon="6.53628">
        <ele>1834.97</ele>
        <time>2024-07-21T22:16:39.930Z</time>
      </trkpt>
      <trkpt lat="45.65494" lon="6.53622">
        <ele>1836.56</ele>
        <time>2024-07-21T22:17:07.952Z</time>
      </trkpt>
      <trkpt lat="45.65492" lon="6.53608">
        <ele>1837.3</ele>
        <time>2024-07-21T22:17:35.988Z</time>
      </trkpt>
      <trkpt lat="45.65487" lon="6.53593">
        <ele>1840.92</ele>
        <time>2024-07-21T22:18:04.039Z</time>
      </trkpt>
      <trkpt lat="45.65495" lon="6.53579">
        <ele>1836.73</ele>
        <time>2024-07-21T22:18:32.108Z</time>
      </trkpt>
      <trkpt lat="45.65497" lon="6.53567">
        <ele>1836.69</ele>
        <time>2024-07-21T22:19:00.188Z</time>
      </trkpt>
      <trkpt lat="45.655" lon="6.53553">
        <ele>1836.98</ele>
        <time>2024-07-21T22:19:28.281Z</time>
      </trkpt>
      <trkpt lat="45.65502" lon="6.53511">
        <ele>1843.27</ele>
        <time>2024-07-21T22:19:56.415Z</time>
      </trkpt>
      <trkpt lat="45.65505" lon="6.53503">
        <ele>1843.39</ele>
        <time>2024-07-21T22:20:24.557Z</time>
      </trkpt>
      <trkpt lat="45.65505" lon="6.53496">
        <ele>1844.21</ele>
        <time>2024-07-21T22:20:52.706Z</time>
      </trkpt>
      <trkpt lat="45.65504" lon="6.53489">
        <ele>1845.11</ele>
        <time>2024-07-21T22:21:20.861Z</time>
      </trkpt>
      <trkpt lat="45.65505" lon="6.53477">
        <ele>1845.53</ele>
        <time>2024-07-21T22:21:49.027Z</time>
      </trkpt>
      <trkpt lat="45.65511" lon="6.53452">
        <ele>1847.39</ele>
        <time>2024-07-21T22:22:17.219Z</time>
      </trkpt>
      <trkpt lat="45.65512" lon="6.53443">
        <ele>1848.85</ele>
        <time>2024-07-21T22:22:45.419Z</time>
      </trkpt>
      <trkpt lat="45.65523" lon="6.53418">
        <ele>1853.17</ele>
        <time>2024-07-21T22:23:13.646Z</time>
      </trkpt>
      <trkpt lat="45.65531" lon="6.53415">
        <ele>1853.68</ele>
        <time>2024-07-21T22:23:41.884Z</time>
      </trkpt>
      <trkpt lat="45.65549" lon="6.53418">
        <ele>1855.24</ele>
        <time>2024-07-21T22:24:10.146Z</time>
      </trkpt>
      <trkpt lat="45.65551" lon="6.53415">
        <ele>1856.26</ele>
        <time>2024-07-21T22:24:38.412Z</time>
      </trkpt>
      <trkpt lat="45.65539" lon="6.53398">
        <ele>1858.26</ele>
        <time>2024-07-21T22:25:06.701Z</time>
      </trkpt>
      <trkpt lat="45.65542" lon="6.53384">
        <ele>1860.01</ele>
        <time>2024-07-21T22:25:35.003Z</time>
      </trkpt>
      <trkpt lat="45.65549" lon="6.53378">
        <ele>1860.88</ele>
        <time>2024-07-21T22:26:03.316Z</time>
      </trkpt>
      <trkpt lat="45.65559" lon="6.53388">
        <ele>1860.11</ele>
        <time>2024-07-21T22:26:31.645Z</time>
      </trkpt>
      <trkpt lat="45.65574" lon="6.53399">
        <ele>1859.33</ele>
        <time>2024-07-21T22:26:59.997Z</time>
      </trkpt>
      <trkpt lat="45.65614" lon="6.534">
        <ele>1865.18</ele>
        <time>2024-07-21T22:27:28.403Z</time>
      </trkpt>
      <trkpt lat="45.65615" lon="6.53396">
        <ele>1866.51</ele>
        <time>2024-07-21T22:27:56.813Z</time>
      </trkpt>
      <trkpt lat="45.65614" lon="6.53391">
        <ele>1867.34</ele>
        <time>2024-07-21T22:28:25.228Z</time>
      </trkpt>
      <trkpt lat="45.65612" lon="6.53386">
        <ele>1867.96</ele>
        <time>2024-07-21T22:28:53.648Z</time>
      </trkpt>
      <trkpt lat="45.65618" lon="6.53387">
        <ele>1869.25</ele>
        <time>2024-07-21T22:29:22.076Z</time>
      </trkpt>
      <trkpt lat="45.65618" lon="6.53382">
        <ele>1870.78</ele>
        <time>2024-07-21T22:29:50.509Z</time>
      </trkpt>
      <trkpt lat="45.65624" lon="6.53383">
        <ele>1872.12</ele>
        <time>2024-07-21T22:30:18.950Z</time>
      </trkpt>
      <trkpt lat="45.65629" lon="6.53381">
        <ele>1874.07</ele>
        <time>2024-07-21T22:30:47.399Z</time>
      </trkpt>
      <trkpt lat="45.65626" lon="6.53365">
        <ele>1878.52</ele>
        <time>2024-07-21T22:31:15.863Z</time>
      </trkpt>
      <trkpt lat="45.65615" lon="6.53304">
        <ele>1889.42</ele>
        <time>2024-07-21T22:31:44.386Z</time>
      </trkpt>
      <trkpt lat="45.65616" lon="6.533">
        <ele>1890.14</ele>
        <time>2024-07-21T22:32:12.913Z</time>
      </trkpt>
      <trkpt lat="45.65628" lon="6.53313">
        <ele>1891.08</ele>
        <time>2024-07-21T22:32:41.459Z</time>
      </trkpt>
      <trkpt lat="45.65634" lon="6.53324">
        <ele>1891.07</ele>
        <time>2024-07-21T22:33:10.018Z</time>
      </trkpt>
      <trkpt lat="45.65659" lon="6.53331">
        <ele>1894.04</ele>
        <time>2024-07-21T22:33:38.612Z</time>
      </trkpt>
      <trkpt lat="45.6567" lon="6.53326">
        <ele>1895.51</ele>
        <time>2024-07-21T22:34:07.221Z</time>
      </trkpt>
      <trkpt lat="45.6567" lon="6.53326">
        <ele>1895.51</ele>
        <time>2024-07-21T22:34:35.830Z</time>
      </trkpt>
      <trkpt lat="45.6567" lon="6.53326">
        <ele>1895.51</ele>
        <time>2024-07-21T22:35:04.439Z</time>
      </trkpt>
    </trkseg>
  </trk>
</gpx>